ButlerWeather Station
Hourly Leaf Wetness Data

Source: University of Missouri

To the bottom of the page

Year Month Day Hour Leaf Wetness Total
Precipitation
Avg. Temp Avg. Rel.
Humidity
Wind
Speed
CST mV in mm F C % mph
2018 01 11 1:00 273.0 0.0 0.00 50.6 10.3 80.7 n/a
2018 01 11 2:00 272.5 0.0 0.00 51.7 11.0 77.37 n/a
2018 01 11 3:00 272.6 0.0 0.00 51.9 11.0 75.69 n/a
2018 01 11 4:00 272.9 0.0 0.00 51.2 10.7 76.54 n/a
2018 01 11 5:00 Wet 296.8 0.0 0.25 51.3 10.7 77.09 n/a
2018 01 11 6:00 Wet 549.8 0.2 3.81 48.8 9.3 90.5 n/a
2018 01 11 7:00 Wet 458.8 0.1 2.03 48.1 9.0 96 n/a
2018 01 11 8:00 Wet 456.1 0.1 1.78 47.9 8.8 96.3 n/a
2018 01 11 9:00 Wet 421.2 0.0 0.51 44.7 7.1 94.7 n/a
2018 01 11 10:00 Wet 358.1 0.0 0.00 32.0 -0.0 89.6 n/a
2018 01 11 11:00 280.0 0.0 0.00 28.7 -1.8 86.3 n/a
2018 01 11 12:00 277.0 0.0 0.00 25.1 -3.8 84.5 n/a
2018 01 11 13:00 276.5 0.0 0.00 22.2 -5.4 84.2 n/a
2018 01 11 14:00 276.3 0.0 0.00 20.3 -6.5 84.2 n/a
2018 01 11 15:00 275.9 0.0 0.00 18.0 -7.8 79.89 n/a
2018 01 11 16:00 275.2 0.0 0.00 17.4 -8.1 74.73 n/a
2018 01 11 17:00 274.8 0.0 0.00 15.8 -9.0 70.17 n/a
2018 01 11 18:00 274.6 0.0 0.00 15.0 -9.5 68.51 n/a
2018 01 11 19:00 274.3 0.0 0.00 14.6 -9.7 69.52 n/a
2018 01 11 20:00 274.2 0.0 0.00 13.9 -10.1 68.25 n/a
2018 01 11 21:00 274.2 0.0 0.00 13.8 -10.1 68.26 n/a
2018 01 11 22:00 274.1 0.0 0.00 13.7 -10.2 67.93 n/a
2018 01 11 23:00 273.6 0.0 0.00 13.4 -10.3 67.23 n/a
2018 01 11 24:00 273.5 0.0 0.00 12.9 -10.6 69.98 n/a
2018 01 12 1:00 273.6 0.0 0.00 12.3 -10.9 69.71 n/a
2018 01 12 2:00 273.5 0.0 0.00 11.5 -11.4 68.8 n/a
2018 01 12 3:00 273.0 0.0 0.00 11.1 -11.6 69.39 n/a
2018 01 12 4:00 272.6 0.0 0.00 10.7 -11.8 70 n/a
2018 01 12 5:00 272.2 0.0 0.00 10.1 -12.2 70.36 n/a
2018 01 12 6:00 272.0 0.0 0.00 9.5 -12.5 69.19 n/a
2018 01 12 7:00 272.3 0.0 0.00 8.8 -12.9 67.96 n/a
2018 01 12 8:00 272.2 0.0 0.00 8.1 -13.3 67.89 n/a
2018 01 12 9:00 272.5 0.0 0.00 8.4 -13.1 67.49 n/a
2018 01 12 10:00 272.4 0.0 0.00 10.1 -12.2 64.34 n/a
2018 01 12 11:00 271.8 0.0 0.00 12.6 -10.8 61.87 n/a
2018 01 12 12:00 271.3 0.0 0.00 15.3 -9.3 59.13 n/a
2018 01 12 13:00 270.6 0.0 0.00 18.2 -7.6 55.76 n/a
2018 01 12 14:00 270.0 0.0 0.00 20.9 -6.2 50.84 n/a
2018 01 12 15:00 269.9 0.0 0.00 22.1 -5.5 47.73 n/a
2018 01 12 16:00 269.5 0.0 0.00 22.4 -5.3 47.33 n/a
2018 01 12 17:00 269.8 0.0 0.00 21.4 -5.9 50.08 n/a
2018 01 12 18:00 270.0 0.0 0.00 19.7 -6.8 54.44 n/a
2018 01 12 19:00 269.9 0.0 0.00 18.3 -7.6 55.48 n/a
2018 01 12 20:00 269.5 0.0 0.00 17.0 -8.3 53.63 n/a
2018 01 12 21:00 269.5 0.0 0.00 16.4 -8.7 51.99 n/a
2018 01 12 22:00 269.4 0.0 0.00 16.0 -8.9 49.44 n/a
2018 01 12 23:00 269.4 0.0 0.00 15.0 -9.4 47 n/a
2018 01 12 24:00 269.4 0.0 0.00 14.4 -9.8 49.22 n/a
2018 01 13 1:00 269.4 0.0 0.00 14.0 -10.0 47.42 n/a
2018 01 13 2:00 269.4 0.0 0.00 13.5 -10.3 47.52 n/a
2018 01 13 3:00 269.4 0.0 0.00 13.4 -10.3 48.2 n/a
2018 01 13 4:00 269.4 0.0 0.00 13.4 -10.3 48.51 n/a
2018 01 13 5:00 269.4 0.0 0.00 13.5 -10.3 48.62 n/a
2018 01 13 6:00 269.4 0.0 0.00 13.4 -10.3 48.6 n/a
2018 01 13 7:00 269.4 0.0 0.00 13.2 -10.4 48.49 n/a
2018 01 13 8:00 269.4 0.0 0.00 13.0 -10.5 48.31 n/a
2018 01 13 9:00 269.4 0.0 0.00 13.4 -10.4 48.34 n/a
2018 01 13 10:00 269.4 0.0 0.00 14.2 -9.9 46.94 n/a
2018 01 13 11:00 269.1 0.0 0.00 15.3 -9.3 46.8 n/a
2018 01 13 12:00 268.7 0.0 0.00 16.8 -8.4 44.09 n/a
2018 01 13 13:00 268.6 0.0 0.00 18.8 -7.3 39.85 n/a
2018 01 13 14:00 268.6 0.0 0.00 20.5 -6.4 36.82 n/a
2018 01 13 15:00 268.6 0.0 0.00 21.5 -5.8 34.56 n/a
2018 01 13 16:00 268.6 0.0 0.00 21.6 -5.8 34.6 n/a
2018 01 13 17:00 268.8 0.0 0.00 21.1 -6.1 35.91 n/a
2018 01 13 18:00 269.3 0.0 0.00 19.9 -6.7 40.33 n/a
2018 01 13 19:00 269.5 0.0 0.00 18.4 -7.5 46.01 n/a
2018 01 13 20:00 269.7 0.0 0.00 17.3 -8.1 49.91 n/a
2018 01 13 21:00 269.4 0.0 0.00 17.5 -8.1 49.91 n/a
2018 01 13 22:00 269.5 0.0 0.00 17.3 -8.1 51.04 n/a
2018 01 13 23:00 270.0 0.0 0.00 17.0 -8.3 52.74 n/a
2018 01 13 24:00 270.1 0.0 0.00 17.1 -8.3 54.1 n/a
2018 01 14 1:00 270.1 0.0 0.00 17.4 -8.1 55.84 n/a
2018 01 14 2:00 270.1 0.0 0.00 17.8 -7.9 57.93 n/a
2018 01 14 3:00 270.7 0.0 0.00 17.5 -8.1 70.03 n/a
2018 01 14 4:00 271.7 0.0 0.00 17.1 -8.3 83.6 n/a
2018 01 14 5:00 272.1 0.0 0.00 17.3 -8.2 86.9 n/a
2018 01 14 6:00 272.3 0.0 0.00 17.4 -8.1 88.5 n/a
2018 01 14 7:00 272.8 0.0 0.00 18.1 -7.7 88.7 n/a
2018 01 14 8:00 272.8 0.0 0.00 18.4 -7.5 88.6 n/a
2018 01 14 9:00 272.7 0.0 0.00 19.2 -7.1 88.4 n/a
2018 01 14 10:00 272.1 0.0 0.00 20.8 -6.2 85.8 n/a
2018 01 14 11:00 272.1 0.0 0.00 22.8 -5.1 84.2 n/a
2018 01 14 12:00 271.9 0.0 0.00 24.9 -3.9 84.7 n/a
2018 01 14 13:00 272.0 0.0 0.00 26.8 -2.9 82.2 n/a
2018 01 14 14:00 271.9 0.0 0.51 28.3 -2.1 75.64 n/a
2018 01 14 15:00 271.9 0.0 0.00 28.6 -1.9 72.62 n/a
2018 01 14 16:00 271.9 0.0 0.00 29.1 -1.6 69.4 n/a
2018 01 14 17:00 271.9 0.0 0.00 28.7 -1.8 70.69 n/a
2018 01 14 18:00 272.6 0.0 0.00 28.0 -2.2 72.72 n/a
2018 01 14 19:00 272.7 0.0 0.00 27.9 -2.3 72.99 n/a
2018 01 14 20:00 272.7 0.0 0.00 28.1 -2.1 73.51 n/a
2018 01 14 21:00 272.6 0.0 0.00 28.1 -2.2 72.06 n/a
2018 01 14 22:00 272.2 0.0 0.00 28.7 -1.9 70.27 n/a
2018 01 14 23:00 272.0 0.0 0.00 30.6 -0.8 65.1 n/a
2018 01 14 24:00 Wet 322.5 0.0 0.00 32.2 0.1 67.17 n/a
2018 01 15 1:00 Wet 314.8 0.0 0.00 31.8 -0.1 78.25 n/a
2018 01 15 2:00 280.5 0.0 0.00 30.2 -1.0 94.1 n/a
2018 01 15 3:00 Wet 288.8 0.0 0.00 30.5 -0.8 96 n/a
2018 01 15 4:00 Wet 303.7 0.0 0.00 30.7 -0.7 95.7 n/a
2018 01 15 5:00 Wet 284.6 0.0 0.00 29.2 -1.6 90.1 n/a
2018 01 15 6:00 Wet 284.2 0.0 0.00 25.8 -3.4 75.35 n/a
2018 01 15 7:00 282.0 0.0 0.00 22.0 -5.5 72.18 n/a
2018 01 15 8:00 279.3 0.0 0.00 18.2 -7.7 66.69 n/a
2018 01 15 9:00 277.4 0.0 0.00 15.7 -9.0 63.87 n/a
2018 01 15 10:00 275.9 0.0 0.00 15.1 -9.4 62.63 n/a
2018 01 15 11:00 274.8 0.0 0.00 13.6 -10.2 64.4 n/a
2018 01 15 12:00 273.9 0.0 0.00 12.0 -11.1 63.46 n/a
2018 01 15 13:00 273.5 0.0 0.00 11.1 -11.6 59.49 n/a
2018 01 15 14:00 273.3 0.0 0.00 11.4 -11.4 57.19 n/a
2018 01 15 15:00 272.9 0.0 0.00 11.3 -11.5 55.07 n/a
2018 01 15 16:00 272.5 0.0 0.00 11.2 -11.6 52.32 n/a
2018 01 15 17:00 271.9 0.0 0.00 10.2 -12.1 54.31 n/a
2018 01 15 18:00 271.6 0.0 0.00 8.7 -12.9 56.25 n/a
2018 01 15 19:00 271.6 0.0 0.00 7.4 -13.6 58.13 n/a
2018 01 15 20:00 271.5 0.0 0.00 6.4 -14.2 57.27 n/a
2018 01 15 21:00 271.2 0.0 0.00 4.8 -15.1 57.69 n/a
2018 01 15 22:00 271.3 0.0 0.00 3.7 -15.7 58.33 n/a
2018 01 15 23:00 271.6 0.0 0.00 2.7 -16.3 59.17 n/a
2018 01 15 24:00 271.2 0.0 0.00 1.8 -16.8 57.83 n/a
2018 01 16 1:00 271.4 0.0 0.00 0.3 -17.6 58.49 n/a
2018 01 16 2:00 271.6 0.0 0.00 -0.9 -18.3 58.91 n/a
2018 01 16 3:00 271.6 0.0 0.00 -1.7 -18.7 59.59 n/a
2018 01 16 4:00 271.8 0.0 0.00 -2.9 -19.4 62.9 n/a
2018 01 16 5:00 271.9 0.0 0.00 -3.2 -19.6 62.31 n/a
2018 01 16 6:00 271.8 0.0 0.00 -3.6 -19.8 63.3 n/a
2018 01 16 7:00 271.8 0.0 0.00 -4.3 -20.1 64.83 n/a
2018 01 16 8:00 271.8 0.0 0.00 -5.0 -20.5 66.55 n/a
2018 01 16 9:00 271.8 0.0 0.00 -4.1 -20.1 66.32 n/a
2018 01 16 10:00 272.0 0.0 0.00 -1.9 -18.9 64.27 n/a
2018 01 16 11:00 271.8 0.0 0.00 0.1 -17.7 63.81 n/a
2018 01 16 12:00 271.7 0.0 0.00 1.8 -16.8 64.13 n/a
2018 01 16 13:00 271.7 0.0 0.00 3.9 -15.6 64.32 n/a
2018 01 16 14:00 271.6 0.0 0.00 5.6 -14.7 63.95 n/a
2018 01 16 15:00 271.5 0.0 0.00 6.8 -14.0 63.79 n/a
2018 01 16 16:00 271.5 0.0 0.00 7.9 -13.4 61.89 n/a
2018 01 16 17:00 271.5 0.0 0.00 8.3 -13.2 61.63 n/a
2018 01 16 18:00 271.9 0.0 0.00 7.1 -13.8 63.9 n/a
2018 01 16 19:00 272.8 0.0 0.00 5.4 -14.8 68.64 n/a
2018 01 16 20:00 273.5 0.0 0.00 4.2 -15.4 71.11 n/a
2018 01 16 21:00 274.5 0.0 0.00 2.4 -16.4 75.94 n/a
2018 01 16 22:00 275.5 0.0 0.00 1.4 -17.0 77.59 n/a
2018 01 16 23:00 276.6 0.0 0.00 -0.4 -18.0 81.4 n/a
2018 01 16 24:00 277.4 0.0 0.00 -0.9 -18.3 81.1 n/a
2018 01 17 1:00 278.2 0.0 0.00 -1.8 -18.8 80.7 n/a
2018 01 17 2:00 278.9 0.0 0.00 -2.2 -19.0 80.5 n/a
2018 01 17 3:00 279.3 0.0 0.00 -2.7 -19.3 80.1 n/a
2018 01 17 4:00 279.9 0.0 0.00 -3.5 -19.7 79.52 n/a
2018 01 17 5:00 280.4 0.0 0.00 -4.4 -20.2 79.28 n/a
2018 01 17 6:00 280.7 0.0 0.00 -5.1 -20.6 78.66 n/a
2018 01 17 7:00 281.2 0.0 0.00 -5.4 -20.8 78.74 n/a
2018 01 17 8:00 281.4 0.0 0.00 -5.2 -20.7 78.69 n/a
2018 01 17 9:00 281.2 0.0 0.00 -3.4 -19.7 79.66 n/a
2018 01 17 10:00 280.4 0.0 0.00 1.8 -16.8 80.2 n/a
2018 01 17 11:00 278.0 0.0 0.00 6.7 -14.1 74.82 n/a
2018 01 17 12:00 273.6 0.0 0.00 11.6 -11.3 67.3 n/a
2018 01 17 13:00 271.4 0.0 0.00 14.8 -9.6 63.32 n/a
2018 01 17 14:00 271.4 0.0 0.00 17.0 -8.3 61.68 n/a
2018 01 17 15:00 271.4 0.0 0.00 18.9 -7.3 57.76 n/a
2018 01 17 16:00 271.7 0.0 0.00 19.6 -6.9 58.27 n/a
2018 01 17 17:00 271.9 0.0 0.00 19.1 -7.1 56.59 n/a
2018 01 17 18:00 272.1 0.0 0.00 17.4 -8.1 58 n/a
2018 01 17 19:00 272.1 0.0 0.00 15.6 -9.1 63.54 n/a
2018 01 17 20:00 272.7 0.0 0.00 14.2 -9.9 68.5 n/a
2018 01 17 21:00 272.9 0.0 0.00 13.0 -10.6 70.19 n/a
2018 01 17 22:00 273.4 0.0 0.00 12.4 -10.9 71.49 n/a
2018 01 17 23:00 273.5 0.0 0.00 11.8 -11.2 72.29 n/a
2018 01 17 24:00 273.5 0.0 0.00 11.3 -11.5 73.44 n/a
2018 01 18 1:00 273.6 0.0 0.00 10.9 -11.7 74.77 n/a
2018 01 18 2:00 273.6 0.0 0.00 10.5 -11.9 74.68 n/a
2018 01 18 3:00 273.4 0.0 0.00 11.1 -11.6 71.57 n/a
2018 01 18 4:00 272.9 0.0 0.00 12.3 -11.0 67.45 n/a
2018 01 18 5:00 272.6 0.0 0.00 15.2 -9.3 60.5 n/a
2018 01 18 6:00 272.2 0.0 0.00 17.5 -8.1 55.74 n/a
2018 01 18 7:00 272.2 0.0 0.00 17.6 -8.0 54.62 n/a
2018 01 18 8:00 272.2 0.0 0.00 17.5 -8.1 55.29 n/a
2018 01 18 9:00 271.7 0.0 0.00 19.2 -7.1 53.15 n/a
2018 01 18 10:00 270.9 0.0 0.00 23.6 -4.7 48.13 n/a
2018 01 18 11:00 270.7 0.0 0.25 26.2 -3.2 46.12 n/a
2018 01 18 12:00 270.6 0.0 0.00 29.0 -1.6 45.75 n/a
2018 01 18 13:00 270.6 0.0 0.00 31.5 -0.3 44.8 n/a
2018 01 18 14:00 270.5 0.0 0.00 33.6 0.9 45.35 n/a
2018 01 18 15:00 270.5 0.0 0.00 35.5 2.0 45.2 n/a
2018 01 18 16:00 270.7 0.0 0.00 36.5 2.5 45.47 n/a
2018 01 18 17:00 271.0 0.0 0.00 36.4 2.4 46.64 n/a
2018 01 18 18:00 271.2 0.0 0.00 34.3 1.3 50.64 n/a
2018 01 18 19:00 271.4 0.0 0.00 33.4 0.8 53.76 n/a
2018 01 18 20:00 271.2 0.0 0.00 34.0 1.1 51.86 n/a
2018 01 18 21:00 271.2 0.0 0.00 33.6 0.9 50.99 n/a
2018 01 18 22:00 271.2 0.0 0.00 33.6 0.9 48.24 n/a
2018 01 18 23:00 271.2 0.0 0.00 33.7 0.9 46.08 n/a
2018 01 18 24:00 271.2 0.0 0.00 33.2 0.7 45.56 n/a
2018 01 19 1:00 271.2 0.0 0.00 32.8 0.4 45.8 n/a
2018 01 19 2:00 271.2 0.0 0.00 32.1 0.1 47.16 n/a
2018 01 19 3:00 271.2 0.0 0.00 31.1 -0.5 49.09 n/a
2018 01 19 4:00 271.3 0.0 0.00 30.0 -1.1 51.26 n/a
2018 01 19 5:00 271.3 0.0 0.00 29.6 -1.3 51.72 n/a
2018 01 19 6:00 271.3 0.0 0.00 29.2 -1.6 52.64 n/a
2018 01 19 7:00 271.3 0.0 0.00 28.1 -2.1 55.19 n/a
2018 01 19 8:00 271.3 0.0 0.00 28.1 -2.2 55.75 n/a
2018 01 19 9:00 271.3 0.0 0.00 29.5 -1.4 55.42 n/a
2018 01 19 10:00 270.8 0.0 0.00 32.3 0.2 54.95 n/a
2018 01 19 11:00 270.5 0.0 0.00 35.7 2.1 52.53 n/a
2018 01 19 12:00 270.5 0.0 0.00 38.8 3.8 49.08 n/a
2018 01 19 13:00 270.5 0.0 0.00 41.8 5.5 46.69 n/a
2018 01 19 14:00 270.1 0.0 0.00 45.7 7.6 43.8 n/a
2018 01 19 15:00 269.7 0.0 0.00 48.3 9.0 39.98 n/a
2018 01 19 16:00 269.7 0.0 0.00 48.9 9.4 40.79 n/a
2018 01 19 17:00 270.2 0.0 0.00 46.7 8.2 44.27 n/a
2018 01 19 18:00 270.5 0.0 0.00 43.5 6.4 48.48 n/a
2018 01 19 19:00 271.1 0.0 0.00 41.4 5.2 52.91 n/a
2018 01 19 20:00 271.2 0.0 0.00 41.3 5.2 54.18 n/a
2018 01 19 21:00 271.6 0.0 0.00 39.7 4.3 57.48 n/a
2018 01 19 22:00 271.9 0.0 0.00 38.6 3.7 61.11 n/a
2018 01 19 23:00 271.8 0.0 0.00 40.8 4.9 61.29 n/a
2018 01 19 24:00 272.0 0.0 0.00 42.2 5.7 68.36 n/a
2018 01 20 1:00 272.7 0.0 0.00 42.1 5.6 74.06 n/a
2018 01 20 2:00 273.4 0.0 0.00 41.4 5.2 79.92 n/a
2018 01 20 3:00 274.3 0.0 0.00 41.4 5.2 83.5 n/a
2018 01 20 4:00 274.5 0.0 0.00 42.0 5.6 84.9 n/a
2018 01 20 5:00 273.9 0.0 0.00 45.2 7.3 82.5 n/a
2018 01 20 6:00 273.8 0.0 0.00 46.8 8.2 81.8 n/a
2018 01 20 7:00 273.8 0.0 0.00 47.2 8.4 80.7 n/a
2018 01 20 8:00 273.8 0.0 0.00 47.4 8.6 81.3 n/a
2018 01 20 9:00 273.7 0.0 0.00 47.9 8.8 81.5 n/a
2018 01 20 10:00 273.1 0.0 0.00 48.7 9.3 81.3 n/a
2018 01 20 11:00 273.1 0.0 0.00 49.6 9.8 80.6 n/a
2018 01 20 12:00 273.1 0.0 0.00 50.3 10.2 79.2 n/a
2018 01 20 13:00 273.1 0.0 0.00 51.2 10.7 77.74 n/a
2018 01 20 14:00 272.5 0.0 0.00 52.3 11.3 75.45 n/a
2018 01 20 15:00 272.0 0.0 0.00 54.5 12.5 69.32 n/a
2018 01 20 16:00 271.7 0.0 0.00 56.6 13.7 63.6 n/a
2018 01 20 17:00 271.7 0.0 0.00 57.2 14.0 61.36 n/a
2018 01 20 18:00 273.1 0.0 0.00 54.9 12.7 65.87 n/a
2018 01 20 19:00 273.9 0.0 0.00 50.8 10.5 74.72 n/a
2018 01 20 20:00 274.0 0.0 0.00 47.7 8.7 80.3 n/a
2018 01 20 21:00 275.2 0.0 0.00 48.9 9.4 73.8 n/a
2018 01 20 22:00 274.4 0.0 0.00 48.8 9.3 74.59 n/a
2018 01 20 23:00 274.6 0.0 0.00 48.1 9.0 78.84 n/a
2018 01 20 24:00 274.9 0.0 0.00 47.5 8.6 83 n/a
2018 01 21 1:00 274.5 0.0 0.00 48.8 9.4 84 n/a
2018 01 21 2:00 274.5 0.0 0.00 50.3 10.2 83.3 n/a
2018 01 21 3:00 274.5 0.0 0.00 50.2 10.1 84.6 n/a
2018 01 21 4:00 274.5 0.0 0.00 50.7 10.4 85.4 n/a
2018 01 21 5:00 274.5 0.0 0.00 50.8 10.4 86.3 n/a
2018 01 21 6:00 274.9 0.0 0.00 50.1 10.0 87.9 n/a
2018 01 21 7:00 272.1 0.0 0.00 49.1 9.5 90.2 n/a
2018 01 21 8:00 281.3 0.0 0.00 48.0 8.9 92.5 n/a
2018 01 21 9:00 Wet 298.3 0.0 0.00 48.4 9.1 92.9 n/a
2018 01 21 10:00 273.9 0.0 0.00 53.5 12.0 85.5 n/a
2018 01 21 11:00 272.5 0.0 0.00 59.9 15.5 74.1 n/a
2018 01 21 12:00 271.4 0.0 0.00 63.4 17.5 65.47 n/a
2018 01 21 13:00 270.7 0.0 0.00 65.5 18.6 59.24 n/a
2018 01 21 14:00 270.3 0.0 0.00 66.2 19.0 55.4 n/a
2018 01 21 15:00 270.3 0.0 0.00 65.4 18.6 56 n/a
2018 01 21 16:00 270.3 0.0 0.00 65.6 18.6 56.58 n/a
2018 01 21 17:00 270.9 0.0 0.00 65.3 18.5 58.48 n/a
2018 01 21 18:00 271.5 0.0 0.00 63.3 17.4 62.22 n/a
2018 01 21 19:00 271.8 0.0 0.00 61.8 16.6 68.73 n/a
2018 01 21 20:00 273.0 0.0 0.00 60.0 15.6 78.36 n/a
2018 01 21 21:00 274.2 0.0 0.00 58.7 14.8 83.3 n/a
2018 01 21 22:00 274.4 0.0 0.00 57.7 14.3 83.7 n/a
2018 01 21 23:00 274.5 0.0 0.00 56.8 13.8 84.8 n/a
2018 01 21 24:00 275.0 0.0 0.00 56.3 13.5 86.7 n/a
2018 01 22 1:00 275.0 0.0 0.00 55.9 13.3 86 n/a
2018 01 22 2:00 275.1 0.0 0.00 54.0 12.2 84.2 n/a
2018 01 22 3:00 273.1 0.0 0.00 51.5 10.8 62.98 n/a
2018 01 22 4:00 271.4 0.0 0.00 48.6 9.2 43.73 n/a
2018 01 22 5:00 271.7 0.0 0.00 44.4 6.9 57.55 n/a
2018 01 22 6:00 273.0 0.0 0.00 39.5 4.2 72.93 n/a
2018 01 22 7:00 273.2 0.0 0.00 37.0 2.8 73.43 n/a
2018 01 22 8:00 273.1 0.0 0.00 37.0 2.8 72.3 n/a
2018 01 22 9:00 272.6 0.0 0.00 37.0 2.8 70.57 n/a
2018 01 22 10:00 272.5 0.0 0.00 37.9 3.3 65.73 n/a
2018 01 22 11:00 271.9 0.0 0.00 38.0 3.4 63.68 n/a
2018 01 22 12:00 271.9 0.0 0.00 38.7 3.7 63.81 n/a
2018 01 22 13:00 272.6 0.0 0.00 37.7 3.2 75.91 n/a
2018 01 22 14:00 277.0 0.0 0.25 37.2 2.9 85.1 n/a
2018 01 22 15:00 277.7 0.0 0.00 35.6 2.0 86.2 n/a
2018 01 22 16:00 277.3 0.0 0.00 34.6 1.5 84.5 n/a
2018 01 22 17:00 274.1 0.0 0.00 32.7 0.4 84.6 n/a
2018 01 22 18:00 274.2 0.0 0.00 30.5 -0.8 93.9 n/a
2018 01 22 19:00 274.8 0.0 0.00 31.2 -0.4 85.4 n/a
2018 01 22 20:00 274.8 0.0 0.00 31.6 -0.2 81.4 n/a
2018 01 22 21:00 275.1 0.0 0.25 31.6 -0.2 79.82 n/a
2018 01 22 22:00 275.1 0.0 0.00 31.5 -0.3 80.5 n/a
2018 01 22 23:00 275.0 0.0 0.00 31.0 -0.6 79.95 n/a
2018 01 22 24:00 274.8 0.0 0.00 30.4 -0.9 78.02 n/a
2018 01 23 1:00 274.4 0.0 0.00 30.2 -1.0 75.61 n/a
2018 01 23 2:00 274.4 0.0 0.00 30.2 -1.0 74.56 n/a
2018 01 23 3:00 274.4 0.0 0.00 29.9 -1.2 75.94 n/a
2018 01 23 4:00 274.2 0.0 0.00 29.5 -1.4 78.21 n/a
2018 01 23 5:00 274.1 0.0 0.00 29.3 -1.5 77.8 n/a
2018 01 23 6:00 273.8 0.0 0.00 28.9 -1.7 78.03 n/a
2018 01 23 7:00 273.6 0.0 0.00 28.6 -1.9 79.24 n/a
2018 01 23 8:00 273.8 0.0 0.00 28.4 -2.0 81.1 n/a
2018 01 23 9:00 273.8 0.0 0.00 28.1 -2.2 81.7 n/a
2018 01 23 10:00 273.7 0.0 0.00 28.2 -2.1 82.1 n/a
2018 01 23 11:00 273.2 0.0 0.00 28.3 -2.0 81.6 n/a
2018 01 23 12:00 272.7 0.0 0.00 29.0 -1.7 79.4 n/a
2018 01 23 13:00 272.1 0.0 0.00 29.8 -1.2 78.97 n/a
2018 01 23 14:00 272.3 0.0 0.00 31.4 -0.3 74.79 n/a
2018 01 23 15:00 272.5 0.0 0.00 33.4 0.8 69.33 n/a
2018 01 23 16:00 272.0 0.0 0.00 35.3 1.8 63.41 n/a
2018 01 23 17:00 271.9 0.0 0.00 35.7 2.0 62.29 n/a
2018 01 23 18:00 272.9 0.0 0.00 33.6 0.9 66.29 n/a
2018 01 23 19:00 273.4 0.0 0.00 31.7 -0.2 71.51 n/a
2018 01 23 20:00 273.7 0.0 0.00 30.6 -0.8 74.43 n/a
2018 01 23 21:00 273.3 0.0 0.00 29.5 -1.4 77.99 n/a
2018 01 23 22:00 276.1 0.0 0.00 27.1 -2.7 84.2 n/a
2018 01 23 23:00 278.9 0.0 0.00 25.7 -3.5 87.3 n/a
2018 01 23 24:00 280.7 0.0 0.00 24.3 -4.3 89.2 n/a
2018 01 24 1:00 281.9 0.0 0.00 25.2 -3.8 88.4 n/a
2018 01 24 2:00 283.3 0.0 0.00 24.6 -4.1 87.3 n/a
2018 01 24 3:00 Wet 284.6 0.0 0.00 23.8 -4.6 87.9 n/a
2018 01 24 4:00 Wet 285.5 0.0 0.00 23.3 -4.8 88.3 n/a
2018 01 24 5:00 Wet 286.3 0.0 0.00 23.7 -4.6 88.3 n/a
2018 01 24 6:00 Wet 286.7 0.0 0.00 23.3 -4.8 88.6 n/a
2018 01 24 7:00 Wet 287.4 0.0 0.00 22.8 -5.1 90.3 n/a
2018 01 24 8:00 Wet 287.8 0.0 0.00 22.9 -5.1 90.7 n/a
2018 01 24 9:00 Wet 285.3 0.0 0.00 25.8 -3.4 88.8 n/a
2018 01 24 10:00 Wet 335.8 0.0 0.00 31.3 -0.4 81.6 n/a
2018 01 24 11:00 Wet 294.0 0.0 0.00 35.6 2.0 70.64 n/a
2018 01 24 12:00 271.6 0.0 0.00 39.4 4.1 61.74 n/a
2018 01 24 13:00 271.1 0.0 0.00 43.2 6.2 53.26 n/a
2018 01 24 14:00 270.4 0.0 0.00 46.7 8.2 43.44 n/a
2018 01 24 15:00 269.8 0.0 0.00 49.0 9.4 36.29 n/a
2018 01 24 16:00 269.3 0.0 0.00 50.6 10.3 31.65 n/a
2018 01 24 17:00 269.1 0.0 0.00 50.5 10.3 31.62 n/a
2018 01 24 18:00 270.0 0.0 0.00 46.9 8.3 34.19 n/a
2018 01 24 19:00 270.4 0.0 0.00 44.3 6.8 36.36 n/a
2018 01 24 20:00 270.5 0.0 0.00 42.0 5.5 42.08 n/a
2018 01 24 21:00 271.0 0.0 0.00 40.3 4.6 46.09 n/a
2018 01 24 22:00 271.2 0.0 0.00 39.6 4.2 50.86 n/a
2018 01 24 23:00 271.4 0.0 0.00 37.8 3.2 54.49 n/a
2018 01 24 24:00 271.7 0.0 0.00 36.7 2.6 56.82 n/a
2018 01 25 1:00 271.9 0.0 0.00 36.3 2.4 56.52 n/a
2018 01 25 2:00 271.8 0.0 0.00 36.6 2.5 55.93 n/a
2018 01 25 3:00 271.9 0.0 0.00 36.2 2.3 56.42 n/a
2018 01 25 4:00 271.9 0.0 0.00 35.8 2.1 56.03 n/a
2018 01 25 5:00 271.8 0.0 0.00 36.6 2.6 53.44 n/a
2018 01 25 6:00 271.3 0.0 0.00 38.9 3.8 48.12 n/a
2018 01 25 7:00 271.0 0.0 0.00 40.5 4.7 44.14 n/a
2018 01 25 8:00 270.6 0.0 0.00 41.1 5.1 43.1 n/a
2018 01 25 9:00 270.1 0.0 0.00 42.5 5.8 41.29 n/a
2018 01 25 10:00 269.2 0.0 0.00 46.7 8.2 35.62 n/a
2018 01 25 11:00 268.4 0.0 0.00 51.9 11.1 28.23 n/a
2018 01 25 12:00 267.7 0.0 0.00 56.0 13.3 24.14 n/a
2018 01 25 13:00 267.2 0.0 0.00 59.9 15.5 21.23 n/a
2018 01 25 14:00 266.8 0.0 0.00 62.2 16.8 19.09 n/a
2018 01 25 15:00 266.4 0.0 0.00 62.9 17.1 17.98 n/a
2018 01 25 16:00 266.7 0.0 0.00 62.4 16.9 18.72 n/a
2018 01 25 17:00 266.9 0.0 0.00 60.5 15.9 19.44 n/a
2018 01 25 18:00 267.4 0.0 0.00 56.5 13.6 25.01 n/a
2018 01 25 19:00 267.7 0.0 0.00 54.4 12.5 28.12 n/a
2018 01 25 20:00 267.7 0.0 0.00 53.0 11.7 27.28 n/a
2018 01 25 21:00 268.2 0.0 0.00 50.1 10.1 30.75 n/a
2018 01 25 22:00 268.6 0.0 0.00 47.7 8.7 33.97 n/a
2018 01 25 23:00 269.1 0.0 0.00 45.5 7.5 36.49 n/a
2018 01 25 24:00 269.1 0.0 0.00 44.6 7.0 36.88 n/a
2018 01 26 1:00 269.1 0.0 0.00 43.1 6.2 39.48 n/a
2018 01 26 2:00 269.6 0.0 0.00 42.0 5.6 42.66 n/a
2018 01 26 3:00 269.8 0.0 0.00 41.9 5.5 44.46 n/a
2018 01 26 4:00 269.8 0.0 0.00 42.5 5.8 45.38 n/a
2018 01 26 5:00 269.7 0.0 0.00 44.2 6.8 44.28 n/a
2018 01 26 6:00 269.1 0.0 0.00 47.9 8.8 38.94 n/a
2018 01 26 7:00 269.1 0.0 0.00 47.8 8.8 41.27 n/a
2018 01 26 8:00 269.1 0.0 0.00 47.7 8.7 44.36 n/a
2018 01 26 9:00 269.0 0.0 0.00 49.4 9.7 39.97 n/a
2018 01 26 10:00 268.4 0.0 0.00 51.5 10.8 37.2 n/a
2018 01 26 11:00 268.2 0.0 0.00 53.3 11.8 36.93 n/a
2018 01 26 12:00 268.3 0.0 0.00 54.8 12.6 42.61 n/a
2018 01 26 13:00 268.5 0.0 0.00 55.8 13.2 46.68 n/a
2018 01 26 14:00 268.5 0.0 0.00 57.2 14.0 47.23 n/a
2018 01 26 15:00 268.9 0.0 0.00 56.5 13.6 49.94 n/a
2018 01 26 16:00 269.0 0.0 0.00 57.2 14.0 49.43 n/a
2018 01 26 17:00 269.6 0.0 0.00 55.3 13.0 56.62 n/a
2018 01 26 18:00 270.2 0.0 0.00 53.9 12.2 62.66 n/a
2018 01 26 19:00 270.9 0.0 0.00 53.0 11.7 69.91 n/a
2018 01 26 20:00 271.3 0.0 0.00 52.3 11.3 72.67 n/a
2018 01 26 21:00 271.9 0.0 0.00 51.4 10.8 76.47 n/a
2018 01 26 22:00 272.4 0.0 0.00 50.7 10.4 77.51 n/a
2018 01 26 23:00 272.0 0.0 0.00 51.3 10.7 78.2 n/a
2018 01 26 24:00 Wet 287.0 0.0 0.00 49.2 9.6 83 n/a
2018 01 27 1:00 272.3 0.0 0.00 44.7 7.0 66.76 n/a
2018 01 27 2:00 271.8 0.0 0.00 43.1 6.2 66.71 n/a
2018 01 27 3:00 271.8 0.0 0.00 41.3 5.1 66.1 n/a
2018 01 27 4:00 272.9 0.0 0.00 38.6 3.7 70.08 n/a
2018 01 27 5:00 273.7 0.0 0.00 36.3 2.4 72.08 n/a
2018 01 27 6:00 273.2 0.0 0.00 34.3 1.3 72.47 n/a
2018 01 27 7:00 274.0 0.0 0.00 32.4 0.2 75.14 n/a
2018 01 27 8:00 274.4 0.0 0.00 30.9 -0.6 77.59 n/a
2018 01 27 9:00 272.6 0.0 0.00 33.0 0.6 73.78 n/a
2018 01 27 10:00 271.5 0.0 0.00 39.0 3.9 62.06 n/a
2018 01 27 11:00 270.4 0.0 0.00 44.4 6.9 49.96 n/a
2018 01 27 12:00 268.9 0.0 0.00 48.4 9.1 38.67 n/a
2018 01 27 13:00 268.6 0.0 0.00 50.3 10.2 33.36 n/a
2018 01 27 14:00 268.3 0.0 0.00 51.7 10.9 30.69 n/a
2018 01 27 15:00 267.9 0.0 0.00 53.0 11.7 26.64 n/a
2018 01 27 16:00 267.6 0.0 0.00 53.6 12.0 23.22 n/a
2018 01 27 17:00 267.7 0.0 0.00 53.3 11.8 24.72 n/a
2018 01 27 18:00 268.6 0.0 0.00 50.5 10.3 29.11 n/a
2018 01 27 19:00 269.3 0.0 0.00 46.7 8.2 35.08 n/a
2018 01 27 20:00 269.9 0.0 0.00 43.6 6.5 40.64 n/a
2018 01 27 21:00 270.5 0.0 0.00 41.2 5.1 44.3 n/a
2018 01 27 22:00 270.5 0.0 0.00 39.7 4.3 46.72 n/a
2018 01 27 23:00 271.2 0.0 0.00 36.6 2.6 52.53 n/a
2018 01 27 24:00 272.1 0.0 0.00 33.1 0.6 61.77 n/a
2018 01 28 1:00 272.5 0.0 0.00 31.9 -0.0 63.5 n/a
2018 01 28 2:00 272.2 0.0 0.00 30.8 -0.7 67.35 n/a
2018 01 28 3:00 273.7 0.0 0.00 29.3 -1.5 70.58 n/a
2018 01 28 4:00 274.6 0.0 0.00 27.7 -2.4 75.78 n/a
2018 01 28 5:00 275.2 0.0 0.00 27.6 -2.5 76.73 n/a
2018 01 28 6:00 276.0 0.0 0.00 26.5 -3.0 78.48 n/a
2018 01 28 7:00 277.0 0.0 0.00 25.5 -3.6 78.47 n/a
2018 01 28 8:00 278.3 0.0 0.00 24.2 -4.3 81.7 n/a
2018 01 28 9:00 277.0 0.0 0.00 29.7 -1.3 71.15 n/a
2018 01 28 10:00 271.2 0.0 0.00 35.5 1.9 69.58 n/a
2018 01 28 11:00 269.6 0.0 0.00 43.1 6.2 50.24 n/a
2018 01 28 12:00 268.9 0.0 0.00 47.3 8.5 39.49 n/a
2018 01 28 13:00 268.3 0.0 0.00 49.8 9.9 33.75 n/a
2018 01 28 14:00 268.4 0.0 0.00 48.5 9.1 37.83 n/a
2018 01 28 15:00 268.4 0.0 0.00 47.4 8.6 34.02 n/a
2018 01 28 16:00 269.0 0.0 0.00 47.0 8.3 35.68 n/a
2018 01 28 17:00 269.0 0.0 0.00 46.2 7.9 38.2 n/a
2018 01 28 18:00 269.5 0.0 0.00 43.9 6.6 42.75 n/a
2018 01 28 19:00 270.0 0.0 0.00 41.4 5.2 49.52 n/a
2018 01 28 20:00 270.8 0.0 0.00 38.1 3.4 60.88 n/a
2018 01 28 21:00 271.2 0.0 0.00 35.2 1.8 65.48 n/a
2018 01 28 22:00 271.2 0.0 0.00 33.7 0.9 63.78 n/a
2018 01 28 23:00 271.2 0.0 0.00 31.4 -0.3 63.55 n/a
2018 01 28 24:00 271.6 0.0 0.00 28.9 -1.7 67.19 n/a
2018 01 29 1:00 272.0 0.0 0.00 26.5 -3.1 72.08 n/a
2018 01 29 2:00 272.0 0.0 0.00 25.1 -3.8 73.26 n/a
2018 01 29 3:00 272.0 0.0 0.00 23.8 -4.5 70.77 n/a
2018 01 29 4:00 272.1 0.0 0.00 20.9 -6.1 69.7 n/a
2018 01 29 5:00 272.1 0.0 0.00 20.2 -6.6 70.14 n/a
2018 01 29 6:00 272.1 0.0 0.00 18.3 -7.6 68.03 n/a
2018 01 29 7:00 272.2 0.0 0.00 17.1 -8.3 71.69 n/a
2018 01 29 8:00 272.5 0.0 0.00 16.4 -8.7 73.19 n/a
2018 01 29 9:00 272.1 0.0 0.00 17.0 -8.3 66.68 n/a
2018 01 29 10:00 271.8 0.0 0.00 18.5 -7.5 65.65 n/a
2018 01 29 11:00 271.4 0.0 0.00 20.0 -6.7 63.52 n/a
2018 01 29 12:00 271.3 0.0 0.00 22.1 -5.5 58.04 n/a
2018 01 29 13:00 270.8 0.0 0.00 25.2 -3.8 52.47 n/a
2018 01 29 14:00 270.6 0.0 0.00 27.9 -2.3 47.47 n/a
2018 01 29 15:00 270.5 0.0 0.00 29.5 -1.4 43.78 n/a
2018 01 29 16:00 270.2 0.0 0.00 30.9 -0.6 40.02 n/a
2018 01 29 17:00 269.8 0.0 0.00 30.8 -0.6 37.58 n/a
2018 01 29 18:00 270.4 0.0 0.00 29.5 -1.4 39.62 n/a
2018 01 29 19:00 271.0 0.0 0.00 27.2 -2.7 45.35 n/a
2018 01 29 20:00 271.4 0.0 0.00 25.2 -3.8 51.23 n/a
2018 01 29 21:00 271.7 0.0 0.00 23.7 -4.6 54.98 n/a
2018 01 29 22:00 272.1 0.0 0.00 22.5 -5.3 58.04 n/a
2018 01 29 23:00 272.1 0.0 0.00 22.2 -5.5 58.27 n/a
2018 01 29 24:00 272.2 0.0 0.00 20.7 -6.3 62.36 n/a
2018 01 30 1:00 272.8 0.0 0.00 19.1 -7.2 69.38 n/a
2018 01 30 2:00 273.3 0.0 0.00 18.9 -7.3 70.65 n/a
2018 01 30 3:00 272.9 0.0 0.00 19.7 -6.9 70.08 n/a
2018 01 30 4:00 272.8 0.0 0.00 19.9 -6.7 71.44 n/a
2018 01 30 5:00 272.8 0.0 0.00 20.4 -6.4 71.11 n/a
2018 01 30 6:00 272.8 0.0 0.00 20.8 -6.2 70.93 n/a
2018 01 30 7:00 272.8 0.0 0.00 20.5 -6.4 71.16 n/a
2018 01 30 8:00 272.8 0.0 0.00 20.7 -6.3 71.03 n/a
2018 01 30 9:00 272.0 0.0 0.00 23.2 -4.9 67.37 n/a
2018 01 30 10:00 271.5 0.0 0.00 26.4 -3.1 60.73 n/a
2018 01 30 11:00 270.6 0.0 0.00 30.6 -0.8 49.45 n/a
2018 01 30 12:00 270.0 0.0 0.00 35.6 2.0 40.22 n/a
2018 01 30 13:00 269.3 0.0 0.00 40.5 4.8 33.02 n/a
2018 01 30 14:00 268.8 0.0 0.00 45.5 7.5 27.55 n/a
2018 01 30 15:00 268.3 0.0 0.00 48.6 9.2 24.4 n/a
2018 01 30 16:00 268.2 0.0 0.00 49.8 9.9 24.41 n/a
2018 01 30 17:00 268.3 0.0 0.00 49.8 9.9 25.7 n/a
2018 01 30 18:00 268.4 0.0 0.00 48.1 9.0 28.15 n/a
2018 01 30 19:00 268.9 0.0 0.00 46.3 7.9 31.12 n/a
2018 01 30 20:00 269.1 0.0 0.00 43.9 6.6 35.4 n/a
2018 01 30 21:00 269.1 0.0 0.00 43.6 6.4 36.05 n/a
2018 01 30 22:00 269.1 0.0 0.00 42.7 6.0 38.62 n/a
2018 01 30 23:00 269.3 0.0 0.00 41.5 5.3 41.29 n/a
2018 01 30 24:00 269.7 0.0 0.00 40.8 4.9 43 n/a
2018 01 31 1:00 269.8 0.0 0.00 40.2 4.6 44.85 n/a
2018 01 31 2:00 269.8 0.0 0.00 40.2 4.5 46.09 n/a
2018 01 31 3:00 269.8 0.0 0.00 41.1 5.1 46 n/a
2018 01 31 4:00 269.8 0.0 0.00 42.4 5.8 45.62 n/a
2018 01 31 5:00 269.8 0.0 0.00 43.5 6.4 45.45 n/a
2018 01 31 6:00 269.8 0.0 0.00 43.3 6.3 47.18 n/a
2018 01 31 7:00 269.8 0.0 0.00 43.4 6.4 48.4 n/a
2018 01 31 8:00 270.4 0.0 0.00 42.7 5.9 50.89 n/a
2018 01 31 9:00 269.8 0.0 0.00 43.7 6.5 50.39 n/a
2018 01 31 10:00 269.1 0.0 0.00 46.9 8.3 45.98 n/a
2018 01 31 11:00 268.9 0.0 0.00 48.4 9.1 43.52 n/a
2018 01 31 12:00 268.3 0.0 0.00 50.8 10.5 39.03 n/a
2018 01 31 13:00 267.8 0.0 0.00 52.3 11.3 36.8 n/a
2018 01 31 14:00 267.7 0.0 0.00 54.0 12.2 34.48 n/a
2018 01 31 15:00 267.6 0.0 0.00 54.7 12.6 33.65 n/a
2018 01 31 16:00 267.7 0.0 0.00 55.1 12.9 33.33 n/a
2018 01 31 17:00 268.0 0.0 0.00 54.9 12.7 33.86 n/a
2018 01 31 18:00 268.7 0.0 0.00 51.8 11.0 38.25 n/a
2018 01 31 19:00 269.2 0.0 0.00 48.6 9.2 44.1 n/a
2018 01 31 20:00 270.0 0.0 0.00 44.8 7.1 53.95 n/a
2018 01 31 21:00 270.5 0.0 0.00 42.9 6.0 58.6 n/a
2018 01 31 22:00 270.5 0.0 0.00 41.7 5.4 60.92 n/a
2018 01 31 23:00 270.9 0.0 0.00 40.8 4.9 62.92 n/a
2018 01 31 24:00 271.2 0.0 0.00 40.1 4.5 64.39 n/a
2018 02 01 1:00 271.2 0.0 0.00 39.5 4.2 66 n/a
2018 02 01 2:00 271.3 0.0 0.00 38.8 3.8 67.8 n/a
2018 02 01 3:00 272.0 0.0 0.00 36.7 2.6 74.16 n/a
2018 02 01 4:00 272.1 0.0 0.00 36.8 2.7 73.18 n/a
2018 02 01 5:00 272.3 0.0 0.00 36.5 2.5 71.6 n/a
2018 02 01 6:00 272.3 0.0 0.00 36.0 2.2 71.25 n/a
2018 02 01 7:00 271.7 0.0 0.00 37.8 3.2 61.81 n/a
2018 02 01 8:00 271.3 0.0 0.00 36.5 2.5 60.23 n/a
2018 02 01 9:00 271.1 0.0 0.00 34.5 1.4 54.47 n/a
2018 02 01 10:00 270.9 0.0 0.00 33.3 0.7 58.28 n/a
2018 02 01 11:00 271.0 0.0 0.00 31.0 -0.6 56.35 n/a
2018 02 01 12:00 270.6 0.0 0.00 29.6 -1.3 46.15 n/a
2018 02 01 13:00 270.4 0.0 0.00 29.3 -1.5 46.74 n/a
2018 02 01 14:00 270.2 0.0 0.00 30.2 -1.0 43.12 n/a
2018 02 01 15:00 269.9 0.0 0.00 30.4 -0.9 38.74 n/a
2018 02 01 16:00 269.8 0.0 0.00 30.2 -1.0 32.2 n/a
2018 02 01 17:00 269.4 0.0 0.00 28.7 -1.8 29.73 n/a
2018 02 01 18:00 269.8 0.0 0.00 26.9 -2.8 33.46 n/a
2018 02 01 19:00 270.0 0.0 0.00 24.0 -4.5 39.27 n/a
2018 02 01 20:00 270.7 0.0 0.00 22.1 -5.5 44.3 n/a
2018 02 01 21:00 270.7 0.0 0.00 20.6 -6.3 48.55 n/a
2018 02 01 22:00 270.7 0.0 0.00 19.4 -7.0 49.79 n/a
2018 02 01 23:00 270.8 0.0 0.00 18.2 -7.7 52.13 n/a
2018 02 01 24:00 271.3 0.0 0.00 17.2 -8.2 54.46 n/a
2018 02 02 1:00 271.5 0.0 0.00 16.0 -8.9 57.49 n/a
2018 02 02 2:00 271.6 0.0 0.00 15.2 -9.3 58.25 n/a
2018 02 02 3:00 271.5 0.0 0.00 14.5 -9.7 58.95 n/a
2018 02 02 4:00 271.5 0.0 0.00 13.5 -10.3 58.63 n/a
2018 02 02 5:00 271.5 0.0 0.00 12.9 -10.6 57.2 n/a
2018 02 02 6:00 271.6 0.0 0.00 12.0 -11.1 60 n/a
2018 02 02 7:00 272.1 0.0 0.00 11.3 -11.5 62.94 n/a
2018 02 02 8:00 272.9 0.0 0.00 10.4 -12.0 67.55 n/a
2018 02 02 9:00 271.8 0.0 0.00 13.3 -10.4 63.22 n/a
2018 02 02 10:00 271.0 0.0 0.00 16.7 -8.5 57.34 n/a
2018 02 02 11:00 270.4 0.0 0.00 20.0 -6.7 49.92 n/a
2018 02 02 12:00 270.0 0.0 0.00 23.0 -5.0 43.75 n/a
2018 02 02 13:00 269.6 0.0 0.00 26.3 -3.1 37.36 n/a
2018 02 02 14:00 269.2 0.0 0.00 29.6 -1.3 31.36 n/a
2018 02 02 15:00 269.2 0.0 0.00 31.9 -0.0 29.52 n/a
2018 02 02 16:00 269.2 0.0 0.00 33.3 0.7 31.4 n/a
2018 02 02 17:00 269.2 0.0 0.00 33.8 1.0 32.69 n/a
2018 02 02 18:00 269.5 0.0 0.00 33.0 0.5 34.94 n/a
2018 02 02 19:00 269.9 0.0 0.00 31.3 -0.4 37.87 n/a
2018 02 02 20:00 270.1 0.0 0.00 30.7 -0.7 40.52 n/a
2018 02 02 21:00 269.9 0.0 0.00 31.7 -0.1 38.3 n/a
2018 02 02 22:00 269.9 0.0 0.00 32.3 0.1 38.48 n/a
2018 02 02 23:00 269.9 0.0 0.00 31.7 -0.2 41.29 n/a
2018 02 02 24:00 270.5 0.0 0.00 30.0 -1.1 46.29 n/a
2018 02 03 1:00 270.6 0.0 0.00 30.4 -0.9 46.64 n/a
2018 02 03 2:00 270.6 0.0 0.00 30.8 -0.7 47.43 n/a
2018 02 03 3:00 270.6 0.0 0.00 31.4 -0.3 49.05 n/a
2018 02 03 4:00 270.2 0.0 0.00 34.4 1.4 43.06 n/a
2018 02 03 5:00 269.9 0.0 0.00 35.5 1.9 38.89 n/a
2018 02 03 6:00 269.9 0.0 0.00 35.1 1.7 38.65 n/a
2018 02 03 7:00 269.9 0.0 0.00 34.3 1.3 38.82 n/a
2018 02 03 8:00 269.9 0.0 0.00 33.2 0.7 40.36 n/a
2018 02 03 9:00 269.8 0.0 0.00 33.5 0.8 39.02 n/a
2018 02 03 10:00 269.2 0.0 0.00 35.8 2.1 35.15 n/a
2018 02 03 11:00 268.8 0.0 0.00 38.9 3.8 28.93 n/a
2018 02 03 12:00 268.0 0.0 0.00 42.8 6.0 22.39 n/a
2018 02 03 13:00 267.7 0.0 0.00 44.0 6.6 21.48 n/a
2018 02 03 14:00 267.7 0.0 0.00 44.4 6.9 23.8 n/a
2018 02 03 15:00 267.8 0.0 0.00 45.5 7.5 27.4 n/a
2018 02 03 16:00 267.9 0.0 0.00 46.8 8.2 30.23 n/a
2018 02 03 17:00 268.4 0.0 0.00 45.8 7.7 34.6 n/a
2018 02 03 18:00 269.0 0.0 0.00 43.4 6.3 38.36 n/a
2018 02 03 19:00 269.8 0.0 0.00 40.5 4.7 43.24 n/a
2018 02 03 20:00 269.8 0.0 0.00 40.8 4.9 44.42 n/a
2018 02 03 21:00 269.8 0.0 0.00 41.5 5.3 46.15 n/a
2018 02 03 22:00 269.8 0.0 0.00 40.2 4.6 48.07 n/a
2018 02 03 23:00 269.8 0.0 0.00 39.4 4.1 48.48 n/a
2018 02 03 24:00 270.4 0.0 0.00 37.3 2.9 52.15 n/a
2018 02 04 1:00 270.6 0.0 0.00 35.6 2.0 54.63 n/a
2018 02 04 2:00 271.2 0.0 0.00 34.3 1.3 57.26 n/a
2018 02 04 3:00 271.2 0.0 0.00 33.3 0.7 61.76 n/a
2018 02 04 4:00 271.7 0.0 0.00 33.5 0.8 69.9 n/a
2018 02 04 5:00 271.9 0.0 0.00 33.0 0.5 74.68 n/a
2018 02 04 6:00 271.9 0.0 0.00 32.2 0.1 71.05 n/a
2018 02 04 7:00 271.9 0.0 0.00 29.3 -1.5 70.58 n/a
2018 02 04 8:00 272.0 0.0 0.00 27.5 -2.5 69.59 n/a
2018 02 04 9:00 271.6 0.0 0.00 25.4 -3.7 65.8 n/a
2018 02 04 10:00 271.3 0.0 0.00 24.3 -4.3 60.03 n/a
2018 02 04 11:00 271.3 0.0 0.00 22.9 -5.0 58.61 n/a
2018 02 04 12:00 271.8 0.0 0.00 19.2 -7.1 81.5 n/a
2018 02 04 13:00 272.1 0.0 0.00 15.9 -8.9 87.6 n/a
2018 02 04 14:00 272.0 0.0 0.00 13.8 -10.1 87.8 n/a
2018 02 04 15:00 271.5 0.0 0.00 14.7 -9.6 83.4 n/a
2018 02 04 16:00 271.4 0.0 0.00 14.4 -9.8 70.45 n/a
2018 02 04 17:00 271.4 0.0 0.00 14.7 -9.6 64.51 n/a
2018 02 04 18:00 271.4 0.0 0.00 13.2 -10.5 63.95 n/a
2018 02 04 19:00 272.1 0.0 0.00 10.4 -12.0 66.54 n/a
2018 02 04 20:00 272.2 0.0 0.00 8.4 -13.1 67.7 n/a
2018 02 04 21:00 272.3 0.0 0.00 6.7 -14.0 68.1 n/a
2018 02 04 22:00 272.4 0.0 0.00 5.7 -14.6 69.03 n/a
2018 02 04 23:00 272.4 0.0 0.00 4.8 -15.1 68.47 n/a
2018 02 04 24:00 272.6 0.0 0.00 3.8 -15.6 70.13 n/a
2018 02 05 1:00 273.6 0.0 0.00 1.7 -16.8 76.27 n/a
2018 02 05 2:00 274.6 0.0 0.00 1.6 -16.9 79.06 n/a
2018 02 05 3:00 275.6 0.0 0.00 1.2 -17.1 81.6 n/a
2018 02 05 4:00 276.4 0.0 0.00 0.5 -17.5 82.5 n/a
2018 02 05 5:00 277.1 0.0 0.00 0.1 -17.7 82.2 n/a
2018 02 05 6:00 277.8 0.0 0.00 0.8 -17.3 81.5 n/a
2018 02 05 7:00 278.3 0.0 0.00 1.9 -16.7 80.9 n/a
2018 02 05 8:00 278.2 0.0 0.00 3.3 -15.9 80.4 n/a
2018 02 05 9:00 277.5 0.0 0.00 5.8 -14.5 79.72 n/a
2018 02 05 10:00 273.6 0.0 0.00 11.3 -11.5 69.87 n/a
2018 02 05 11:00 271.0 0.0 0.00 14.9 -9.5 66.19 n/a
2018 02 05 12:00 270.7 0.0 0.00 17.2 -8.2 64.72 n/a
2018 02 05 13:00 270.8 0.0 0.00 19.6 -6.9 64.5 n/a
2018 02 05 14:00 271.4 0.0 0.00 21.5 -5.9 65.21 n/a
2018 02 05 15:00 271.7 0.0 0.00 23.9 -4.5 65.63 n/a
2018 02 05 16:00 272.0 0.0 0.00 24.4 -4.2 66.55 n/a
2018 02 05 17:00 272.0 0.0 0.00 24.8 -4.0 69.45 n/a
2018 02 05 18:00 272.2 0.0 0.00 24.1 -4.4 71.27 n/a
2018 02 05 19:00 272.7 0.0 0.00 22.5 -5.3 72.79 n/a
2018 02 05 20:00 272.3 0.0 0.00 22.5 -5.3 71.95 n/a
2018 02 05 21:00 272.3 0.0 0.00 21.7 -5.7 68.69 n/a
2018 02 05 22:00 272.1 0.0 0.00 19.1 -7.1 63.81 n/a
2018 02 05 23:00 272.1 0.0 0.00 16.9 -8.4 65.74 n/a
2018 02 05 24:00 272.5 0.0 0.00 14.8 -9.5 69.07 n/a
2018 02 06 1:00 273.0 0.0 0.00 13.3 -10.4 71.8 n/a
2018 02 06 2:00 273.0 0.0 0.00 13.0 -10.5 73.84 n/a
2018 02 06 3:00 272.9 0.0 0.00 13.6 -10.3 75.98 n/a
2018 02 06 4:00 272.8 0.0 0.00 13.5 -10.3 76 n/a
2018 02 06 5:00 272.8 0.0 0.00 13.4 -10.3 76.23 n/a
2018 02 06 6:00 272.8 0.0 0.00 13.6 -10.2 75.64 n/a
2018 02 06 7:00 272.8 0.0 0.00 13.7 -10.2 73.83 n/a
2018 02 06 8:00 272.8 0.0 0.00 13.7 -10.2 72.11 n/a
2018 02 06 9:00 272.3 0.0 0.00 14.0 -10.0 71.12 n/a
2018 02 06 10:00 272.2 0.0 0.00 14.6 -9.6 70.46 n/a
2018 02 06 11:00 272.1 0.0 0.00 15.4 -9.2 70.83 n/a
2018 02 06 12:00 271.5 0.0 0.00 17.0 -8.3 68.59 n/a
2018 02 06 13:00 271.3 0.0 0.25 19.3 -7.0 67.36 n/a
2018 02 06 14:00 271.4 0.0 0.00 21.3 -6.0 67.08 n/a
2018 02 06 15:00 271.6 0.0 0.00 22.8 -5.1 64.3 n/a
2018 02 06 16:00 271.4 0.0 0.00 23.7 -4.6 63.17 n/a
2018 02 06 17:00 271.5 0.0 0.00 23.5 -4.7 64.33 n/a
2018 02 06 18:00 272.0 0.0 0.00 22.4 -5.4 67.55 n/a
2018 02 06 19:00 272.1 0.0 0.00 21.8 -5.7 68.76 n/a
2018 02 06 20:00 272.1 0.0 0.00 20.4 -6.4 70.73 n/a
2018 02 06 21:00 272.3 0.0 0.00 19.4 -7.0 71.97 n/a
2018 02 06 22:00 272.7 0.0 0.00 18.7 -7.4 74.98 n/a
2018 02 06 23:00 272.7 0.0 0.00 18.1 -7.7 75.18 n/a
2018 02 06 24:00 272.8 0.0 0.00 17.8 -7.9 74.36 n/a
2018 02 07 1:00 272.8 0.0 0.00 17.7 -7.9 74.22 n/a
2018 02 07 2:00 273.0 0.0 0.00 17.1 -8.3 76.69 n/a
2018 02 07 3:00 274.0 0.0 0.00 15.4 -9.2 79.28 n/a
2018 02 07 4:00 274.2 0.0 0.00 14.1 -9.9 80.9 n/a
2018 02 07 5:00 274.7 0.0 0.00 13.1 -10.5 81.1 n/a
2018 02 07 6:00 274.9 0.0 0.00 12.3 -10.9 81.7 n/a
2018 02 07 7:00 275.6 0.0 0.00 11.6 -11.4 81.7 n/a
2018 02 07 8:00 276.4 0.0 0.00 10.8 -11.8 83.3 n/a
2018 02 07 9:00 276.4 0.0 0.00 13.3 -10.4 80.4 n/a
2018 02 07 10:00 273.9 0.0 0.00 17.1 -8.3 73.66 n/a
2018 02 07 11:00 272.0 0.0 0.00 21.3 -6.0 62.34 n/a
2018 02 07 12:00 271.4 0.0 0.00 24.2 -4.3 58.22 n/a
2018 02 07 13:00 271.0 0.0 0.00 26.7 -3.0 54.79 n/a
2018 02 07 14:00 270.6 0.0 0.00 29.0 -1.6 51.75 n/a
2018 02 07 15:00 270.5 0.0 0.00 30.6 -0.8 49.81 n/a
2018 02 07 16:00 270.5 0.0 0.00 32.0 -0.0 48.21 n/a
2018 02 07 17:00 270.5 0.0 0.00 32.1 0.0 48.39 n/a
2018 02 07 18:00 271.1 0.0 0.00 31.0 -0.6 50.64 n/a
2018 02 07 19:00 271.9 0.0 0.00 28.3 -2.0 57.13 n/a
2018 02 07 20:00 272.5 0.0 0.00 26.6 -3.0 62.09 n/a
2018 02 07 21:00 273.0 0.0 0.00 25.3 -3.7 64.84 n/a
2018 02 07 22:00 274.3 0.0 0.00 23.4 -4.8 69.03 n/a
2018 02 07 23:00 274.6 0.0 0.00 23.0 -5.0 69.03 n/a
2018 02 07 24:00 274.8 0.0 0.00 21.8 -5.7 73.15 n/a
2018 02 08 1:00 274.9 0.0 0.00 21.6 -5.8 72.96 n/a
2018 02 08 2:00 274.9 0.0 0.00 21.1 -6.0 74.31 n/a
2018 02 08 3:00 275.8 0.0 0.00 19.0 -7.2 79.3 n/a
2018 02 08 4:00 276.6 0.0 0.00 20.0 -6.6 76.99 n/a
2018 02 08 5:00 276.9 0.0 0.00 19.6 -6.9 77.65 n/a
2018 02 08 6:00 276.9 0.0 0.00 19.9 -6.7 77.21 n/a
2018 02 08 7:00 277.2 0.0 0.00 19.9 -6.7 77.49 n/a
2018 02 08 8:00 275.9 0.0 0.00 20.6 -6.3 77.98 n/a
2018 02 08 9:00 273.1 0.0 0.00 24.8 -4.0 73.22 n/a
2018 02 08 10:00 271.8 0.0 0.00 31.2 -0.4 61.12 n/a
2018 02 08 11:00 270.6 0.0 0.00 36.5 2.5 47.4 n/a
2018 02 08 12:00 269.8 0.0 0.00 41.5 5.3 39.79 n/a
2018 02 08 13:00 269.1 0.0 0.00 45.0 7.2 34.83 n/a
2018 02 08 14:00 269.0 0.0 0.00 47.6 8.7 33.07 n/a
2018 02 08 15:00 268.7 0.0 0.00 50.1 10.0 31.34 n/a
2018 02 08 16:00 268.5 0.0 0.00 51.0 10.6 32.01 n/a
2018 02 08 17:00 268.6 0.0 0.00 51.0 10.6 33.25 n/a
2018 02 08 18:00 269.3 0.0 0.00 48.2 9.0 37.54 n/a
2018 02 08 19:00 269.8 0.0 0.00 45.8 7.7 41.93 n/a
2018 02 08 20:00 270.3 0.0 0.00 44.2 6.8 45.88 n/a
2018 02 08 21:00 270.2 0.0 0.00 44.3 6.8 45.5 n/a
2018 02 08 22:00 270.1 0.0 0.00 44.3 6.8 45.54 n/a
2018 02 08 23:00 270.3 0.0 0.00 43.3 6.3 47.31 n/a
2018 02 08 24:00 270.5 0.0 0.00 42.3 5.7 48.55 n/a
2018 02 09 1:00 270.0 0.0 0.00 43.5 6.4 44.53 n/a
2018 02 09 2:00 269.8 0.0 0.00 44.1 6.7 42.6 n/a
2018 02 09 3:00 269.8 0.0 0.00 43.3 6.3 42.75 n/a
2018 02 09 4:00 269.8 0.0 0.00 42.1 5.6 44.5 n/a
2018 02 09 5:00 270.2 0.0 0.00 40.9 5.0 46.84 n/a
2018 02 09 6:00 270.5 0.0 0.00 38.9 3.8 50.55 n/a
2018 02 09 7:00 271.0 0.0 0.00 37.5 3.1 53.26 n/a
2018 02 09 8:00 271.2 0.0 0.00 37.9 3.3 53.83 n/a
2018 02 09 9:00 270.5 0.0 0.00 38.6 3.7 55.95 n/a
2018 02 09 10:00 269.7 0.0 0.00 41.9 5.5 51.8 n/a
2018 02 09 11:00 269.1 0.0 0.00 45.8 7.6 48.13 n/a
2018 02 09 12:00 269.0 0.0 0.00 47.0 8.3 46.53 n/a
2018 02 09 13:00 269.9 0.0 0.00 41.0 5.0 52.69 n/a
2018 02 09 14:00 270.1 0.0 0.00 38.7 3.7 52.59 n/a
2018 02 09 15:00 270.2 0.0 0.00 36.9 2.7 53.05 n/a
2018 02 09 16:00 270.5 0.0 0.00 33.4 0.8 56.54 n/a
2018 02 09 17:00 270.5 0.0 0.00 32.6 0.3 57.08 n/a
2018 02 09 18:00 271.1 0.0 0.00 31.7 -0.1 57.88 n/a
2018 02 09 19:00 271.2 0.0 0.00 30.2 -1.0 59.63 n/a
2018 02 09 20:00 271.2 0.0 0.00 28.8 -1.8 60.65 n/a
2018 02 09 21:00 271.3 0.0 0.00 27.6 -2.4 61.89 n/a
2018 02 09 22:00 271.3 0.0 0.00 26.4 -3.1 63.5 n/a
2018 02 09 23:00 271.3 0.0 0.00 24.5 -4.2 65.21 n/a
2018 02 09 24:00 271.3 0.0 0.00 23.6 -4.6 66.35 n/a
2018 02 10 1:00 271.6 0.0 0.00 22.4 -5.3 67.19 n/a
2018 02 10 2:00 273.1 0.0 0.00 20.8 -6.2 67.89 n/a
2018 02 10 3:00 278.6 0.0 0.00 19.1 -7.2 71.95 n/a
2018 02 10 4:00 274.3 0.0 0.00 18.0 -7.8 70.71 n/a
2018 02 10 5:00 272.8 0.0 0.00 16.5 -8.6 72.85 n/a
2018 02 10 6:00 272.8 0.0 0.00 15.6 -9.1 77.94 n/a
2018 02 10 7:00 273.4 0.0 0.00 14.9 -9.5 78.87 n/a
2018 02 10 8:00 273.5 0.0 0.00 14.6 -9.7 81 n/a
2018 02 10 9:00 273.5 0.0 0.00 15.0 -9.5 79.71 n/a
2018 02 10 10:00 273.3 0.0 0.00 15.7 -9.1 77.34 n/a
2018 02 10 11:00 272.9 0.0 0.00 16.2 -8.8 76.96 n/a
2018 02 10 12:00 272.8 0.0 0.00 16.6 -8.6 76.09 n/a
2018 02 10 13:00 272.8 0.0 0.00 16.9 -8.4 74.36 n/a
2018 02 10 14:00 272.8 0.0 0.00 17.0 -8.4 73.55 n/a
2018 02 10 15:00 277.2 0.0 0.00 16.9 -8.4 77.97 n/a
2018 02 10 16:00 Wet 298.7 0.0 0.00 16.9 -8.4 85.5 n/a
2018 02 10 17:00 Wet 321.5 0.0 0.00 17.6 -8.0 88.8 n/a
2018 02 10 18:00 Wet 324.8 0.0 0.00 18.1 -7.7 88.5 n/a
2018 02 10 19:00 Wet 325.1 0.0 0.00 18.0 -7.8 88.7 n/a
2018 02 10 20:00 Wet 324.8 0.0 0.00 18.6 -7.5 88.4 n/a
2018 02 10 21:00 Wet 324.4 0.0 0.00 18.6 -7.5 88.6 n/a
2018 02 10 22:00 Wet 324.4 0.0 0.00 18.5 -7.5 88.8 n/a
2018 02 10 23:00 Wet 324.4 0.0 0.00 18.3 -7.6 89.2 n/a
2018 02 10 24:00 Wet 324.5 0.0 0.00 18.1 -7.7 89.2 n/a
2018 02 11 1:00 Wet 324.5 0.0 0.00 17.0 -8.3 88.3 n/a
2018 02 11 2:00 Wet 324.5 0.0 0.00 16.6 -8.6 89 n/a
2018 02 11 3:00 Wet 324.5 0.0 0.00 16.0 -8.9 88.2 n/a
2018 02 11 4:00 Wet 324.5 0.0 0.00 15.3 -9.3 86.7 n/a
2018 02 11 5:00 Wet 324.5 0.0 0.00 15.1 -9.4 84.8 n/a
2018 02 11 6:00 Wet 324.5 0.0 0.00 14.9 -9.5 83.9 n/a
2018 02 11 7:00 Wet 324.5 0.0 0.00 14.6 -9.7 83.2 n/a
2018 02 11 8:00 Wet 324.5 0.0 0.00 15.1 -9.4 80.1 n/a
2018 02 11 9:00 Wet 324.4 0.0 0.00 15.9 -8.9 78.51 n/a
2018 02 11 10:00 Wet 323.8 0.0 0.00 16.9 -8.4 80.4 n/a
2018 02 11 11:00 Wet 323.8 0.0 0.00 17.8 -7.9 80.7 n/a
2018 02 11 12:00 Wet 322.5 0.0 0.00 19.9 -6.7 80.8 n/a
2018 02 11 13:00 Wet 321.0 0.0 0.00 21.9 -5.6 78.18 n/a
2018 02 11 14:00 Wet 318.4 0.0 0.00 23.2 -4.9 76.93 n/a
2018 02 11 15:00 Wet 316.5 0.0 0.00 24.4 -4.2 75.13 n/a
2018 02 11 16:00 Wet 314.1 0.0 0.00 25.2 -3.8 72.15 n/a
2018 02 11 17:00 Wet 315.6 0.0 0.25 26.2 -3.2 71.65 n/a
2018 02 11 18:00 Wet 320.9 0.0 0.00 25.6 -3.6 72.54 n/a
2018 02 11 19:00 Wet 324.3 0.0 0.00 22.9 -5.0 79.46 n/a
2018 02 11 20:00 Wet 324.4 0.0 0.00 21.3 -6.0 84.3 n/a
2018 02 11 21:00 Wet 324.5 0.0 0.00 20.2 -6.5 86.4 n/a
2018 02 11 22:00 Wet 324.5 0.0 0.00 18.7 -7.4 88 n/a
2018 02 11 23:00 Wet 324.5 0.0 0.00 17.6 -8.0 89.2 n/a
2018 02 11 24:00 Wet 324.5 0.0 0.00 17.0 -8.4 89.8 n/a
2018 02 12 1:00 Wet 324.5 0.0 0.00 16.0 -8.9 88.9 n/a
2018 02 12 2:00 Wet 324.6 0.0 0.00 14.8 -9.6 88 n/a
2018 02 12 3:00 Wet 324.6 0.0 0.00 13.5 -10.3 87.1 n/a
2018 02 12 4:00 Wet 324.6 0.0 0.00 12.4 -10.9 85.9 n/a
2018 02 12 5:00 Wet 324.7 0.0 0.00 12.4 -10.9 88 n/a
2018 02 12 6:00 Wet 324.7 0.0 0.00 13.1 -10.5 87.8 n/a
2018 02 12 7:00 Wet 324.7 0.0 0.00 12.7 -10.7 89.1 n/a
2018 02 12 8:00 Wet 324.6 0.0 0.00 13.2 -10.5 88.5 n/a
2018 02 12 9:00 Wet 323.8 0.0 0.00 16.8 -8.5 80.8 n/a
2018 02 12 10:00 Wet 321.7 0.0 0.00 21.1 -6.1 72.55 n/a
2018 02 12 11:00 Wet 315.5 0.0 0.00 24.5 -4.2 68.74 n/a
2018 02 12 12:00 Wet 302.5 0.0 0.00 27.3 -2.6 66.05 n/a
2018 02 12 13:00 Wet 304.4 0.0 0.00 29.4 -1.5 60.77 n/a
2018 02 12 14:00 Wet 336.5 0.0 0.00 31.8 -0.1 52.01 n/a
2018 02 12 15:00 Wet 589.3 0.0 0.00 33.7 0.9 48.16 n/a
2018 02 12 16:00 Wet 558.3 0.0 0.00 34.6 1.4 45.82 n/a
2018 02 12 17:00 Wet 426.8 0.0 0.00 34.3 1.3 47.71 n/a
2018 02 12 18:00 Wet 298.3 0.0 0.00 32.3 0.2 53.42 n/a
2018 02 12 19:00 Wet 297.3 0.0 0.00 29.8 -1.2 61.46 n/a
2018 02 12 20:00 Wet 296.2 0.0 0.00 27.9 -2.3 68.05 n/a
2018 02 12 21:00 Wet 296.1 0.0 0.00 26.8 -2.9 71.09 n/a
2018 02 12 22:00 Wet 296.3 0.0 0.00 25.8 -3.5 74.12 n/a
2018 02 12 23:00 Wet 296.0 0.0 0.00 25.2 -3.8 76.11 n/a
2018 02 12 24:00 Wet 296.0 0.0 0.00 24.8 -4.0 77.2 n/a
2018 02 13 1:00 Wet 295.5 0.0 0.00 24.9 -4.0 76.44 n/a
2018 02 13 2:00 Wet 295.5 0.0 0.00 25.4 -3.7 74.17 n/a
2018 02 13 3:00 Wet 295.8 0.0 0.00 26.1 -3.3 71.01 n/a
2018 02 13 4:00 Wet 295.9 0.0 0.00 26.4 -3.1 69.68 n/a
2018 02 13 5:00 Wet 295.5 0.0 0.00 26.8 -2.9 69.72 n/a
2018 02 13 6:00 Wet 295.7 0.0 0.00 27.2 -2.7 68.33 n/a
2018 02 13 7:00 Wet 296.4 0.0 0.00 27.9 -2.3 63.43 n/a
2018 02 13 8:00 Wet 296.2 0.0 0.00 28.2 -2.1 63.18 n/a
2018 02 13 9:00 Wet 312.4 0.0 0.00 29.9 -1.1 60.28 n/a
2018 02 13 10:00 Wet 635.4 0.0 0.00 34.1 1.2 52 n/a
2018 02 13 11:00 Wet 464.9 0.0 0.00 37.8 3.2 46.11 n/a
2018 02 13 12:00 271.8 0.0 0.00 39.2 4.0 45.24 n/a
2018 02 13 13:00 270.5 0.0 0.00 40.2 4.6 45.22 n/a
2018 02 13 14:00 269.8 0.0 0.00 42.5 5.8 42.55 n/a
2018 02 13 15:00 269.7 0.0 0.00 43.5 6.4 41.82 n/a
2018 02 13 16:00 269.8 0.0 0.00 45.0 7.2 42.43 n/a
2018 02 13 17:00 270.2 0.0 0.00 45.9 7.7 45.72 n/a
2018 02 13 18:00 270.6 0.0 0.00 44.3 6.8 50.61 n/a
2018 02 13 19:00 271.2 0.0 0.00 42.6 5.9 54.11 n/a
2018 02 13 20:00 271.2 0.0 0.00 43.0 6.1 55.48 n/a
2018 02 13 21:00 271.6 0.0 0.00 42.1 5.6 58.06 n/a
2018 02 13 22:00 271.3 0.0 0.00 43.0 6.1 58.21 n/a
2018 02 13 23:00 271.1 0.0 0.00 44.2 6.8 57.16 n/a
2018 02 13 24:00 271.3 0.0 0.00 44.9 7.2 64.68 n/a
2018 02 14 1:00 272.2 0.0 0.00 44.2 6.8 81.2 n/a
2018 02 14 2:00 272.3 0.0 0.00 44.0 6.6 83.3 n/a
2018 02 14 3:00 268.4 0.0 0.00 42.4 5.8 92.8 n/a
2018 02 14 4:00 270.4 0.0 0.00 42.2 5.7 93.9 n/a
2018 02 14 5:00 270.6 0.0 0.00 42.6 5.9 94.2 n/a
2018 02 14 6:00 264.2 0.0 0.00 42.8 6.0 95.4 n/a
2018 02 14 7:00 274.8 0.0 0.00 43.2 6.2 92.6 n/a
2018 02 14 8:00 275.9 0.0 0.00 43.1 6.2 92.4 n/a
2018 02 14 9:00 275.9 0.0 0.00 43.4 6.3 93.5 n/a
2018 02 14 10:00 276.5 0.0 0.00 44.3 6.8 92.6 n/a
2018 02 14 11:00 275.7 0.0 0.00 45.2 7.3 90.4 n/a
2018 02 14 12:00 275.3 0.0 0.00 46.1 7.8 89 n/a
2018 02 14 13:00 274.9 0.0 0.00 47.1 8.4 87 n/a
2018 02 14 14:00 273.8 0.0 0.00 49.1 9.5 82.2 n/a
2018 02 14 15:00 272.7 0.0 0.00 51.3 10.7 75.41 n/a
2018 02 14 16:00 271.9 0.0 0.00 54.5 12.5 66.86 n/a
2018 02 14 17:00 271.7 0.0 0.00 55.6 13.1 63.88 n/a
2018 02 14 18:00 272.4 0.0 0.00 54.1 12.3 65.11 n/a
2018 02 14 19:00 273.7 0.0 0.00 51.6 10.9 70.05 n/a
2018 02 14 20:00 274.2 0.0 0.00 50.3 10.2 74.02 n/a
2018 02 14 21:00 274.7 0.0 0.00 51.1 10.6 76.91 n/a
2018 02 14 22:00 274.5 0.0 0.00 51.5 10.8 78.18 n/a
2018 02 14 23:00 274.5 0.0 0.00 52.4 11.3 78.85 n/a
2018 02 14 24:00 274.9 0.0 0.00 52.6 11.5 81.5 n/a
2018 02 15 1:00 276.1 0.0 0.00 53.3 11.8 86.9 n/a
2018 02 15 2:00 276.5 0.0 0.00 55.0 12.8 89.9 n/a
2018 02 15 3:00 276.5 0.0 0.00 57.4 14.1 89.2 n/a
2018 02 15 4:00 276.4 0.0 0.00 58.7 14.9 87.8 n/a
2018 02 15 5:00 276.4 0.0 0.00 59.0 15.0 87.6 n/a
2018 02 15 6:00 276.3 0.0 0.00 59.5 15.3 86.4 n/a
2018 02 15 7:00 275.4 0.0 0.00 60.6 15.9 82.7 n/a
2018 02 15 8:00 274.8 0.0 0.00 61.1 16.1 79.89 n/a
2018 02 15 9:00 273.7 0.0 0.00 62.2 16.8 75.68 n/a
2018 02 15 10:00 272.8 0.0 0.00 63.7 17.6 71.01 n/a
2018 02 15 11:00 271.6 0.0 0.00 65.8 18.8 63.9 n/a
2018 02 15 12:00 270.6 0.0 0.00 67.6 19.8 56.45 n/a
2018 02 15 13:00 269.5 0.0 0.00 69.9 21.1 50.12 n/a
2018 02 15 14:00 268.6 0.0 0.00 72.8 22.7 43.27 n/a
2018 02 15 15:00 268.0 0.0 0.00 73.0 22.8 38.85 n/a
2018 02 15 16:00 268.2 0.0 0.00 71.9 22.2 38.82 n/a
2018 02 15 17:00 268.4 0.0 0.00 68.7 20.4 39.04 n/a
2018 02 15 18:00 267.7 0.0 0.00 62.6 17.0 30.34 n/a
2018 02 15 19:00 268.5 0.0 0.00 58.9 15.0 35.45 n/a
2018 02 15 20:00 269.4 0.0 0.00 55.2 12.9 50.35 n/a
2018 02 15 21:00 270.6 0.0 0.00 52.6 11.4 63.13 n/a
2018 02 15 22:00 270.7 0.0 0.00 49.3 9.6 54.11 n/a
2018 02 15 23:00 270.4 0.0 0.00 46.6 8.1 51.4 n/a
2018 02 15 24:00 Wet 299.5 0.0 0.00 43.8 6.6 61.38 n/a
2018 02 16 1:00 272.8 0.0 0.00 40.6 4.8 67.92 n/a
2018 02 16 2:00 280.9 0.0 0.00 37.9 3.3 73.01 n/a
2018 02 16 3:00 272.9 0.0 0.00 36.5 2.5 72.29 n/a
2018 02 16 4:00 272.6 0.0 0.00 34.9 1.6 68.68 n/a
2018 02 16 5:00 272.4 0.0 0.00 32.7 0.4 65.36 n/a
2018 02 16 6:00 272.5 0.0 0.00 31.2 -0.5 67.61 n/a
2018 02 16 7:00 272.6 0.0 0.00 29.5 -1.4 67.3 n/a
2018 02 16 8:00 272.5 0.0 0.00 28.2 -2.1 65.28 n/a
2018 02 16 9:00 272.0 0.0 0.00 28.0 -2.2 63.91 n/a
2018 02 16 10:00 271.7 0.0 0.00 29.2 -1.5 57.59 n/a
2018 02 16 11:00 270.7 0.0 0.00 30.8 -0.7 46.98 n/a
2018 02 16 12:00 270.5 0.0 0.00 32.5 0.3 42.26 n/a
2018 02 16 13:00 269.7 0.0 0.00 34.1 1.1 31.06 n/a
2018 02 16 14:00 269.2 0.0 0.00 35.6 2.0 28.88 n/a
2018 02 16 15:00 269.1 0.0 0.00 36.9 2.7 29.68 n/a
2018 02 16 16:00 269.1 0.0 0.00 37.9 3.3 27.29 n/a
2018 02 16 17:00 269.1 0.0 0.00 37.8 3.2 25.02 n/a
2018 02 16 18:00 269.2 0.0 0.00 36.4 2.4 26.41 n/a
2018 02 16 19:00 269.8 0.0 0.00 34.4 1.3 29.98 n/a
2018 02 16 20:00 269.9 0.0 0.00 32.9 0.5 33.41 n/a
2018 02 16 21:00 270.2 0.0 0.00 31.8 -0.1 35.05 n/a
2018 02 16 22:00 270.0 0.0 0.00 31.6 -0.2 35.37 n/a
2018 02 16 23:00 269.9 0.0 0.00 31.5 -0.3 35.51 n/a
2018 02 16 24:00 269.9 0.0 0.00 31.4 -0.3 34.73 n/a
2018 02 17 1:00 269.9 0.0 0.00 31.4 -0.3 37.3 n/a
2018 02 17 2:00 270.4 0.0 0.00 32.5 0.3 43.43 n/a
2018 02 17 3:00 270.6 0.0 0.00 33.0 0.6 49.48 n/a
2018 02 17 4:00 279.5 0.0 0.00 33.2 0.7 58.47 n/a
2018 02 17 5:00 Wet 382.7 0.1 1.27 32.1 0.1 79.22 n/a
2018 02 17 6:00 Wet 425.2 0.1 2.29 32.1 0.0 90.4 n/a
2018 02 17 7:00 Wet 388.4 0.1 1.27 33.2 0.7 93.5 n/a
2018 02 17 8:00 Wet 334.4 0.0 0.51 34.1 1.2 94.4 n/a
2018 02 17 9:00 Wet 310.1 0.0 0.51 34.7 1.5 95.7 n/a
2018 02 17 10:00 Wet 299.3 0.0 0.00 35.8 2.1 96.2 n/a
2018 02 17 11:00 Wet 284.3 0.0 0.00 38.4 3.6 91 n/a
2018 02 17 12:00 274.2 0.0 0.00 41.9 5.5 77.4 n/a
2018 02 17 13:00 271.5 0.0 0.00 45.0 7.2 66.16 n/a
2018 02 17 14:00 270.8 0.0 0.00 48.5 9.2 56.41 n/a
2018 02 17 15:00 269.9 0.0 0.00 52.0 11.1 43.53 n/a
2018 02 17 16:00 268.9 0.0 0.00 53.2 11.8 31.16 n/a
2018 02 17 17:00 267.8 0.0 0.00 52.9 11.6 27.83 n/a
2018 02 17 18:00 268.0 0.0 0.00 51.0 10.5 30.11 n/a
2018 02 17 19:00 269.0 0.0 0.00 46.2 7.9 36.55 n/a
2018 02 17 20:00 269.8 0.0 0.00 42.0 5.5 44.9 n/a
2018 02 17 21:00 270.7 0.0 0.00 37.8 3.2 55.75 n/a
2018 02 17 22:00 271.8 0.0 0.00 34.4 1.3 63.77 n/a
2018 02 17 23:00 271.4 0.0 0.00 35.7 2.0 55.22 n/a
2018 02 17 24:00 271.2 0.0 0.00 36.5 2.5 53.16 n/a
2018 02 18 1:00 271.3 0.0 0.00 35.1 1.7 57.32 n/a
2018 02 18 2:00 271.4 0.0 0.00 35.5 1.9 60.7 n/a
2018 02 18 3:00 272.3 0.0 0.00 34.7 1.5 76.56 n/a
2018 02 18 4:00 274.1 0.0 0.00 33.7 1.0 83.3 n/a
2018 02 18 5:00 278.0 0.0 0.00 33.7 1.0 86.2 n/a
2018 02 18 6:00 283.0 0.0 0.00 34.3 1.3 84.8 n/a
2018 02 18 7:00 275.2 0.0 0.00 35.3 1.8 81.4 n/a
2018 02 18 8:00 273.8 0.0 0.00 35.4 1.9 81.6 n/a
2018 02 18 9:00 272.6 0.0 0.00 37.4 3.0 79.18 n/a
2018 02 18 10:00 271.8 0.0 0.00 40.1 4.5 71.53 n/a
2018 02 18 11:00 270.4 0.0 0.00 46.2 7.9 51.69 n/a
2018 02 18 12:00 269.4 0.0 0.00 49.2 9.5 41.57 n/a
2018 02 18 13:00 269.0 0.0 0.00 50.6 10.3 37.44 n/a
2018 02 18 14:00 268.8 0.0 0.00 52.4 11.3 36.81 n/a
2018 02 18 15:00 268.8 0.0 0.00 52.9 11.6 38.02 n/a
2018 02 18 16:00 268.9 0.0 0.00 55.0 12.8 36.33 n/a
2018 02 18 17:00 269.0 0.0 0.00 56.0 13.3 37.55 n/a
2018 02 18 18:00 269.0 0.0 0.00 55.8 13.2 40.22 n/a
2018 02 18 19:00 269.4 0.0 0.00 54.6 12.6 46.18 n/a
2018 02 18 20:00 269.9 0.0 0.00 53.9 12.2 55.02 n/a
2018 02 18 21:00 270.6 0.0 0.00 54.1 12.3 65.82 n/a
2018 02 18 22:00 271.7 0.0 0.00 53.3 11.8 80.1 n/a
2018 02 18 23:00 273.0 0.0 0.00 52.5 11.4 87.5 n/a
2018 02 18 24:00 Wet 286.4 0.0 0.00 52.6 11.5 93.7 n/a
2018 02 19 1:00 276.8 0.0 0.00 54.8 12.6 91.8 n/a
2018 02 19 2:00 274.8 0.0 0.00 56.9 13.9 90.1 n/a
2018 02 19 3:00 273.9 0.0 0.00 60.2 15.7 85.2 n/a
2018 02 19 4:00 274.1 0.0 0.00 59.3 15.2 88 n/a
2018 02 19 5:00 274.7 0.0 0.00 58.9 14.9 90.5 n/a
2018 02 19 6:00 274.4 0.0 0.00 60.2 15.6 87.5 n/a
2018 02 19 7:00 273.5 0.0 0.00 62.2 16.8 80.6 n/a
2018 02 19 8:00 273.0 0.0 0.00 62.9 17.1 79.37 n/a
2018 02 19 9:00 273.0 0.0 0.00 63.4 17.5 78.48 n/a
2018 02 19 10:00 273.0 0.0 0.00 63.9 17.7 78.73 n/a
2018 02 19 11:00 273.0 0.0 0.00 64.6 18.1 78.72 n/a
2018 02 19 12:00 Wet 284.3 0.0 1.02 64.1 17.9 82.4 n/a
2018 02 19 13:00 Wet 320.6 0.1 2.29 61.7 16.5 91.6 n/a
2018 02 19 14:00 Wet 321.5 0.0 0.51 59.8 15.4 90.5 n/a
2018 02 19 15:00 Wet 365.4 0.0 0.25 50.7 10.4 89.9 n/a
2018 02 19 16:00 Wet 428.1 0.0 0.76 45.8 7.6 90.1 n/a
2018 02 19 17:00 Wet 354.1 0.0 0.00 41.1 5.1 92.5 n/a
2018 02 19 18:00 Wet 476.3 0.1 1.27 38.2 3.5 93.5 n/a
2018 02 19 19:00 Wet 311.5 0.0 0.00 37.1 2.9 93.3 n/a
2018 02 19 20:00 Wet 286.0 0.0 0.00 36.3 2.4 93 n/a
2018 02 19 21:00 Wet 287.0 0.0 0.00 35.5 1.9 94.2 n/a
2018 02 19 22:00 Wet 435.1 0.1 1.27 35.5 1.9 95.6 n/a
2018 02 19 23:00 Wet 521.0 0.3 8.38 35.8 2.1 96.2 n/a
2018 02 19 24:00 Wet 377.8 0.0 0.25 36.2 2.3 96.2 n/a
2018 02 20 1:00 Wet 470.4 0.2 3.81 36.6 2.6 96 n/a
2018 02 20 2:00 Wet 341.8 0.0 0.00 36.9 2.7 96.3 n/a
2018 02 20 3:00 Wet 296.1 0.0 0.25 37.2 2.9 96 n/a
2018 02 20 4:00 283.7 0.0 0.00 35.9 2.2 95.5 n/a
2018 02 20 5:00 280.2 0.0 0.00 35.7 2.1 95.1 n/a
2018 02 20 6:00 278.9 0.0 0.00 35.0 1.6 95.4 n/a
2018 02 20 7:00 Wet 310.0 0.0 0.00 33.7 0.9 96.6 n/a
2018 02 20 8:00 Wet 362.3 0.0 0.00 32.8 0.4 96.9 n/a
2018 02 20 9:00 Wet 556.8 0.3 7.11 30.7 -0.7 93.7 n/a
2018 02 20 10:00 Wet 652.4 0.3 6.35 30.5 -0.8 94.9 n/a
2018 02 20 11:00 Wet 580.6 0.2 3.81 31.0 -0.5 94.4 n/a
2018 02 20 12:00 Wet 543.1 0.1 3.56 31.2 -0.5 93.2 n/a
2018 02 20 13:00 Wet 505.1 0.1 2.03 31.3 -0.4 91.4 n/a
2018 02 20 14:00 Wet 603.7 0.1 2.79 30.1 -1.0 91.2 n/a
2018 02 20 15:00 Wet 371.9 0.1 1.27 29.9 -1.2 92.1 n/a
2018 02 20 16:00 Wet 334.6 0.0 0.00 27.7 -2.4 90.6 n/a
2018 02 20 17:00 Wet 333.5 0.0 0.00 26.2 -3.2 87.5 n/a
2018 02 20 18:00 Wet 333.2 0.0 0.00 25.7 -3.5 85.8 n/a
2018 02 20 19:00 Wet 333.2 0.0 0.00 25.0 -3.9 86.5 n/a
2018 02 20 20:00 Wet 333.2 0.0 0.00 24.3 -4.3 85.7 n/a
2018 02 20 21:00 Wet 333.2 0.0 0.00 23.7 -4.6 84.1 n/a
2018 02 20 22:00 Wet 332.6 0.0 0.00 22.9 -5.0 80.8 n/a
2018 02 20 23:00 Wet 332.6 0.0 0.00 22.3 -5.4 82.3 n/a
2018 02 20 24:00 Wet 332.6 0.0 0.00 21.8 -5.7 82.6 n/a
2018 02 21 1:00 Wet 332.6 0.0 0.00 21.2 -6.0 80.4 n/a
2018 02 21 2:00 Wet 332.6 0.0 0.00 20.7 -6.3 82.2 n/a
2018 02 21 3:00 Wet 332.6 0.0 0.00 20.4 -6.5 81.5 n/a
2018 02 21 4:00 Wet 332.6 0.0 0.00 20.3 -6.5 80.6 n/a
2018 02 21 5:00 Wet 332.6 0.0 0.00 19.9 -6.7 81.4 n/a
2018 02 21 6:00 Wet 332.0 0.0 0.00 19.3 -7.0 80.6 n/a
2018 02 21 7:00 Wet 332.0 0.0 0.00 18.8 -7.3 81.5 n/a
2018 02 21 8:00 Wet 332.0 0.0 0.00 18.7 -7.4 82.8 n/a
2018 02 21 9:00 Wet 332.0 0.0 0.00 19.0 -7.2 81.7 n/a
2018 02 21 10:00 Wet 331.9 0.0 0.00 19.8 -6.8 81.5 n/a
2018 02 21 11:00 Wet 332.0 0.0 0.00 20.6 -6.3 82.2 n/a
2018 02 21 12:00 Wet 332.5 0.0 0.00 22.0 -5.5 81.3 n/a
2018 02 21 13:00 Wet 332.6 0.0 0.00 23.9 -4.5 80.5 n/a
2018 02 21 14:00 Wet 332.6 0.0 0.00 25.7 -3.5 79.34 n/a
2018 02 21 15:00 Wet 332.5 0.0 0.00 26.3 -3.2 78.78 n/a
2018 02 21 16:00 Wet 332.5 0.0 0.00 26.6 -3.0 76.67 n/a
2018 02 21 17:00 Wet 332.5 0.0 0.00 26.7 -2.9 77.91 n/a
2018 02 21 18:00 Wet 332.2 0.0 0.00 27.0 -2.8 78.44 n/a
2018 02 21 19:00 Wet 331.8 0.0 0.00 26.9 -2.8 80.9 n/a
2018 02 21 20:00 Wet 331.8 0.0 0.00 27.0 -2.8 81.3 n/a
2018 02 21 21:00 Wet 331.8 0.0 0.00 27.0 -2.8 83.3 n/a
2018 02 21 22:00 Wet 331.8 0.0 0.00 27.1 -2.7 83.4 n/a
2018 02 21 23:00 Wet 331.8 0.0 0.00 27.5 -2.5 81.9 n/a
2018 02 21 24:00 Wet 331.9 0.0 0.00 27.2 -2.7 89.5 n/a
2018 02 22 1:00 Wet 332.5 0.0 0.00 27.5 -2.5 93.2 n/a
2018 02 22 2:00 Wet 332.5 0.0 0.00 27.7 -2.4 93 n/a
2018 02 22 3:00 Wet 332.5 0.0 0.00 28.0 -2.2 93.8 n/a
2018 02 22 4:00 Wet 333.0 0.0 0.00 28.1 -2.2 94.2 n/a
2018 02 22 5:00 Wet 332.9 0.0 0.00 28.3 -2.1 94.4 n/a
2018 02 22 6:00 Wet 333.0 0.0 0.00 28.3 -2.1 94.7 n/a
2018 02 22 7:00 Wet 332.9 0.0 0.00 28.4 -2.0 95 n/a
2018 02 22 8:00 Wet 333.0 0.0 0.00 28.5 -2.0 94.9 n/a
2018 02 22 9:00 Wet 332.5 0.0 0.00 28.9 -1.7 95 n/a
2018 02 22 10:00 Wet 403.1 0.0 0.00 29.8 -1.2 94.7 n/a
2018 02 22 11:00 Wet 639.8 0.0 0.76 30.5 -0.8 94.8 n/a
2018 02 22 12:00 Wet 706.3 0.0 1.02 31.4 -0.3 95.8 n/a
2018 02 22 13:00 Wet 689.9 0.0 0.00 32.3 0.2 96 n/a
2018 02 22 14:00 Wet 297.6 0.0 0.00 32.9 0.5 95.4 n/a
2018 02 22 15:00 Wet 291.3 0.0 0.51 33.4 0.8 94.6 n/a
2018 02 22 16:00 Wet 407.8 0.0 0.51 33.7 0.9 95.5 n/a
2018 02 22 17:00 Wet 476.0 0.1 2.03 34.1 1.1 96 n/a
2018 02 22 18:00 Wet 335.6 0.0 0.00 34.6 1.5 95.9 n/a
2018 02 22 19:00 Wet 422.6 0.0 0.76 35.2 1.8 95.7 n/a
2018 02 22 20:00 Wet 389.8 0.0 0.00 35.9 2.2 95.4 n/a
2018 02 22 21:00 Wet 474.8 0.0 1.02 36.2 2.3 96 n/a
2018 02 22 22:00 Wet 462.8 0.1 1.27 36.1 2.3 96.6 n/a
2018 02 22 23:00 Wet 392.1 0.0 0.25 35.5 2.0 97 n/a
2018 02 22 24:00 Wet 357.6 0.0 0.00 34.3 1.3 96.8 n/a
2018 02 23 1:00 Wet 330.1 0.0 0.00 33.8 1.0 96.7 n/a
2018 02 23 2:00 Wet 330.5 0.0 0.00 33.8 1.0 97 n/a
2018 02 23 3:00 Wet 322.4 0.0 0.00 34.1 1.2 97.3 n/a
2018 02 23 4:00 Wet 289.3 0.0 0.00 34.5 1.4 96.5 n/a
2018 02 23 5:00 278.7 0.0 0.00 34.4 1.3 93.6 n/a
2018 02 23 6:00 277.2 0.0 0.00 34.0 1.1 93 n/a
2018 02 23 7:00 276.8 0.0 0.00 33.7 1.0 93.3 n/a
2018 02 23 8:00 277.3 0.0 0.00 33.6 0.9 93.7 n/a
2018 02 23 9:00 275.0 0.0 0.00 34.0 1.1 92.5 n/a
2018 02 23 10:00 274.5 0.0 0.00 34.7 1.5 89.2 n/a
2018 02 23 11:00 274.1 0.0 0.00 35.3 1.8 87.8 n/a
2018 02 23 12:00 273.9 0.0 0.00 36.0 2.2 86.7 n/a
2018 02 23 13:00 273.9 0.0 0.00 36.7 2.6 84.7 n/a
2018 02 23 14:00 273.6 0.0 0.00 36.9 2.7 83.5 n/a
2018 02 23 15:00 273.6 0.0 0.00 37.1 2.8 83.9 n/a
2018 02 23 16:00 273.9 0.0 0.00 37.1 2.9 84.8 n/a
2018 02 23 17:00 273.9 0.0 0.00 37.0 2.8 86.1 n/a
2018 02 23 18:00 274.3 0.0 0.00 36.4 2.5 88.6 n/a
2018 02 23 19:00 276.6 0.0 0.00 36.1 2.3 89.3 n/a
2018 02 23 20:00 Wet 435.6 0.0 0.51 35.5 1.9 90.9 n/a
2018 02 23 21:00 Wet 436.3 0.0 0.25 34.9 1.6 93.4 n/a
2018 02 23 22:00 Wet 512.8 0.1 2.03 34.5 1.4 94.6 n/a
2018 02 23 23:00 Wet 501.6 0.1 2.29 34.2 1.2 95.2 n/a
2018 02 23 24:00 Wet 557.4 0.2 4.06 33.7 0.9 95.3 n/a
2018 02 24 1:00 Wet 521.1 0.1 1.52 33.5 0.8 95.6 n/a
2018 02 24 2:00 Wet 500.7 0.1 1.27 33.8 1.0 95.6 n/a
2018 02 24 3:00 Wet 497.6 0.0 0.51 34.0 1.1 95.7 n/a
2018 02 24 4:00 Wet 489.1 0.0 0.25 34.0 1.1 95.7 n/a
2018 02 24 5:00 Wet 469.3 0.0 0.25 34.3 1.3 95.5 n/a
2018 02 24 6:00 Wet 447.0 0.0 0.00 34.6 1.4 95.7 n/a
2018 02 24 7:00 Wet 443.9 0.0 0.00 34.9 1.6 96.1 n/a
2018 02 24 8:00 Wet 421.1 0.0 0.00 35.2 1.8 96.4 n/a
2018 02 24 9:00 Wet 429.2 0.0 0.00 36.0 2.2 96.7 n/a
2018 02 24 10:00 Wet 378.6 0.0 0.00 37.1 2.8 97.1 n/a
2018 02 24 11:00 Wet 346.4 0.0 0.00 38.0 3.3 97.3 n/a
2018 02 24 12:00 Wet 442.5 0.1 1.78 38.5 3.6 97.5 n/a
2018 02 24 13:00 Wet 369.9 0.0 0.25 40.6 4.8 97.9 n/a
2018 02 24 14:00 Wet 287.2 0.0 0.00 43.4 6.3 98 n/a
2018 02 24 15:00 Wet 286.1 0.0 0.00 44.9 7.1 96.8 n/a
2018 02 24 16:00 Wet 346.1 0.0 0.25 42.3 5.7 95.3 n/a
2018 02 24 17:00 Wet 327.9 0.0 0.00 40.4 4.7 93.3 n/a
2018 02 24 18:00 Wet 300.6 0.0 0.00 38.3 3.5 89.7 n/a
2018 02 24 19:00 Wet 284.6 0.0 0.00 37.2 2.9 87.4 n/a
2018 02 24 20:00 275.7 0.0 0.00 36.1 2.3 80.6 n/a
2018 02 24 21:00 273.5 0.0 0.00 35.2 1.8 79.21 n/a
2018 02 24 22:00 273.6 0.0 0.00 33.8 1.0 77.95 n/a
2018 02 24 23:00 279.1 0.0 0.00 31.9 -0.1 84.6 n/a
2018 02 24 24:00 Wet 305.2 0.0 0.00 30.2 -1.0 88.7 n/a
2018 02 25 1:00 Wet 335.7 0.0 0.00 29.5 -1.4 89.7 n/a
2018 02 25 2:00 Wet 357.1 0.0 0.00 30.2 -1.0 90 n/a
2018 02 25 3:00 282.1 0.0 0.00 29.4 -1.5 90.5 n/a
2018 02 25 4:00 Wet 284.5 0.0 0.00 28.5 -2.0 91.3 n/a
2018 02 25 5:00 Wet 286.3 0.0 0.00 28.0 -2.2 87.5 n/a
2018 02 25 6:00 Wet 287.9 0.0 0.00 26.9 -2.8 86.4 n/a
2018 02 25 7:00 Wet 289.4 0.0 0.00 26.2 -3.2 89.9 n/a
2018 02 25 8:00 Wet 292.4 0.0 0.00 26.5 -3.0 89.9 n/a
2018 02 25 9:00 Wet 304.8 0.0 0.00 30.1 -1.1 83.2 n/a
2018 02 25 10:00 Wet 292.9 0.0 0.00 34.0 1.1 75.53 n/a
2018 02 25 11:00 273.0 0.0 0.00 37.9 3.3 62.94 n/a
2018 02 25 12:00 271.5 0.0 0.00 41.7 5.4 52.36 n/a
2018 02 25 13:00 271.1 0.0 0.00 44.9 7.1 45.29 n/a
2018 02 25 14:00 270.7 0.0 0.00 46.7 8.2 42 n/a
2018 02 25 15:00 270.3 0.0 0.00 48.2 9.0 41.27 n/a
2018 02 25 16:00 269.8 0.0 0.00 48.9 9.4 39.69 n/a
2018 02 25 17:00 269.9 0.0 0.00 49.9 9.9 35.73 n/a
2018 02 25 18:00 270.1 0.0 0.00 49.0 9.4 33.32 n/a
2018 02 25 19:00 270.6 0.0 0.00 45.8 7.7 38.38 n/a
2018 02 25 20:00 271.6 0.0 0.00 42.9 6.1 50.47 n/a
2018 02 25 21:00 272.3 0.0 0.00 40.2 4.6 59.64 n/a
2018 02 25 22:00 272.6 0.0 0.00 38.2 3.5 62.81 n/a
2018 02 25 23:00 272.6 0.0 0.00 38.0 3.4 61.52 n/a
2018 02 25 24:00 272.6 0.0 0.00 37.1 2.8 62.15 n/a
2018 02 26 1:00 272.6 0.0 0.00 37.5 3.0 59.47 n/a
2018 02 26 2:00 272.8 0.0 0.00 36.0 2.2 62.48 n/a
2018 02 26 3:00 273.8 0.0 0.00 32.5 0.3 72.96 n/a
2018 02 26 4:00 275.9 0.0 0.00 31.3 -0.4 74.59 n/a
2018 02 26 5:00 283.1 0.0 0.00 29.8 -1.2 79.4 n/a
2018 02 26 6:00 281.4 0.0 0.00 28.2 -2.1 83.9 n/a
2018 02 26 7:00 278.7 0.0 0.00 28.3 -2.1 86.7 n/a
2018 02 26 8:00 282.8 0.0 0.00 29.8 -1.2 85.9 n/a
2018 02 26 9:00 Wet 312.0 0.0 0.00 35.5 1.9 75.16 n/a
2018 02 26 10:00 272.2 0.0 0.00 43.1 6.2 59.78 n/a
2018 02 26 11:00 269.9 0.0 0.00 49.6 9.8 50.06 n/a
2018 02 26 12:00 269.7 0.0 0.00 54.0 12.2 42.41 n/a
2018 02 26 13:00 269.1 0.0 0.00 56.3 13.5 35.07 n/a
2018 02 26 14:00 268.9 0.0 0.00 57.8 14.4 31.63 n/a
2018 02 26 15:00 268.9 0.0 0.00 59.1 15.1 29.94 n/a
2018 02 26 16:00 268.7 0.0 0.00 59.6 15.3 30.96 n/a
2018 02 26 17:00 268.9 0.0 0.00 59.1 15.1 34.94 n/a
2018 02 26 18:00 268.9 0.0 0.00 57.4 14.1 35.16 n/a
2018 02 26 19:00 270.1 0.0 0.00 53.8 12.1 39.53 n/a
2018 02 26 20:00 270.5 0.0 0.00 51.4 10.8 43.01 n/a
2018 02 26 21:00 271.1 0.0 0.00 49.8 9.9 49.29 n/a
2018 02 26 22:00 271.1 0.0 0.00 50.3 10.1 54.73 n/a
2018 02 26 23:00 271.8 0.0 0.00 48.9 9.4 60.77 n/a
2018 02 26 24:00 272.3 0.0 0.00 47.0 8.4 66.7 n/a
2018 02 27 1:00 272.6 0.0 0.00 46.5 8.1 66.12 n/a
2018 02 27 2:00 272.5 0.0 0.00 45.7 7.6 64.97 n/a
2018 02 27 3:00 272.6 0.0 0.00 44.4 6.9 66.47 n/a
2018 02 27 4:00 272.8 0.0 0.00 43.3 6.3 66.77 n/a
2018 02 27 5:00 272.8 0.0 0.00 42.3 5.7 66.93 n/a
2018 02 27 6:00 272.5 0.0 0.00 43.0 6.1 63.9 n/a
2018 02 27 7:00 272.5 0.0 0.00 41.7 5.4 66.41 n/a
2018 02 27 8:00 272.5 0.0 0.00 40.9 4.9 69.55 n/a
2018 02 27 9:00 271.7 0.0 0.00 44.6 7.0 64.68 n/a
2018 02 27 10:00 271.1 0.0 0.00 49.1 9.5 59.41 n/a
2018 02 27 11:00 270.2 0.0 0.00 55.3 12.9 50.23 n/a
2018 02 27 12:00 269.5 0.0 0.00 58.1 14.5 43.78 n/a
2018 02 27 13:00 268.7 0.0 0.00 63.6 17.6 34.63 n/a
2018 02 27 14:00 267.9 0.0 0.00 64.4 18.0 28.97 n/a
2018 02 27 15:00 267.9 0.0 0.00 62.9 17.2 31.93 n/a
2018 02 27 16:00 268.8 0.0 0.00 60.9 16.1 41.12 n/a
2018 02 27 17:00 269.0 0.0 0.00 59.7 15.4 44.41 n/a
2018 02 27 18:00 270.4 0.0 0.00 54.4 12.5 65.68 n/a
2018 02 27 19:00 Wet 334.8 0.2 6.10 49.8 9.9 85 n/a
2018 02 27 20:00 280.6 0.0 0.00 49.4 9.6 85.6 n/a
2018 02 27 21:00 273.3 0.0 0.00 50.0 10.0 77.44 n/a
2018 02 27 22:00 272.7 0.0 0.00 49.7 9.8 79.07 n/a
2018 02 27 23:00 272.6 0.0 0.00 49.5 9.7 77.38 n/a
2018 02 27 24:00 273.0 0.0 0.00 49.5 9.7 78.42 n/a
2018 02 28 1:00 273.3 0.0 0.00 49.6 9.8 79.32 n/a
2018 02 28 2:00 278.9 0.0 0.00 49.1 9.5 81.1 n/a
2018 02 28 3:00 275.3 0.0 0.00 48.9 9.4 81.9 n/a
2018 02 28 4:00 273.6 0.0 0.00 48.6 9.2 85.5 n/a
2018 02 28 5:00 273.7 0.0 0.00 48.8 9.3 84.2 n/a
2018 02 28 6:00 273.8 0.0 0.00 48.7 9.3 84.8 n/a
2018 02 28 7:00 273.8 0.0 0.00 48.7 9.3 89.2 n/a
2018 02 28 8:00 274.4 0.0 0.00 49.1 9.5 93.1 n/a
2018 02 28 9:00 274.1 0.0 0.00 50.6 10.3 93.2 n/a
2018 02 28 10:00 Wet 327.6 0.0 0.00 51.5 10.8 94 n/a
2018 02 28 11:00 Wet 425.6 0.0 0.25 51.9 11.0 96.4 n/a
2018 02 28 12:00 Wet 362.2 0.0 0.25 52.7 11.5 97.1 n/a
2018 02 28 13:00 Wet 433.8 0.0 0.25 53.6 12.0 97.5 n/a
2018 02 28 14:00 Wet 354.0 0.0 0.00 54.6 12.6 97.6 n/a
2018 02 28 15:00 Wet 293.3 0.0 0.00 55.6 13.1 97.8 n/a
2018 02 28 16:00 Wet 290.2 0.0 0.00 56.6 13.7 97.7 n/a
2018 02 28 17:00 Wet 284.3 0.0 0.00 56.4 13.6 97.2 n/a
2018 02 28 18:00 283.5 0.0 0.00 55.3 12.9 97.1 n/a
2018 02 28 19:00 Wet 329.3 0.0 0.00 54.3 12.4 97.5 n/a
2018 02 28 20:00 Wet 340.8 0.0 0.00 53.4 11.9 97.7 n/a
2018 02 28 21:00 Wet 318.9 0.0 0.00 52.8 11.6 97.7 n/a
2018 02 28 22:00 Wet 287.3 0.0 0.00 52.3 11.3 96.1 n/a
2018 02 28 23:00 Wet 327.9 0.0 0.00 51.4 10.8 95.3 n/a
2018 02 28 24:00 Wet 289.7 0.0 0.00 51.5 10.8 93 n/a
2018 03 01 1:00 Wet 316.2 0.0 0.00 50.2 10.1 93.3 n/a
2018 03 01 2:00 Wet 308.6 0.0 0.00 47.4 8.6 94.4 n/a
2018 03 01 3:00 275.9 0.0 0.00 45.9 7.7 90.5 n/a
2018 03 01 4:00 275.1 0.0 0.00 44.0 6.7 89.1 n/a
2018 03 01 5:00 274.8 0.0 0.00 41.8 5.5 86.9 n/a
2018 03 01 6:00 274.6 0.0 0.00 38.4 3.5 82.8 n/a
2018 03 01 7:00 274.6 0.0 0.00 36.7 2.6 82.4 n/a
2018 03 01 8:00 274.4 0.0 0.00 35.1 1.7 79.5 n/a
2018 03 01 9:00 273.9 0.0 0.00 36.4 2.4 76.11 n/a
2018 03 01 10:00 273.5 0.0 0.00 39.9 4.4 70.95 n/a
2018 03 01 11:00 272.7 0.0 0.00 43.8 6.6 59.55 n/a
2018 03 01 12:00 271.5 0.0 0.00 47.0 8.3 42.67 n/a
2018 03 01 13:00 270.5 0.0 0.00 49.7 9.8 32.56 n/a
2018 03 01 14:00 269.8 0.0 0.00 51.2 10.6 27.81 n/a
2018 03 01 15:00 269.3 0.0 0.00 52.3 11.3 24.22 n/a
2018 03 01 16:00 269.0 0.0 0.00 52.7 11.5 21.6 n/a
2018 03 01 17:00 268.9 0.0 0.00 52.5 11.4 21.17 n/a
2018 03 01 18:00 269.0 0.0 0.00 51.1 10.6 23.56 n/a
2018 03 01 19:00 269.6 0.0 0.00 47.4 8.5 29.8 n/a
2018 03 01 20:00 269.8 0.0 0.00 45.0 7.2 29.48 n/a
2018 03 01 21:00 270.2 0.0 0.00 42.5 5.8 31.84 n/a
2018 03 01 22:00 270.2 0.0 0.00 41.3 5.2 32.87 n/a
2018 03 01 23:00 270.5 0.0 0.00 39.8 4.3 35.5 n/a
2018 03 01 24:00 270.7 0.0 0.00 37.6 3.1 40.46 n/a
2018 03 02 1:00 271.4 0.0 0.00 34.8 1.6 48.35 n/a
2018 03 02 2:00 271.3 0.0 0.00 34.6 1.4 47.5 n/a
2018 03 02 3:00 271.6 0.0 0.00 33.6 0.9 50.84 n/a
2018 03 02 4:00 272.5 0.0 0.00 31.2 -0.4 58.45 n/a
2018 03 02 5:00 272.9 0.0 0.00 29.1 -1.6 64.37 n/a
2018 03 02 6:00 273.9 0.0 0.00 27.6 -2.4 70.94 n/a
2018 03 02 7:00 273.8 0.0 0.00 28.2 -2.1 67.91 n/a
2018 03 02 8:00 272.4 0.0 0.00 31.6 -0.2 59.71 n/a
2018 03 02 9:00 270.8 0.0 0.00 38.3 3.5 47.35 n/a
2018 03 02 10:00 269.8 0.0 0.00 42.4 5.8 40.08 n/a
2018 03 02 11:00 269.2 0.0 0.00 46.2 7.9 35.82 n/a
2018 03 02 12:00 269.0 0.0 0.00 49.0 9.5 33.16 n/a
2018 03 02 13:00 268.5 0.0 0.00 52.3 11.3 27.25 n/a
2018 03 02 14:00 268.3 0.0 0.00 54.9 12.7 23.5 n/a
2018 03 02 15:00 267.9 0.0 0.00 56.7 13.7 22.12 n/a
2018 03 02 16:00 267.6 0.0 0.00 57.7 14.3 22.05 n/a
2018 03 02 17:00 267.6 0.0 0.00 58.3 14.6 21.03 n/a
2018 03 02 18:00 267.7 0.0 0.00 57.0 13.9 21.96 n/a
2018 03 02 19:00 268.5 0.0 0.00 53.1 11.7 26.75 n/a
2018 03 02 20:00 269.0 0.0 0.00 50.0 10.0 29.27 n/a
2018 03 02 21:00 269.1 0.0 0.00 49.0 9.4 29.46 n/a
2018 03 02 22:00 269.1 0.0 0.00 47.9 8.8 30.07 n/a
2018 03 02 23:00 269.6 0.0 0.00 46.3 7.9 32.25 n/a
2018 03 02 24:00 269.8 0.0 0.00 45.1 7.3 34.61 n/a
2018 03 03 1:00 269.8 0.0 0.00 43.9 6.6 38.8 n/a
2018 03 03 2:00 270.0 0.0 0.00 43.0 6.1 43 n/a
2018 03 03 3:00 270.5 0.0 0.00 42.2 5.7 47.12 n/a
2018 03 03 4:00 270.6 0.0 0.00 40.9 5.0 51.46 n/a
2018 03 03 5:00 271.2 0.0 0.00 40.4 4.7 54.37 n/a
2018 03 03 6:00 271.2 0.0 0.00 40.1 4.5 55.99 n/a
2018 03 03 7:00 271.2 0.0 0.00 39.5 4.1 58.39 n/a
2018 03 03 8:00 270.7 0.0 0.00 40.9 4.9 55.07 n/a
2018 03 03 9:00 269.8 0.0 0.00 44.1 6.7 50.67 n/a
2018 03 03 10:00 269.1 0.0 0.00 48.8 9.3 46.59 n/a
2018 03 03 11:00 269.0 0.0 0.00 52.4 11.3 44.43 n/a
2018 03 03 12:00 268.5 0.0 0.00 56.4 13.6 41.57 n/a
2018 03 03 13:00 268.4 0.0 0.00 59.5 15.3 39.87 n/a
2018 03 03 14:00 268.3 0.0 0.00 62.0 16.7 38.62 n/a
2018 03 03 15:00 268.3 0.0 0.00 64.0 17.8 38.47 n/a
2018 03 03 16:00 268.3 0.0 0.00 64.6 18.1 38.21 n/a
2018 03 03 17:00 268.5 0.0 0.00 64.1 17.9 37.69 n/a
2018 03 03 18:00 268.8 0.0 0.00 62.5 16.9 38.93 n/a
2018 03 03 19:00 269.1 0.0 0.00 59.2 15.1 40.8 n/a
2018 03 03 20:00 269.5 0.0 0.00 56.6 13.7 39.18 n/a
2018 03 03 21:00 269.1 0.0 0.00 54.7 12.6 36.09 n/a
2018 03 03 22:00 269.1 0.0 0.00 52.9 11.6 36.05 n/a
2018 03 03 23:00 269.6 0.0 0.00 50.8 10.4 38.87 n/a
2018 03 03 24:00 269.7 0.0 0.00 48.9 9.4 43.61 n/a
2018 03 04 1:00 270.3 0.0 0.00 47.4 8.6 47.76 n/a
2018 03 04 2:00 270.4 0.0 0.00 46.5 8.0 50.54 n/a
2018 03 04 3:00 270.4 0.0 0.00 45.1 7.3 54.98 n/a
2018 03 04 4:00 270.9 0.0 0.00 44.0 6.7 57.57 n/a
2018 03 04 5:00 271.1 0.0 0.00 43.0 6.1 59.35 n/a
2018 03 04 6:00 271.2 0.0 0.00 41.8 5.4 61.61 n/a
2018 03 04 7:00 271.2 0.0 0.00 42.2 5.7 61.06 n/a
2018 03 04 8:00 270.7 0.0 0.00 44.6 7.0 54.31 n/a
2018 03 04 9:00 270.2 0.0 0.00 47.2 8.4 48.25 n/a
2018 03 04 10:00 269.3 0.0 0.00 50.4 10.2 42.53 n/a
2018 03 04 11:00 269.0 0.0 0.00 52.5 11.4 41.25 n/a
2018 03 04 12:00 269.0 0.0 0.00 54.3 12.4 42.24 n/a
2018 03 04 13:00 269.0 0.0 0.00 55.5 13.1 43.27 n/a
2018 03 04 14:00 269.0 0.0 0.00 56.3 13.5 45.7 n/a
2018 03 04 15:00 269.0 0.0 0.00 55.9 13.3 48.66 n/a
2018 03 04 16:00 269.6 0.0 0.00 55.2 12.9 54.07 n/a
2018 03 04 17:00 270.2 0.0 0.00 53.5 11.9 59.78 n/a
2018 03 04 18:00 270.4 0.0 0.00 52.2 11.2 63.54 n/a
2018 03 04 19:00 270.9 0.0 0.00 52.2 11.2 63.82 n/a
2018 03 04 20:00 271.1 0.0 0.00 52.6 11.4 64.22 n/a
2018 03 04 21:00 271.1 0.0 0.00 52.4 11.3 67.48 n/a
2018 03 04 22:00 271.3 0.0 0.00 51.9 11.1 69.95 n/a
2018 03 04 23:00 275.8 0.0 0.00 51.7 11.0 70.95 n/a
2018 03 04 24:00 272.4 0.0 0.00 51.0 10.5 76.58 n/a
2018 03 05 1:00 272.6 0.0 0.00 50.6 10.3 82.7 n/a
2018 03 05 2:00 273.1 0.0 0.00 50.9 10.5 82.4 n/a
2018 03 05 3:00 272.5 0.0 0.00 51.3 10.7 78.82 n/a
2018 03 05 4:00 272.4 0.0 0.00 51.5 10.9 75.76 n/a
2018 03 05 5:00 272.4 0.0 0.00 52.3 11.3 73.13 n/a
2018 03 05 6:00 272.4 0.0 0.00 53.0 11.6 72.99 n/a
2018 03 05 7:00 272.4 0.0 0.00 53.3 11.8 73.97 n/a
2018 03 05 8:00 272.4 0.0 0.00 53.7 12.1 76.1 n/a
2018 03 05 9:00 272.7 0.0 0.00 53.5 11.9 78.41 n/a
2018 03 05 10:00 273.2 0.0 0.00 46.5 8.1 76.35 n/a
2018 03 05 11:00 270.5 0.0 0.00 50.0 10.0 60.36 n/a
2018 03 05 12:00 270.0 0.0 0.00 51.6 10.9 49.73 n/a
2018 03 05 13:00 269.3 0.0 0.00 51.8 11.0 41.94 n/a
2018 03 05 14:00 269.1 0.0 0.00 52.2 11.2 38.63 n/a
2018 03 05 15:00 267.9 0.0 0.00 53.0 11.7 35.19 n/a
2018 03 05 16:00 268.1 0.0 0.00 53.9 12.2 27.31 n/a
2018 03 05 17:00 268.0 0.0 0.00 53.9 12.2 21.57 n/a
2018 03 05 18:00 267.5 0.0 0.00 52.1 11.1 18.88 n/a
2018 03 05 19:00 266.3 0.0 0.00 49.0 9.4 22.87 n/a
2018 03 05 20:00 266.1 0.0 0.00 46.5 8.1 26.72 n/a
2018 03 05 21:00 266.4 0.0 0.00 44.3 6.8 29.81 n/a
2018 03 05 22:00 266.4 0.0 0.00 41.0 5.0 34.76 n/a
2018 03 05 23:00 266.9 0.0 0.00 39.2 4.0 39.51 n/a
2018 03 05 24:00 267.1 0.0 0.00 39.1 3.9 39.4 n/a
2018 03 06 1:00 267.1 0.0 0.00 38.9 3.8 39.34 n/a
2018 03 06 2:00 267.2 0.0 0.00 39.4 4.1 38.92 n/a
2018 03 06 3:00 267.3 0.0 0.00 41.4 5.2 34.82 n/a
2018 03 06 4:00 268.1 0.0 0.00 42.0 5.6 33.3 n/a
2018 03 06 5:00 267.4 0.0 0.00 40.2 4.5 36.38 n/a
2018 03 06 6:00 267.6 0.0 0.00 39.1 3.9 37.77 n/a
2018 03 06 7:00 267.8 0.0 0.00 38.0 3.4 38.99 n/a
2018 03 06 8:00 268.5 0.0 0.00 39.2 4.0 35.2 n/a
2018 03 06 9:00 268.9 0.0 0.00 41.7 5.4 31.47 n/a
2018 03 06 10:00 269.3 0.0 0.00 42.0 5.6 33.75 n/a
2018 03 06 11:00 269.7 0.0 0.00 40.0 4.4 42.35 n/a
2018 03 06 12:00 270.0 0.0 0.00 38.6 3.7 47.59 n/a
2018 03 06 13:00 270.3 0.0 0.00 37.7 3.2 50.3 n/a
2018 03 06 14:00 270.2 0.0 0.00 37.6 3.1 46.18 n/a
2018 03 06 15:00 270.5 0.0 0.00 36.8 2.7 47.59 n/a
2018 03 06 16:00 270.5 0.0 0.00 36.5 2.5 46.89 n/a
2018 03 06 17:00 270.8 0.0 0.00 35.3 1.8 52.7 n/a
2018 03 06 18:00 271.4 0.0 0.00 34.3 1.3 58.49 n/a
2018 03 06 19:00 271.6 0.0 0.00 33.8 1.0 55.58 n/a
2018 03 06 20:00 271.9 0.0 0.00 32.9 0.5 62.04 n/a
2018 03 06 21:00 271.9 0.0 0.00 33.1 0.6 60.44 n/a
2018 03 06 22:00 271.9 0.0 0.00 33.1 0.6 60.79 n/a
2018 03 06 23:00 271.8 0.0 0.00 32.8 0.4 59.66 n/a
2018 03 06 24:00 271.7 0.0 0.00 32.3 0.2 60.5 n/a
2018 03 07 1:00 271.4 0.0 0.00 32.0 0.0 61.77 n/a
2018 03 07 2:00 271.5 0.0 0.00 31.6 -0.2 61.76 n/a
2018 03 07 3:00 270.6 0.0 0.00 30.9 -0.6 62.49 n/a
2018 03 07 4:00 270.2 0.0 0.00 30.3 -0.9 62.67 n/a
2018 03 07 5:00 270.6 0.0 0.00 29.7 -1.3 60.73 n/a
2018 03 07 6:00 268.2 0.0 0.00 27.8 -2.4 63.03 n/a
2018 03 07 7:00 268.9 0.0 0.00 25.4 -3.6 67.41 n/a
2018 03 07 8:00 268.9 0.0 0.00 26.2 -3.2 68.98 n/a
2018 03 07 9:00 269.4 0.0 0.00 28.4 -2.0 64.4 n/a
2018 03 07 10:00 269.7 0.0 0.00 29.7 -1.3 58.79 n/a
2018 03 07 11:00 269.0 0.0 0.00 31.9 -0.0 53.83 n/a
2018 03 07 12:00 268.2 0.0 0.00 35.0 1.7 49.17 n/a
2018 03 07 13:00 268.5 0.0 0.00 37.1 2.9 47.09 n/a
2018 03 07 14:00 269.2 0.0 0.00 37.8 3.2 47.17 n/a
2018 03 07 15:00 269.4 0.0 0.00 39.1 3.9 44.81 n/a
2018 03 07 16:00 269.2 0.0 0.00 40.3 4.6 41.33 n/a
2018 03 07 17:00 268.9 0.0 0.00 40.1 4.5 38.69 n/a
2018 03 07 18:00 267.5 0.0 0.00 39.7 4.3 39.26 n/a
2018 03 07 19:00 267.0 0.0 0.00 37.1 2.9 43.4 n/a
2018 03 07 20:00 267.2 0.0 0.00 35.1 1.7 46.69 n/a
2018 03 07 21:00 267.3 0.0 0.00 34.2 1.2 47.25 n/a
2018 03 07 22:00 267.3 0.0 0.00 33.0 0.6 52.84 n/a
2018 03 07 23:00 268.0 0.0 0.00 30.1 -1.0 61.39 n/a
2018 03 07 24:00 268.5 0.0 0.00 28.4 -2.0 65.3 n/a
2018 03 08 1:00 269.1 0.0 0.00 26.7 -3.0 68.67 n/a
2018 03 08 2:00 269.2 0.0 0.00 25.8 -3.5 70.55 n/a
2018 03 08 3:00 269.3 0.0 0.00 24.4 -4.2 73.65 n/a
2018 03 08 4:00 269.6 0.0 0.00 23.4 -4.8 75.96 n/a
2018 03 08 5:00 270.4 0.0 0.00 22.1 -5.5 78.31 n/a
2018 03 08 6:00 271.1 0.0 0.00 21.2 -6.0 79.63 n/a
2018 03 08 7:00 272.5 0.0 0.00 20.3 -6.5 82 n/a
2018 03 08 8:00 271.6 0.0 0.00 21.5 -5.8 81 n/a
2018 03 08 9:00 269.3 0.0 0.00 24.7 -4.1 77.03 n/a
2018 03 08 10:00 268.5 0.0 0.00 27.8 -2.3 69.85 n/a
2018 03 08 11:00 267.8 0.0 0.00 30.9 -0.6 61.34 n/a
2018 03 08 12:00 267.3 0.0 0.00 34.3 1.3 52.38 n/a
2018 03 08 13:00 267.1 0.0 0.00 37.0 2.8 45.83 n/a
2018 03 08 14:00 266.9 0.0 0.00 39.6 4.2 38.19 n/a
2018 03 08 15:00 267.0 0.0 0.00 41.4 5.2 32.96 n/a
2018 03 08 16:00 266.5 0.0 0.00 42.8 6.0 30.11 n/a
2018 03 08 17:00 266.3 0.0 0.00 44.4 6.9 27.44 n/a
2018 03 08 18:00 266.4 0.0 0.00 43.8 6.6 29.16 n/a
2018 03 08 19:00 267.2 0.0 0.00 40.9 4.9 34.22 n/a
2018 03 08 20:00 267.8 0.0 0.00 38.0 3.4 39.59 n/a
2018 03 08 21:00 267.8 0.0 0.00 36.3 2.4 42.22 n/a
2018 03 08 22:00 267.8 0.0 0.00 35.4 1.9 43.84 n/a
2018 03 08 23:00 268.0 0.0 0.00 34.2 1.2 45.93 n/a
2018 03 08 24:00 268.5 0.0 0.00 33.4 0.8 47.25 n/a
2018 03 09 1:00 268.5 0.0 0.00 33.2 0.7 47.09 n/a
2018 03 09 2:00 268.5 0.0 0.00 32.9 0.5 52.43 n/a
2018 03 09 3:00 268.5 0.0 0.00 33.4 0.8 51.68 n/a
2018 03 09 4:00 268.5 0.0 0.00 34.0 1.1 49.91 n/a
2018 03 09 5:00 268.5 0.0 0.00 33.3 0.7 53.83 n/a
2018 03 09 6:00 268.5 0.0 0.00 32.7 0.4 55.83 n/a
2018 03 09 7:00 268.5 0.0 0.00 32.8 0.4 55.78 n/a
2018 03 09 8:00 268.5 0.0 0.00 33.7 1.0 54.28 n/a
2018 03 09 9:00 267.9 0.0 0.00 37.4 3.0 50.66 n/a
2018 03 09 10:00 266.9 0.0 0.00 43.6 6.4 43.9 n/a
2018 03 09 11:00 266.4 0.0 0.00 47.5 8.6 42.99 n/a
2018 03 09 12:00 266.3 0.0 0.00 52.0 11.1 40.65 n/a
2018 03 09 13:00 265.9 0.0 0.00 56.9 13.8 35.95 n/a
2018 03 09 14:00 266.2 0.0 0.00 59.2 15.1 34.83 n/a
2018 03 09 15:00 266.2 0.0 0.00 62.1 16.7 32.69 n/a
2018 03 09 16:00 266.2 0.0 0.00 64.4 18.0 30.49 n/a
2018 03 09 17:00 266.7 0.0 0.00 63.9 17.7 31.63 n/a
2018 03 09 18:00 267.0 0.0 0.00 61.5 16.4 34.45 n/a
2018 03 09 19:00 268.2 0.0 0.00 55.2 12.9 40.62 n/a
2018 03 09 20:00 269.0 0.0 0.00 51.3 10.7 44.76 n/a
2018 03 09 21:00 269.4 0.0 0.00 48.1 8.9 47.29 n/a
2018 03 09 22:00 269.7 0.0 0.00 46.1 7.8 47.76 n/a
2018 03 09 23:00 269.8 0.0 0.00 42.6 5.9 53.69 n/a
2018 03 09 24:00 270.3 0.0 0.00 40.3 4.6 54.86 n/a
2018 03 10 1:00 270.5 0.0 0.00 38.7 3.7 57.29 n/a
2018 03 10 2:00 270.5 0.0 0.00 38.4 3.5 58.79 n/a
2018 03 10 3:00 270.5 0.0 0.00 38.5 3.6 60.16 n/a
2018 03 10 4:00 271.0 0.0 0.00 37.8 3.2 64.68 n/a
2018 03 10 5:00 271.8 0.0 0.00 33.4 0.8 72.65 n/a
2018 03 10 6:00 272.0 0.0 0.00 32.3 0.2 74.14 n/a
2018 03 10 7:00 272.5 0.0 0.00 31.4 -0.3 76.74 n/a
2018 03 10 8:00 271.9 0.0 0.00 32.8 0.5 75.08 n/a
2018 03 10 9:00 271.3 0.0 0.00 36.6 2.6 70.39 n/a
2018 03 10 10:00 270.6 0.0 0.00 40.5 4.7 65.31 n/a
2018 03 10 11:00 270.2 0.0 0.00 43.7 6.5 61.43 n/a
2018 03 10 12:00 269.3 0.0 0.00 47.1 8.4 57.08 n/a
2018 03 10 13:00 269.2 0.0 0.00 50.6 10.4 53.43 n/a
2018 03 10 14:00 269.3 0.0 0.00 52.5 11.4 52.29 n/a
2018 03 10 15:00 269.0 0.0 0.00 53.7 12.1 51.37 n/a
2018 03 10 16:00 269.0 0.0 0.00 54.6 12.6 50.89 n/a
2018 03 10 17:00 269.7 0.0 0.00 54.6 12.6 52.05 n/a
2018 03 10 18:00 269.9 0.0 0.00 53.9 12.2 54.31 n/a
2018 03 10 19:00 270.4 0.0 0.00 52.8 11.5 56.55 n/a
2018 03 10 20:00 270.4 0.0 0.00 51.8 11.0 56.04 n/a
2018 03 10 21:00 271.2 0.0 0.00 50.9 10.5 54.12 n/a
2018 03 10 22:00 270.5 0.0 0.00 49.2 9.6 55.62 n/a
2018 03 10 23:00 271.7 0.0 0.00 48.1 8.9 57.74 n/a
2018 03 10 24:00 271.0 0.0 0.00 48.1 8.9 57.08 n/a
2018 03 11 1:00 271.1 0.0 0.00 47.3 8.5 58.73 n/a
2018 03 11 2:00 271.1 0.0 0.00 45.6 7.6 64.34 n/a
2018 03 11 3:00 271.8 0.0 0.00 44.9 7.1 67.33 n/a
2018 03 11 4:00 271.7 0.0 0.00 43.5 6.4 69.42 n/a
2018 03 11 5:00 271.4 0.0 0.00 41.6 5.3 66.15 n/a
2018 03 11 6:00 271.6 0.0 0.00 38.4 3.5 71.38 n/a
2018 03 11 7:00 272.0 0.0 0.00 36.8 2.7 77.3 n/a
2018 03 11 8:00 272.0 0.0 0.00 37.8 3.2 76.92 n/a
2018 03 11 9:00 271.5 0.0 0.00 38.5 3.6 73.83 n/a
2018 03 11 10:00 271.4 0.0 0.00 38.7 3.7 72.71 n/a
2018 03 11 11:00 271.6 0.0 0.00 39.4 4.1 71.65 n/a
2018 03 11 12:00 271.3 0.0 0.00 40.9 5.0 69.31 n/a
2018 03 11 13:00 271.2 0.0 0.00 41.8 5.4 65.46 n/a
2018 03 11 14:00 271.2 0.0 0.00 41.2 5.1 67.12 n/a
2018 03 11 15:00 271.6 0.0 0.00 40.5 4.7 71.67 n/a
2018 03 11 16:00 271.8 0.0 0.00 39.5 4.2 75.47 n/a
2018 03 11 17:00 272.0 0.0 0.00 39.0 3.9 76.93 n/a
2018 03 11 18:00 272.6 0.0 0.00 38.4 3.5 78.85 n/a
2018 03 11 19:00 273.7 0.0 0.00 37.7 3.2 82.1 n/a
2018 03 11 20:00 273.2 0.0 0.00 37.6 3.1 81.2 n/a
2018 03 11 21:00 273.2 0.0 0.00 37.6 3.1 78.13 n/a
2018 03 11 22:00 273.9 0.0 0.00 36.6 2.6 79.33 n/a
2018 03 11 23:00 274.5 0.0 0.00 34.2 1.2 82.3 n/a
2018 03 11 24:00 275.0 0.0 0.00 32.6 0.3 85.1 n/a
2018 03 12 1:00 274.5 0.0 0.00 31.3 -0.4 86.8 n/a
2018 03 12 2:00 276.3 0.0 0.00 31.3 -0.4 86.4 n/a
2018 03 12 3:00 275.7 0.0 0.00 31.1 -0.5 85 n/a
2018 03 12 4:00 274.7 0.0 0.00 31.0 -0.6 83.1 n/a
2018 03 12 5:00 275.3 0.0 0.00 29.1 -1.6 85.5 n/a
2018 03 12 6:00 274.3 0.0 0.00 30.8 -0.6 84.3 n/a
2018 03 12 7:00 273.6 0.0 0.00 31.5 -0.3 80.9 n/a
2018 03 12 8:00 273.4 0.0 0.00 30.1 -1.0 81.8 n/a
2018 03 12 9:00 273.3 0.0 0.00 30.4 -0.9 80.3 n/a
2018 03 12 10:00 273.3 0.0 0.00 31.3 -0.4 77.96 n/a
2018 03 12 11:00 272.7 0.0 0.00 32.0 0.0 74.74 n/a
2018 03 12 12:00 271.9 0.0 0.00 34.2 1.2 68.12 n/a
2018 03 12 13:00 271.2 0.0 0.00 37.6 3.1 59.97 n/a
2018 03 12 14:00 270.7 0.0 0.00 41.6 5.3 52.05 n/a
2018 03 12 15:00 270.2 0.0 0.00 44.8 7.1 44.51 n/a
2018 03 12 16:00 269.7 0.0 0.00 46.9 8.3 38.54 n/a
2018 03 12 17:00 269.5 0.0 0.00 47.9 8.8 35.45 n/a
2018 03 12 18:00 269.2 0.0 0.00 47.8 8.8 34.94 n/a
2018 03 12 19:00 270.0 0.0 0.00 44.8 7.1 38.33 n/a
2018 03 12 20:00 270.9 0.0 0.00 40.7 4.8 45.84 n/a
2018 03 12 21:00 270.9 0.0 0.00 39.3 4.1 47.67 n/a
2018 03 12 22:00 271.4 0.0 0.00 37.3 2.9 51.53 n/a
2018 03 12 23:00 272.1 0.0 0.00 34.2 1.2 57.91 n/a
2018 03 12 24:00 272.0 0.0 0.00 32.8 0.5 60.39 n/a
2018 03 13 1:00 271.4 0.0 0.00 35.8 2.1 50.48 n/a
2018 03 13 2:00 271.1 0.0 0.00 36.0 2.2 49.33 n/a
2018 03 13 3:00 271.2 0.0 0.00 34.3 1.3 53.09 n/a
2018 03 13 4:00 271.2 0.0 0.00 34.0 1.1 55.37 n/a
2018 03 13 5:00 271.3 0.0 0.00 32.3 0.2 57.46 n/a
2018 03 13 6:00 272.4 0.0 0.00 29.1 -1.6 64.07 n/a
2018 03 13 7:00 272.8 0.0 0.00 27.2 -2.7 69.21 n/a
2018 03 13 8:00 271.7 0.0 0.00 28.5 -1.9 67.15 n/a
2018 03 13 9:00 270.9 0.0 0.00 33.4 0.8 54.33 n/a
2018 03 13 10:00 270.4 0.0 0.00 36.1 2.3 49.48 n/a
2018 03 13 11:00 269.7 0.0 0.00 40.1 4.5 40.56 n/a
2018 03 13 12:00 269.1 0.0 0.00 42.9 6.1 34.31 n/a
2018 03 13 13:00 268.8 0.0 0.00 44.9 7.2 29.89 n/a
2018 03 13 14:00 268.3 0.0 0.00 47.6 8.6 24.88 n/a
2018 03 13 15:00 268.0 0.0 0.00 49.2 9.6 22.78 n/a
2018 03 13 16:00 267.8 0.0 0.00 50.1 10.1 21.66 n/a
2018 03 13 17:00 267.7 0.0 0.00 49.8 9.9 21.8 n/a
2018 03 13 18:00 267.7 0.0 0.00 48.6 9.2 22.68 n/a
2018 03 13 19:00 268.4 0.0 0.00 44.7 7.1 27.65 n/a
2018 03 13 20:00 269.1 0.0 0.00 41.4 5.2 31.76 n/a
2018 03 13 21:00 269.2 0.0 0.00 39.4 4.1 34.55 n/a
2018 03 13 22:00 269.8 0.0 0.00 37.2 2.9 38.39 n/a
2018 03 13 23:00 269.9 0.0 0.00 36.4 2.4 38.91 n/a
2018 03 13 24:00 269.9 0.0 0.00 35.2 1.8 40.27 n/a
2018 03 14 1:00 269.9 0.0 0.00 35.0 1.7 37.62 n/a
2018 03 14 2:00 270.5 0.0 0.00 31.4 -0.3 45.93 n/a
2018 03 14 3:00 271.2 0.0 0.00 28.9 -1.7 50.44 n/a
2018 03 14 4:00 272.8 0.0 0.00 25.9 -3.4 61.18 n/a
2018 03 14 5:00 272.9 0.0 0.00 25.0 -3.9 64.03 n/a
2018 03 14 6:00 273.3 0.0 0.00 23.6 -4.7 72.8 n/a
2018 03 14 7:00 273.9 0.0 0.00 23.2 -4.9 73.48 n/a
2018 03 14 8:00 270.9 0.0 0.00 27.2 -2.7 65.09 n/a
2018 03 14 9:00 269.9 0.0 0.00 33.4 0.8 52.77 n/a
2018 03 14 10:00 268.9 0.0 0.00 40.4 4.7 36.86 n/a
2018 03 14 11:00 267.9 0.0 0.00 46.0 7.8 29.61 n/a
2018 03 14 12:00 267.3 0.0 0.00 50.6 10.3 25.29 n/a
2018 03 14 13:00 266.9 0.0 0.00 54.4 12.5 21.04 n/a
2018 03 14 14:00 266.4 0.0 0.00 57.3 14.1 18.18 n/a
2018 03 14 15:00 266.2 0.0 0.00 59.3 15.2 17.16 n/a
2018 03 14 16:00 266.2 0.0 0.00 60.4 15.8 17.58 n/a
2018 03 14 17:00 266.2 0.0 0.00 60.0 15.6 18.03 n/a
2018 03 14 18:00 266.2 0.0 0.00 58.2 14.5 20.12 n/a
2018 03 14 19:00 267.3 0.0 0.00 53.7 12.1 24.83 n/a
2018 03 14 20:00 267.7 0.0 0.00 50.7 10.4 28.7 n/a
2018 03 14 21:00 268.3 0.0 0.00 48.5 9.2 31.85 n/a
2018 03 14 22:00 268.4 0.0 0.00 48.1 9.0 32.58 n/a
2018 03 14 23:00 268.4 0.0 0.00 46.5 8.0 35.73 n/a
2018 03 14 24:00 268.8 0.0 0.00 45.3 7.4 37.64 n/a
2018 03 15 1:00 269.1 0.0 0.00 44.1 6.7 39.34 n/a
2018 03 15 2:00 269.1 0.0 0.00 43.2 6.2 40.4 n/a
2018 03 15 3:00 269.4 0.0 0.00 43.4 6.3 40.04 n/a
2018 03 15 4:00 269.4 0.0 0.00 43.7 6.5 41.72 n/a
2018 03 15 5:00 269.3 0.0 0.00 44.0 6.7 41.8 n/a
2018 03 15 6:00 269.6 0.0 0.00 43.6 6.4 42.25 n/a
2018 03 15 7:00 269.7 0.0 0.00 42.3 5.7 44.88 n/a
2018 03 15 8:00 268.4 0.0 0.00 46.6 8.1 40.03 n/a
2018 03 15 9:00 267.3 0.0 0.00 52.9 11.6 34.31 n/a
2018 03 15 10:00 266.6 0.0 0.00 58.4 14.6 29.53 n/a
2018 03 15 11:00 266.2 0.0 0.00 63.1 17.3 26.77 n/a
2018 03 15 12:00 265.6 0.0 0.00 66.7 19.3 23.31 n/a
2018 03 15 13:00 265.4 0.0 0.00 70.0 21.1 22.05 n/a
2018 03 15 14:00 265.4 0.0 0.00 70.8 21.6 21.62 n/a
2018 03 15 15:00 265.5 0.0 0.00 70.6 21.4 21.88 n/a
2018 03 15 16:00 265.5 0.0 0.00 72.1 22.3 20.18 n/a
2018 03 15 17:00 265.7 0.0 0.00 71.4 21.9 22.5 n/a
2018 03 15 18:00 266.1 0.0 0.00 69.6 20.9 26.76 n/a
2018 03 15 19:00 267.1 0.0 0.00 65.7 18.7 31.37 n/a
2018 03 15 20:00 267.6 0.0 0.00 63.6 17.6 32.94 n/a
2018 03 15 21:00 267.8 0.0 0.00 60.9 16.1 34.97 n/a
2018 03 15 22:00 268.3 0.0 0.00 59.7 15.4 36.95 n/a
2018 03 15 23:00 268.3 0.0 0.00 58.4 14.7 38.56 n/a
2018 03 15 24:00 268.4 0.0 0.00 57.3 14.1 41.24 n/a
2018 03 16 1:00 268.3 0.0 0.00 57.7 14.3 42.21 n/a
2018 03 16 2:00 Wet 289.9 0.0 0.00 57.3 14.1 43.52 n/a
2018 03 16 3:00 Wet 313.7 0.0 0.25 54.0 12.2 61.38 n/a
2018 03 16 4:00 283.5 0.0 0.00 53.8 12.1 62.53 n/a
2018 03 16 5:00 Wet 306.4 0.0 0.00 52.9 11.6 68.89 n/a
2018 03 16 6:00 Wet 389.2 0.1 1.52 51.7 10.9 79.15 n/a
2018 03 16 7:00 Wet 386.5 0.0 0.51 50.2 10.1 86.4 n/a
2018 03 16 8:00 Wet 333.1 0.0 0.00 49.8 9.9 88.9 n/a
2018 03 16 9:00 276.4 0.0 0.00 50.4 10.2 89.4 n/a
2018 03 16 10:00 Wet 313.3 0.0 0.00 50.2 10.1 90.1 n/a
2018 03 16 11:00 281.2 0.0 0.25 50.5 10.3 90.2 n/a
2018 03 16 12:00 272.3 0.0 0.00 57.5 14.2 79.54 n/a
2018 03 16 13:00 271.3 0.0 0.00 61.3 16.3 72.23 n/a
2018 03 16 14:00 Wet 286.8 0.0 0.51 62.9 17.1 68.71 n/a
2018 03 16 15:00 273.1 0.0 0.00 69.4 20.8 42.69 n/a
2018 03 16 16:00 267.3 0.0 0.00 71.8 22.1 26.75 n/a
2018 03 16 17:00 266.8 0.0 0.00 70.2 21.2 23.45 n/a
2018 03 16 18:00 266.8 0.0 0.00 69.2 20.7 24.57 n/a
2018 03 16 19:00 267.2 0.0 0.00 67.4 19.7 27.01 n/a
2018 03 16 20:00 267.4 0.0 0.00 64.4 18.0 31.23 n/a
2018 03 16 21:00 267.4 0.0 0.00 60.1 15.6 38.45 n/a
2018 03 16 22:00 268.3 0.0 0.00 57.0 13.9 46.23 n/a
2018 03 16 23:00 269.0 0.0 0.00 52.6 11.5 58.89 n/a
2018 03 16 24:00 270.1 0.0 0.00 47.8 8.8 68.68 n/a
2018 03 17 1:00 270.6 0.0 0.00 45.6 7.5 73.15 n/a
2018 03 17 2:00 270.8 0.0 0.00 44.7 7.0 75.82 n/a
2018 03 17 3:00 271.2 0.0 0.00 42.8 6.0 76.95 n/a
2018 03 17 4:00 271.5 0.0 0.00 40.9 4.9 77.72 n/a
2018 03 17 5:00 271.5 0.0 0.00 39.8 4.3 77.57 n/a
2018 03 17 6:00 271.5 0.0 0.00 39.2 4.0 76.64 n/a
2018 03 17 7:00 271.2 0.0 0.00 38.8 3.8 75.09 n/a
2018 03 17 8:00 271.2 0.0 0.00 37.9 3.3 74.72 n/a
2018 03 17 9:00 270.9 0.0 0.00 37.9 3.3 73.93 n/a
2018 03 17 10:00 271.0 0.0 0.00 37.9 3.3 73.98 n/a
2018 03 17 11:00 270.5 0.0 0.00 38.9 3.8 71.34 n/a
2018 03 17 12:00 269.9 0.0 0.00 39.9 4.4 68.12 n/a
2018 03 17 13:00 269.9 0.0 0.00 41.1 5.1 65.18 n/a
2018 03 17 14:00 269.4 0.0 0.00 42.5 5.8 62.61 n/a
2018 03 17 15:00 269.1 0.0 0.00 43.7 6.5 60.47 n/a
2018 03 17 16:00 269.7 0.0 0.00 44.6 7.0 59.56 n/a
2018 03 17 17:00 270.0 0.0 0.00 44.7 7.0 60.17 n/a
2018 03 17 18:00 270.4 0.0 0.00 44.4 6.9 60.93 n/a
2018 03 17 19:00 270.8 0.0 0.00 43.2 6.2 63.54 n/a
2018 03 17 20:00 271.2 0.0 0.00 42.4 5.8 67.28 n/a
2018 03 17 21:00 271.3 0.0 0.00 41.6 5.3 69.9 n/a
2018 03 17 22:00 271.8 0.0 0.00 40.1 4.5 73.93 n/a
2018 03 17 23:00 271.9 0.0 0.00 40.4 4.7 72.43 n/a
2018 03 17 24:00 271.8 0.0 0.00 40.1 4.5 73.43 n/a
2018 03 18 1:00 271.9 0.0 0.00 39.7 4.3 75.41 n/a
2018 03 18 2:00 272.0 0.0 0.00 39.3 4.0 78.38 n/a
2018 03 18 3:00 273.3 0.0 0.00 38.2 3.4 81.7 n/a
2018 03 18 4:00 279.8 0.0 0.00 36.9 2.7 85.1 n/a
2018 03 18 5:00 Wet 284.3 0.0 0.00 36.6 2.6 86.9 n/a
2018 03 18 6:00 273.4 0.0 0.00 37.6 3.1 86 n/a
2018 03 18 7:00 273.2 0.0 0.00 38.1 3.4 84.9 n/a
2018 03 18 8:00 272.7 0.0 0.00 38.9 3.8 81 n/a
2018 03 18 9:00 272.5 0.0 0.00 39.5 4.2 79.74 n/a
2018 03 18 10:00 271.9 0.0 0.00 40.3 4.6 78.36 n/a
2018 03 18 11:00 271.0 0.0 0.00 41.9 5.5 74.9 n/a
2018 03 18 12:00 270.2 0.0 0.00 44.9 7.2 68.78 n/a
2018 03 18 13:00 269.9 0.0 0.00 48.1 8.9 63.21 n/a
2018 03 18 14:00 269.9 0.0 0.00 49.7 9.8 60.32 n/a
2018 03 18 15:00 269.7 0.0 0.00 51.2 10.7 58.03 n/a
2018 03 18 16:00 270.4 0.0 0.00 50.4 10.2 59.87 n/a
2018 03 18 17:00 270.4 0.0 0.00 49.9 9.9 61.13 n/a
2018 03 18 18:00 271.0 0.0 0.00 49.0 9.4 63.11 n/a
2018 03 18 19:00 271.1 0.0 0.00 48.1 8.9 65.77 n/a
2018 03 18 20:00 271.2 0.0 0.00 47.3 8.5 68.21 n/a
2018 03 18 21:00 271.8 0.0 0.00 46.7 8.2 70.19 n/a
2018 03 18 22:00 Wet 353.2 0.0 0.25 45.6 7.6 75.24 n/a
2018 03 18 23:00 Wet 510.6 0.1 3.30 42.9 6.1 88.4 n/a
2018 03 18 24:00 Wet 506.5 0.1 3.56 42.0 5.5 92.9 n/a
2018 03 19 1:00 Wet 365.4 0.0 0.51 41.1 5.1 94.5 n/a
2018 03 19 2:00 Wet 285.8 0.0 0.00 40.3 4.6 93.3 n/a
2018 03 19 3:00 282.6 0.0 0.00 39.9 4.4 93.3 n/a
2018 03 19 4:00 Wet 429.8 0.0 0.25 39.5 4.2 94.2 n/a
2018 03 19 5:00 Wet 471.9 0.2 4.06 39.2 4.0 95.1 n/a
2018 03 19 6:00 Wet 521.1 0.4 9.65 39.1 3.9 95.2 n/a
2018 03 19 7:00 Wet 544.5 0.5 11.68 38.8 3.8 95.1 n/a
2018 03 19 8:00 Wet 480.6 0.1 3.56 39.5 4.2 95.5 n/a
2018 03 19 9:00 Wet 349.9 0.0 0.51 40.3 4.6 94.5 n/a
2018 03 19 10:00 280.6 0.0 0.00 41.3 5.2 93.1 n/a
2018 03 19 11:00 279.2 0.0 0.00 41.8 5.4 92.1 n/a
2018 03 19 12:00 Wet 381.3 0.0 0.00 41.5 5.3 92.3 n/a
2018 03 19 13:00 Wet 371.7 0.0 0.00 41.1 5.1 91.2 n/a
2018 03 19 14:00 274.6 0.0 0.00 41.3 5.2 89.3 n/a
2018 03 19 15:00 277.7 0.0 0.00 40.9 4.9 90.5 n/a
2018 03 19 16:00 Wet 380.0 0.0 0.00 40.2 4.6 92.1 n/a
2018 03 19 17:00 Wet 350.0 0.0 0.00 40.2 4.5 93.2 n/a
2018 03 19 18:00 Wet 372.9 0.0 0.00 41.0 5.0 92.7 n/a
2018 03 19 19:00 Wet 402.2 0.0 0.00 41.3 5.2 93.8 n/a
2018 03 19 20:00 Wet 297.1 0.0 0.00 42.0 5.5 90.9 n/a
2018 03 19 21:00 278.1 0.0 0.00 42.3 5.7 86.1 n/a
2018 03 19 22:00 275.5 0.0 0.00 41.9 5.5 87.8 n/a
2018 03 19 23:00 275.8 0.0 0.00 41.6 5.3 88.3 n/a
2018 03 19 24:00 280.0 0.0 0.00 41.5 5.3 89.2 n/a
2018 03 20 1:00 Wet 353.6 0.0 0.00 41.6 5.3 88.4 n/a
2018 03 20 2:00 Wet 345.7 0.0 0.25 41.8 5.4 83.2 n/a
2018 03 20 3:00 Wet 285.6 0.0 0.00 41.4 5.2 77.41 n/a
2018 03 20 4:00 274.9 0.0 0.00 40.7 4.9 78.85 n/a
2018 03 20 5:00 274.5 0.0 0.00 40.3 4.6 82.3 n/a
2018 03 20 6:00 273.7 0.0 0.00 39.4 4.1 71.74 n/a
2018 03 20 7:00 273.2 0.0 0.00 38.0 3.3 70.72 n/a
2018 03 20 8:00 273.2 0.0 0.00 38.7 3.7 68.64 n/a
2018 03 20 9:00 272.3 0.0 0.00 40.6 4.8 63.88 n/a
2018 03 20 10:00 271.9 0.0 0.00 41.6 5.3 61.3 n/a
2018 03 20 11:00 271.6 0.0 0.00 43.2 6.2 60.16 n/a
2018 03 20 12:00 271.0 0.0 0.00 45.1 7.3 56.56 n/a
2018 03 20 13:00 270.6 0.0 0.00 46.9 8.3 51.36 n/a
2018 03 20 14:00 270.3 0.0 0.00 48.1 8.9 48.64 n/a
2018 03 20 15:00 270.5 0.0 0.00 47.1 8.4 56.47 n/a
2018 03 20 16:00 270.9 0.0 0.00 46.9 8.3 62.09 n/a
2018 03 20 17:00 271.7 0.0 0.00 44.1 6.7 69.61 n/a
2018 03 20 18:00 271.6 0.0 0.00 42.7 5.9 70.96 n/a
2018 03 20 19:00 271.2 0.0 0.00 41.9 5.5 70.97 n/a
2018 03 20 20:00 271.6 0.0 0.00 41.3 5.1 73.67 n/a
2018 03 20 21:00 271.9 0.0 0.00 41.0 5.0 75.6 n/a
2018 03 20 22:00 271.8 0.0 0.00 40.6 4.8 75.95 n/a
2018 03 20 23:00 271.9 0.0 0.00 40.3 4.6 77.28 n/a
2018 03 20 24:00 272.5 0.0 0.00 39.7 4.3 78.84 n/a
2018 03 21 1:00 272.5 0.0 0.00 39.2 4.0 76.34 n/a
2018 03 21 2:00 272.5 0.0 0.00 38.8 3.8 76.02 n/a
2018 03 21 3:00 273.1 0.0 0.00 36.8 2.7 79.13 n/a
2018 03 21 4:00 273.5 0.0 0.00 35.0 1.7 80.2 n/a
2018 03 21 5:00 275.3 0.0 0.00 33.1 0.6 83.5 n/a
2018 03 21 6:00 274.0 0.0 0.00 32.6 0.4 80.7 n/a
2018 03 21 7:00 274.2 0.0 0.00 31.3 -0.4 82 n/a
2018 03 21 8:00 272.7 0.0 0.00 32.8 0.4 81.5 n/a
2018 03 21 9:00 272.0 0.0 0.00 36.3 2.4 74.51 n/a
2018 03 21 10:00 271.6 0.0 0.00 39.5 4.2 68.72 n/a
2018 03 21 11:00 270.6 0.0 0.00 42.0 5.6 60.39 n/a
2018 03 21 12:00 270.2 0.0 0.00 44.1 6.7 55.75 n/a
2018 03 21 13:00 270.2 0.0 0.00 46.7 8.2 50.65 n/a
2018 03 21 14:00 270.2 0.0 0.00 48.5 9.2 46.58 n/a
2018 03 21 15:00 269.8 0.0 0.00 50.1 10.1 42.24 n/a
2018 03 21 16:00 269.6 0.0 0.00 51.5 10.8 39.29 n/a
2018 03 21 17:00 269.7 0.0 0.00 51.7 11.0 38.71 n/a
2018 03 21 18:00 269.7 0.0 0.00 51.5 10.8 38.6 n/a
2018 03 21 19:00 270.2 0.0 0.00 49.2 9.6 41.83 n/a
2018 03 21 20:00 271.0 0.0 0.00 45.9 7.7 49.23 n/a
2018 03 21 21:00 271.3 0.0 0.00 44.0 6.7 53.14 n/a
2018 03 21 22:00 271.8 0.0 0.00 42.6 5.9 55.68 n/a
2018 03 21 23:00 271.9 0.0 0.00 41.3 5.2 58.33 n/a
2018 03 21 24:00 271.9 0.0 0.00 41.2 5.1 59.7 n/a
2018 03 22 1:00 271.9 0.0 0.00 41.8 5.5 61.41 n/a
2018 03 22 2:00 271.8 0.0 0.00 42.3 5.7 60.1 n/a
2018 03 22 3:00 272.0 0.0 0.00 40.4 4.7 64.33 n/a
2018 03 22 4:00 272.5 0.0 0.00 39.2 4.0 65.8 n/a
2018 03 22 5:00 272.6 0.0 0.00 37.7 3.2 69.82 n/a
2018 03 22 6:00 273.1 0.0 0.00 36.1 2.3 74.51 n/a
2018 03 22 7:00 272.8 0.0 0.00 36.0 2.2 75.63 n/a
2018 03 22 8:00 271.8 0.0 0.00 39.0 3.9 70.67 n/a
2018 03 22 9:00 270.7 0.0 0.00 43.6 6.5 60.82 n/a
2018 03 22 10:00 269.8 0.0 0.00 47.7 8.7 54.83 n/a
2018 03 22 11:00 269.3 0.0 0.00 51.9 11.0 48.68 n/a
2018 03 22 12:00 268.5 0.0 0.00 56.8 13.8 39.99 n/a
2018 03 22 13:00 268.3 0.0 0.00 60.1 15.6 35.67 n/a
2018 03 22 14:00 268.2 0.0 0.00 62.8 17.1 31.85 n/a
2018 03 22 15:00 267.8 0.0 0.00 65.2 18.5 31.13 n/a
2018 03 22 16:00 267.5 0.0 0.00 67.0 19.4 28.74 n/a
2018 03 22 17:00 267.5 0.0 0.00 67.8 19.9 28.36 n/a
2018 03 22 18:00 267.5 0.0 0.00 67.2 19.6 29 n/a
2018 03 22 19:00 268.2 0.0 0.00 65.0 18.3 31.73 n/a
2018 03 22 20:00 268.7 0.0 0.00 62.4 16.9 37.31 n/a
2018 03 22 21:00 268.9 0.0 0.00 60.3 15.7 39.63 n/a
2018 03 22 22:00 269.1 0.0 0.00 58.4 14.7 43.77 n/a
2018 03 22 23:00 269.7 0.0 0.00 56.4 13.6 46.6 n/a
2018 03 22 24:00 269.7 0.0 0.00 55.1 12.8 47.93 n/a
2018 03 23 1:00 270.0 0.0 0.00 51.9 11.0 53.9 n/a
2018 03 23 2:00 270.4 0.0 0.00 49.9 9.9 56.69 n/a
2018 03 23 3:00 270.4 0.0 0.00 49.1 9.5 58.44 n/a
2018 03 23 4:00 270.5 0.0 0.00 48.9 9.4 59.67 n/a
2018 03 23 5:00 270.9 0.0 0.00 48.4 9.1 61.28 n/a
2018 03 23 6:00 270.6 0.0 0.00 49.2 9.6 60.63 n/a
2018 03 23 7:00 271.1 0.0 0.00 48.5 9.1 64.39 n/a
2018 03 23 8:00 270.8 0.0 0.00 49.8 9.9 63.43 n/a
2018 03 23 9:00 270.0 0.0 0.00 53.3 11.8 58.47 n/a
2018 03 23 10:00 269.7 0.0 0.00 55.7 13.2 54.82 n/a
2018 03 23 11:00 269.5 0.0 0.00 57.2 14.0 53.9 n/a
2018 03 23 12:00 268.3 0.0 0.00 61.1 16.1 50.98 n/a
2018 03 23 13:00 268.6 0.0 0.00 63.4 17.5 51.11 n/a
2018 03 23 14:00 268.3 0.0 0.00 66.2 19.0 50.56 n/a
2018 03 23 15:00 268.3 0.0 0.00 66.0 18.9 49.64 n/a
2018 03 23 16:00 269.0 0.0 0.00 64.8 18.2 51.77 n/a
2018 03 23 17:00 269.5 0.0 0.00 59.7 15.4 51.39 n/a
2018 03 23 18:00 269.6 0.0 0.00 58.8 14.9 51.15 n/a
2018 03 23 19:00 269.7 0.0 0.00 57.6 14.2 53.55 n/a
2018 03 23 20:00 270.2 0.0 0.00 56.4 13.6 55.87 n/a
2018 03 23 21:00 270.3 0.0 0.00 55.7 13.2 58.06 n/a
2018 03 23 22:00 270.6 0.0 0.00 55.3 12.9 61.21 n/a
2018 03 23 23:00 271.3 0.0 0.00 55.5 13.1 65.66 n/a
2018 03 23 24:00 Wet 295.0 0.0 0.00 58.5 14.7 73.55 n/a
2018 03 24 1:00 283.9 0.0 0.00 63.1 17.3 73.01 n/a
2018 03 24 2:00 271.7 0.0 0.00 62.9 17.2 73.24 n/a
2018 03 24 3:00 271.8 0.0 0.00 62.5 17.0 74.99 n/a
2018 03 24 4:00 272.3 0.0 0.00 62.0 16.7 77.68 n/a
2018 03 24 5:00 272.3 0.0 0.00 63.3 17.4 79.03 n/a
2018 03 24 6:00 272.3 0.0 0.00 63.8 17.7 79.95 n/a
2018 03 24 7:00 272.7 0.0 0.00 62.2 16.8 83 n/a
2018 03 24 8:00 272.6 0.0 0.00 54.4 12.4 80 n/a
2018 03 24 9:00 272.8 0.0 0.00 50.3 10.1 82.7 n/a
2018 03 24 10:00 272.7 0.0 0.00 49.2 9.6 79.85 n/a
2018 03 24 11:00 272.3 0.0 0.00 49.0 9.5 74.8 n/a
2018 03 24 12:00 271.5 0.0 0.00 49.9 9.9 68.9 n/a
2018 03 24 13:00 271.1 0.0 0.00 49.7 9.8 66.91 n/a
2018 03 24 14:00 270.9 0.0 0.00 49.7 9.8 64.95 n/a
2018 03 24 15:00 270.9 0.0 0.00 49.6 9.8 62.71 n/a
2018 03 24 16:00 270.1 0.0 0.00 49.3 9.6 60.61 n/a
2018 03 24 17:00 269.2 0.0 0.00 48.1 8.9 61.8 n/a
2018 03 24 18:00 269.4 0.0 0.00 46.5 8.1 63.98 n/a
2018 03 24 19:00 269.8 0.0 0.00 44.6 7.0 68.29 n/a
2018 03 24 20:00 270.4 0.0 0.00 42.8 6.0 72.91 n/a
2018 03 24 21:00 271.0 0.0 0.00 42.0 5.6 74.4 n/a
2018 03 24 22:00 272.2 0.0 0.00 41.3 5.2 78.4 n/a
2018 03 24 23:00 280.3 0.0 0.00 39.6 4.2 87 n/a
2018 03 24 24:00 272.9 0.0 0.00 38.5 3.6 88 n/a
2018 03 25 1:00 273.2 0.0 0.00 37.1 2.9 88.1 n/a
2018 03 25 2:00 273.2 0.0 0.00 36.5 2.5 86.6 n/a
2018 03 25 3:00 273.3 0.0 0.00 36.0 2.2 84.3 n/a
2018 03 25 4:00 273.4 0.0 0.00 35.5 2.0 83.9 n/a
2018 03 25 5:00 273.2 0.0 0.00 35.5 1.9 82.6 n/a
2018 03 25 6:00 273.3 0.0 0.00 35.4 1.9 85.3 n/a
2018 03 25 7:00 274.2 0.0 0.00 34.9 1.6 88.9 n/a
2018 03 25 8:00 273.9 0.0 0.00 34.9 1.6 89.4 n/a
2018 03 25 9:00 273.2 0.0 0.00 35.6 2.0 87.3 n/a
2018 03 25 10:00 272.7 0.0 0.00 36.8 2.7 84.6 n/a
2018 03 25 11:00 272.3 0.0 0.00 38.2 3.4 81.3 n/a
2018 03 25 12:00 271.9 0.0 0.00 39.1 3.9 78.92 n/a
2018 03 25 13:00 271.8 0.0 0.00 39.7 4.3 77.19 n/a
2018 03 25 14:00 271.6 0.0 0.00 41.4 5.2 73.17 n/a
2018 03 25 15:00 271.2 0.0 0.00 43.8 6.6 67.97 n/a
2018 03 25 16:00 271.0 0.0 0.00 45.9 7.7 64.24 n/a
2018 03 25 17:00 271.1 0.0 0.00 47.6 8.7 60.61 n/a
2018 03 25 18:00 271.1 0.0 0.00 48.0 8.9 59.02 n/a
2018 03 25 19:00 271.5 0.0 0.00 46.6 8.1 63.19 n/a
2018 03 25 20:00 271.8 0.0 0.00 44.5 7.0 67.92 n/a
2018 03 25 21:00 272.2 0.0 0.00 43.4 6.3 70.61 n/a
2018 03 25 22:00 272.4 0.0 0.00 43.6 6.5 70.86 n/a
2018 03 25 23:00 271.8 0.0 0.00 44.4 6.9 70.24 n/a
2018 03 25 24:00 272.0 0.0 0.00 44.9 7.2 70.73 n/a
2018 03 26 1:00 272.2 0.0 0.00 45.2 7.3 72.47 n/a
2018 03 26 2:00 272.5 0.0 0.00 44.7 7.1 75.42 n/a
2018 03 26 3:00 272.5 0.0 0.00 44.4 6.9 77.99 n/a
2018 03 26 4:00 272.5 0.0 0.00 44.3 6.9 79.78 n/a
2018 03 26 5:00 Wet 344.8 0.0 0.25 44.5 6.9 82.4 n/a
2018 03 26 6:00 Wet 333.3 0.0 0.51 44.7 7.0 85.8 n/a
2018 03 26 7:00 Wet 284.8 0.0 0.00 46.2 7.9 86 n/a
2018 03 26 8:00 276.8 0.0 0.00 44.6 7.0 88.6 n/a
2018 03 26 9:00 275.7 0.0 0.00 43.6 6.5 90.9 n/a
2018 03 26 10:00 274.5 0.0 0.00 45.1 7.3 91.6 n/a
2018 03 26 11:00 274.3 0.0 0.00 47.9 8.8 89.7 n/a
2018 03 26 12:00 273.4 0.0 0.00 51.5 10.9 83.7 n/a
2018 03 26 13:00 273.6 0.0 0.00 55.0 12.8 78.91 n/a
2018 03 26 14:00 Wet 298.2 0.0 0.00 56.9 13.8 80.7 n/a
2018 03 26 15:00 Wet 323.8 0.0 0.25 57.0 13.9 88.7 n/a
2018 03 26 16:00 277.8 0.0 0.00 58.2 14.6 87 n/a
2018 03 26 17:00 273.1 0.0 0.00 59.9 15.5 82.7 n/a
2018 03 26 18:00 Wet 310.3 0.0 0.25 58.8 14.9 84.9 n/a
2018 03 26 19:00 Wet 327.3 0.0 0.25 58.5 14.7 90 n/a
2018 03 26 20:00 Wet 333.1 0.0 0.00 58.8 14.9 91.6 n/a
2018 03 26 21:00 Wet 321.9 0.0 0.25 58.8 14.9 92.1 n/a
2018 03 26 22:00 Wet 321.5 0.0 0.25 58.4 14.7 94.4 n/a
2018 03 26 23:00 Wet 325.3 0.0 0.25 59.4 15.2 94.6 n/a
2018 03 26 24:00 Wet 357.8 0.0 0.51 59.4 15.2 94.4 n/a
2018 03 27 1:00 Wet 377.3 0.0 0.76 59.3 15.2 94.5 n/a
2018 03 27 2:00 Wet 424.1 0.1 1.27 58.2 14.5 95.5 n/a
2018 03 27 3:00 Wet 293.0 0.0 0.00 51.3 10.7 94.3 n/a
2018 03 27 4:00 Wet 286.1 0.0 0.00 48.4 9.1 94.3 n/a
2018 03 27 5:00 Wet 314.2 0.0 0.00 46.6 8.1 94 n/a
2018 03 27 6:00 281.9 0.0 0.00 45.4 7.5 91.9 n/a
2018 03 27 7:00 277.7 0.0 0.00 44.4 6.9 92 n/a
2018 03 27 8:00 Wet 363.8 0.0 0.00 43.9 6.6 91 n/a
2018 03 27 9:00 Wet 308.3 0.0 0.00 43.3 6.3 90.4 n/a
2018 03 27 10:00 Wet 316.8 0.0 0.25 42.4 5.8 86.2 n/a
2018 03 27 11:00 Wet 402.9 0.0 0.00 41.6 5.3 86.2 n/a
2018 03 27 12:00 Wet 439.0 0.0 0.51 41.4 5.2 86.6 n/a
2018 03 27 13:00 Wet 442.6 0.0 0.25 41.8 5.4 87.7 n/a
2018 03 27 14:00 Wet 440.1 0.0 0.51 42.7 6.0 83.6 n/a
2018 03 27 15:00 Wet 457.6 0.0 0.51 42.1 5.6 86 n/a
2018 03 27 16:00 Wet 455.7 0.0 0.25 41.7 5.4 86.9 n/a
2018 03 27 17:00 Wet 455.6 0.0 0.51 41.5 5.3 89.3 n/a
2018 03 27 18:00 Wet 449.6 0.0 0.51 41.2 5.1 90.3 n/a
2018 03 27 19:00 Wet 417.5 0.0 0.25 40.9 4.9 91.3 n/a
2018 03 27 20:00 Wet 315.9 0.0 0.00 40.9 4.9 92.4 n/a
2018 03 27 21:00 Wet 328.4 0.0 0.00 41.0 5.0 93 n/a
2018 03 27 22:00 Wet 393.0 0.0 0.25 41.1 5.1 93.3 n/a
2018 03 27 23:00 Wet 424.3 0.0 0.25 40.8 4.9 91.6 n/a
2018 03 27 24:00 Wet 466.6 0.0 1.02 40.6 4.8 92.3 n/a
2018 03 28 1:00 Wet 461.9 0.0 0.51 40.3 4.6 93.4 n/a
2018 03 28 2:00 Wet 351.0 0.0 0.00 40.0 4.4 94.2 n/a
2018 03 28 3:00 Wet 329.6 0.0 0.00 39.9 4.4 94 n/a
2018 03 28 4:00 Wet 327.1 0.0 0.00 39.8 4.3 94.9 n/a
2018 03 28 5:00 Wet 288.6 0.0 0.00 39.9 4.4 94.7 n/a
2018 03 28 6:00 Wet 286.1 0.0 0.00 40.0 4.5 94.2 n/a
2018 03 28 7:00 Wet 285.4 0.0 0.00 40.3 4.6 94.6 n/a
2018 03 28 8:00 282.8 0.0 0.00 41.1 5.1 94.1 n/a
2018 03 28 9:00 278.7 0.0 0.00 42.0 5.6 93.4 n/a
2018 03 28 10:00 276.5 0.0 0.00 42.7 6.0 92.3 n/a
2018 03 28 11:00 277.1 0.0 0.00 43.6 6.4 91.5 n/a
2018 03 28 12:00 274.1 0.0 0.00 44.9 7.2 89.9 n/a
2018 03 28 13:00 273.3 0.0 0.00 46.7 8.2 85.5 n/a
2018 03 28 14:00 274.1 0.0 0.00 46.3 7.9 87.1 n/a
2018 03 28 15:00 274.2 0.0 0.00 45.9 7.7 89.6 n/a
2018 03 28 16:00 273.0 0.0 0.00 48.1 8.9 85.8 n/a
2018 03 28 17:00 273.4 0.0 0.00 49.3 9.6 84.4 n/a
2018 03 28 18:00 Wet 309.2 0.0 0.00 49.3 9.6 86 n/a
2018 03 28 19:00 Wet 325.8 0.0 0.25 48.6 9.2 90.8 n/a
2018 03 28 20:00 Wet 292.5 0.0 0.00 47.9 8.9 92.5 n/a
2018 03 28 21:00 Wet 331.8 0.0 0.00 47.4 8.6 93 n/a
2018 03 28 22:00 Wet 341.5 0.0 0.00 46.5 8.1 95.3 n/a
2018 03 28 23:00 Wet 306.2 0.0 0.00 46.4 8.0 96 n/a
2018 03 28 24:00 Wet 286.7 0.0 0.00 46.4 8.0 96 n/a
2018 03 29 1:00 Wet 286.3 0.0 0.00 46.2 7.9 95.5 n/a
2018 03 29 2:00 Wet 284.5 0.0 0.00 45.8 7.7 96.2 n/a
2018 03 29 3:00 282.8 0.0 0.00 46.0 7.8 94 n/a
2018 03 29 4:00 279.6 0.0 0.00 45.5 7.5 94 n/a
2018 03 29 5:00 277.1 0.0 0.00 45.2 7.3 92.9 n/a
2018 03 29 6:00 275.6 0.0 0.00 44.9 7.1 90.6 n/a
2018 03 29 7:00 275.2 0.0 0.00 44.6 7.0 89.2 n/a
2018 03 29 8:00 274.9 0.0 0.00 44.5 6.9 86.9 n/a
2018 03 29 9:00 274.3 0.0 0.00 45.2 7.3 82 n/a
2018 03 29 10:00 274.0 0.0 0.00 45.0 7.2 80.8 n/a
2018 03 29 11:00 273.7 0.0 0.00 45.3 7.4 77.53 n/a
2018 03 29 12:00 272.7 0.0 0.00 47.1 8.4 70.83 n/a
2018 03 29 13:00 272.1 0.0 0.00 48.8 9.3 64.94 n/a
2018 03 29 14:00 272.1 0.0 0.00 48.7 9.3 66.23 n/a
2018 03 29 15:00 272.4 0.0 0.00 47.4 8.6 69.07 n/a
2018 03 29 16:00 272.5 0.0 0.00 46.9 8.3 71.76 n/a
2018 03 29 17:00 275.1 0.0 0.00 44.9 7.1 75.95 n/a
2018 03 29 18:00 Wet 365.8 0.0 0.00 42.8 6.0 82.1 n/a
2018 03 29 19:00 Wet 419.5 0.0 0.25 41.3 5.2 88.5 n/a
2018 03 29 20:00 283.0 0.0 0.00 40.5 4.7 86.8 n/a
2018 03 29 21:00 277.9 0.0 0.00 40.1 4.5 87.4 n/a
2018 03 29 22:00 277.6 0.0 0.00 40.1 4.5 86.9 n/a
2018 03 29 23:00 Wet 289.4 0.0 0.00 38.1 3.4 86.9 n/a
2018 03 29 24:00 Wet 305.5 0.0 0.00 36.6 2.6 88.3 n/a
2018 03 30 1:00 Wet 330.6 0.0 0.00 35.1 1.7 89.2 n/a
2018 03 30 2:00 Wet 349.1 0.0 0.00 34.0 1.1 89.2 n/a
2018 03 30 3:00 Wet 347.0 0.0 0.00 33.5 0.8 85 n/a
2018 03 30 4:00 Wet 328.9 0.0 0.00 32.7 0.4 81.6 n/a
2018 03 30 5:00 Wet 310.7 0.0 0.00 32.1 0.0 80.6 n/a
2018 03 30 6:00 Wet 307.0 0.0 0.00 30.5 -0.9 82.5 n/a
2018 03 30 7:00 Wet 307.3 0.0 0.00 29.5 -1.4 84.5 n/a
2018 03 30 8:00 279.8 0.0 0.00 32.8 0.4 78.51 n/a
2018 03 30 9:00 272.8 0.0 0.00 36.8 2.6 71.72 n/a
2018 03 30 10:00 272.1 0.0 0.00 40.5 4.7 61.36 n/a
2018 03 30 11:00 271.0 0.0 0.00 44.4 6.9 47.61 n/a
2018 03 30 12:00 270.4 0.0 0.00 48.1 8.9 45.57 n/a
2018 03 30 13:00 270.0 0.0 0.00 51.0 10.6 41.76 n/a
2018 03 30 14:00 269.6 0.0 0.00 52.8 11.6 39.18 n/a
2018 03 30 15:00 269.3 0.0 0.00 54.1 12.3 36.68 n/a
2018 03 30 16:00 269.1 0.0 0.00 55.3 12.9 35.98 n/a
2018 03 30 17:00 269.1 0.0 0.00 56.2 13.4 34.08 n/a
2018 03 30 18:00 269.0 0.0 0.00 55.4 13.0 36.21 n/a
2018 03 30 19:00 270.0 0.0 0.00 52.7 11.5 40.47 n/a
2018 03 30 20:00 270.5 0.0 0.00 50.2 10.1 45.31 n/a
2018 03 30 21:00 271.0 0.0 0.00 48.6 9.2 49.95 n/a
2018 03 30 22:00 271.2 0.0 0.00 47.2 8.4 54.14 n/a
2018 03 30 23:00 271.4 0.0 0.00 46.9 8.3 53.68 n/a
2018 03 30 24:00 271.1 0.0 0.00 47.8 8.8 50.13 n/a
2018 03 31 1:00 271.1 0.0 0.00 48.0 8.9 51.05 n/a
2018 03 31 2:00 271.1 0.0 0.00 47.6 8.7 53.29 n/a
2018 03 31 3:00 271.1 0.0 0.00 47.0 8.3 55.87 n/a
2018 03 31 4:00 271.1 0.0 0.00 47.4 8.6 58.46 n/a
2018 03 31 5:00 271.1 0.0 0.00 50.0 10.0 54.1 n/a
2018 03 31 6:00 278.2 0.0 0.00 50.2 10.1 55.6 n/a
2018 03 31 7:00 Wet 321.9 0.0 0.00 49.1 9.5 65.94 n/a
2018 03 31 8:00 275.3 0.0 0.25 49.9 9.9 70.66 n/a
2018 03 31 9:00 271.7 0.0 0.00 52.3 11.3 65.98 n/a
2018 03 31 10:00 270.4 0.0 0.00 56.4 13.6 58.19 n/a
2018 03 31 11:00 269.1 0.0 0.00 59.8 15.4 52.31 n/a
2018 03 31 12:00 268.5 0.0 0.00 62.8 17.1 48.32 n/a
2018 03 31 13:00 268.7 0.0 0.00 61.6 16.5 48.5 n/a
2018 03 31 14:00 268.6 0.0 0.00 63.1 17.3 46.14 n/a
2018 03 31 15:00 269.2 0.0 0.00 62.4 16.9 46.86 n/a
2018 03 31 16:00 269.6 0.0 0.00 60.2 15.6 46.82 n/a
2018 03 31 17:00 269.7 0.0 0.00 56.6 13.7 47.92 n/a
2018 03 31 18:00 270.2 0.0 0.00 51.8 11.0 49.08 n/a
2018 03 31 19:00 270.5 0.0 0.00 46.5 8.1 51.7 n/a
2018 03 31 20:00 271.1 0.0 0.00 43.3 6.3 55.17 n/a
2018 03 31 21:00 271.1 0.0 0.00 41.7 5.4 57.07 n/a
2018 03 31 22:00 271.2 0.0 0.00 39.3 4.1 58.78 n/a
2018 03 31 23:00 271.3 0.0 0.00 37.8 3.2 58.36 n/a
2018 03 31 24:00 271.7 0.0 0.00 36.3 2.4 57.64 n/a
2018 04 01 1:00 271.9 0.0 0.00 34.4 1.3 58.12 n/a
2018 04 01 2:00 271.9 0.0 0.00 33.3 0.7 60.73 n/a
2018 04 01 3:00 271.9 0.0 0.00 32.3 0.2 62.7 n/a
2018 04 01 4:00 272.2 0.0 0.00 30.9 -0.6 64.62 n/a
2018 04 01 5:00 272.0 0.0 0.00 29.7 -1.3 55.28 n/a
2018 04 01 6:00 272.0 0.0 0.00 28.4 -2.0 53.27 n/a
2018 04 01 7:00 272.0 0.0 0.00 28.4 -2.0 56.05 n/a
2018 04 01 8:00 271.7 0.0 0.00 28.8 -1.8 55.45 n/a
2018 04 01 9:00 271.3 0.0 0.00 29.3 -1.5 48.56 n/a
2018 04 01 10:00 271.2 0.0 0.00 29.5 -1.4 44.33 n/a
2018 04 01 11:00 270.7 0.0 0.00 29.4 -1.4 40.79 n/a
2018 04 01 12:00 Wet 294.0 0.0 0.00 28.7 -1.8 45.77 n/a
2018 04 01 13:00 Wet 329.0 0.0 0.00 27.4 -2.5 61.27 n/a
2018 04 01 14:00 Wet 331.4 0.0 0.00 26.8 -2.9 67.62 n/a
2018 04 01 15:00 Wet 331.3 0.0 0.00 27.2 -2.7 64.82 n/a
2018 04 01 16:00 Wet 331.7 0.0 0.00 27.8 -2.4 69.27 n/a
2018 04 01 17:00 Wet 331.7 0.0 0.00 27.0 -2.8 80.6 n/a
2018 04 01 18:00 Wet 331.8 0.0 0.00 26.3 -3.2 83.3 n/a
2018 04 01 19:00 Wet 331.8 0.0 0.00 26.0 -3.3 82.3 n/a
2018 04 01 20:00 Wet 331.8 0.0 0.00 25.8 -3.5 82.4 n/a
2018 04 01 21:00 Wet 331.8 0.0 0.00 25.6 -3.6 83.4 n/a
2018 04 01 22:00 Wet 331.4 0.0 0.00 25.2 -3.8 84.1 n/a
2018 04 01 23:00 Wet 331.3 0.0 0.00 25.0 -3.9 85.5 n/a
2018 04 01 24:00 Wet 331.3 0.0 0.00 24.9 -3.9 86.4 n/a
2018 04 02 1:00 Wet 331.5 0.0 0.00 25.1 -3.8 86.9 n/a
2018 04 02 2:00 Wet 331.7 0.0 0.00 25.3 -3.7 87.2 n/a
2018 04 02 3:00 Wet 331.8 0.0 0.00 25.4 -3.7 88 n/a
2018 04 02 4:00 Wet 331.8 0.0 0.00 25.6 -3.6 88.7 n/a
2018 04 02 5:00 Wet 331.8 0.0 0.00 25.9 -3.4 89.1 n/a
2018 04 02 6:00 Wet 331.8 0.0 0.00 26.2 -3.2 89.8 n/a
2018 04 02 7:00 Wet 331.9 0.0 0.00 26.3 -3.1 90.9 n/a
2018 04 02 8:00 Wet 331.9 0.0 0.00 26.9 -2.9 91.3 n/a
2018 04 02 9:00 Wet 331.7 0.0 0.00 27.5 -2.5 91.7 n/a
2018 04 02 10:00 Wet 330.7 0.0 0.00 28.6 -1.9 90.1 n/a
2018 04 02 11:00 Wet 469.8 0.0 0.76 29.9 -1.2 90.2 n/a
2018 04 02 12:00 Wet 606.8 0.0 0.51 31.2 -0.4 91.9 n/a
2018 04 02 13:00 Wet 372.4 0.0 0.00 32.9 0.5 91.4 n/a
2018 04 02 14:00 274.5 0.0 0.00 35.0 1.7 91.1 n/a
2018 04 02 15:00 277.3 0.0 0.00 36.4 2.4 92.7 n/a
2018 04 02 16:00 277.6 0.0 0.00 37.4 3.0 94.6 n/a
2018 04 02 17:00 Wet 305.6 0.0 0.00 38.2 3.4 95.6 n/a
2018 04 02 18:00 Wet 356.2 0.0 0.00 39.0 3.9 96.3 n/a
2018 04 02 19:00 Wet 391.0 0.0 0.00 39.4 4.1 96.8 n/a
2018 04 02 20:00 Wet 416.9 0.0 0.25 39.8 4.3 97 n/a
2018 04 02 21:00 Wet 364.9 0.0 0.00 40.3 4.6 97.2 n/a
2018 04 02 22:00 Wet 425.1 0.0 0.25 41.0 5.0 97.3 n/a
2018 04 02 23:00 Wet 448.3 0.0 0.25 41.0 5.0 97.3 n/a
2018 04 02 24:00 Wet 448.1 0.0 0.00 40.8 4.9 97.4 n/a
2018 04 03 1:00 Wet 470.5 0.0 0.00 40.7 4.8 97.5 n/a
2018 04 03 2:00 Wet 466.5 0.0 0.25 40.8 4.9 97.6 n/a
2018 04 03 3:00 Wet 466.3 0.0 0.25 41.1 5.1 97.7 n/a
2018 04 03 4:00 Wet 384.3 0.0 0.00 42.3 5.7 97.9 n/a
2018 04 03 5:00 Wet 332.5 0.0 0.00 44.1 6.7 98 n/a
2018 04 03 6:00 Wet 380.8 0.0 0.00 45.1 7.3 98 n/a
2018 04 03 7:00 Wet 461.0 0.0 1.02 43.3 6.3 97.5 n/a
2018 04 03 8:00 Wet 377.3 0.0 0.25 41.7 5.4 97.3 n/a
2018 04 03 9:00 Wet 391.4 0.0 0.00 38.7 3.7 94.8 n/a
2018 04 03 10:00 Wet 416.6 0.0 0.25 37.9 3.3 92.5 n/a
2018 04 03 11:00 Wet 295.7 0.0 0.00 38.1 3.4 88.3 n/a
2018 04 03 12:00 274.6 0.0 0.00 38.7 3.7 83.7 n/a
2018 04 03 13:00 274.2 0.0 0.00 39.3 4.1 80 n/a
2018 04 03 14:00 273.8 0.0 0.00 39.4 4.1 75.48 n/a
2018 04 03 15:00 273.3 0.0 0.00 40.3 4.6 68.89 n/a
2018 04 03 16:00 273.1 0.0 0.00 40.7 4.8 66.34 n/a
2018 04 03 17:00 273.1 0.0 0.00 41.1 5.0 61.53 n/a
2018 04 03 18:00 273.0 0.0 0.00 39.4 4.1 62 n/a
2018 04 03 19:00 272.8 0.0 0.00 36.4 2.5 61.9 n/a
2018 04 03 20:00 271.8 0.0 0.00 34.1 1.2 65.55 n/a
2018 04 03 21:00 271.4 0.0 0.00 32.7 0.4 67.33 n/a
2018 04 03 22:00 271.3 0.0 0.00 31.6 -0.2 66.89 n/a
2018 04 03 23:00 271.4 0.0 0.00 30.3 -0.9 67.45 n/a
2018 04 03 24:00 271.7 0.0 0.00 29.3 -1.5 66.51 n/a
2018 04 04 1:00 271.4 0.0 0.00 27.4 -2.5 69.26 n/a
2018 04 04 2:00 271.4 0.0 0.00 25.9 -3.4 62.03 n/a
2018 04 04 3:00 271.4 0.0 0.00 24.5 -4.2 65.72 n/a
2018 04 04 4:00 271.5 0.0 0.00 23.2 -4.9 65.4 n/a
2018 04 04 5:00 271.6 0.0 0.00 21.7 -5.7 68.25 n/a
2018 04 04 6:00 271.5 0.0 0.00 20.3 -6.5 69.44 n/a
2018 04 04 7:00 271.5 0.0 0.00 20.3 -6.5 69.44 n/a
2018 04 04 8:00 271.5 0.0 0.00 21.7 -5.7 64.51 n/a
2018 04 04 9:00 270.3 0.0 0.00 23.7 -4.6 57.48 n/a
2018 04 04 10:00 269.4 0.0 0.00 26.9 -2.8 52.73 n/a
2018 04 04 11:00 269.1 0.0 0.00 30.1 -1.1 47.51 n/a
2018 04 04 12:00 269.1 0.0 0.00 32.8 0.4 43.42 n/a
2018 04 04 13:00 269.0 0.0 0.00 35.4 1.9 40.51 n/a
2018 04 04 14:00 269.0 0.0 0.00 38.1 3.4 36.7 n/a
2018 04 04 15:00 269.4 0.0 0.00 40.8 4.9 36.87 n/a
2018 04 04 16:00 269.7 0.0 0.00 42.0 5.5 37.52 n/a
2018 04 04 17:00 269.3 0.0 0.00 42.1 5.6 34.84 n/a
2018 04 04 18:00 269.2 0.0 0.00 41.9 5.5 34.67 n/a
2018 04 04 19:00 270.3 0.0 0.00 40.0 4.4 38.82 n/a
2018 04 04 20:00 271.0 0.0 0.00 38.4 3.5 45.48 n/a
2018 04 04 21:00 271.4 0.0 0.00 37.0 2.8 51.3 n/a
2018 04 04 22:00 271.8 0.0 0.00 36.0 2.2 54.1 n/a
2018 04 04 23:00 271.9 0.0 0.00 35.0 1.6 55.72 n/a
2018 04 04 24:00 271.9 0.0 0.00 34.9 1.6 54.69 n/a
2018 04 05 1:00 271.9 0.0 0.00 33.7 1.0 59.03 n/a
2018 04 05 2:00 271.9 0.0 0.00 34.2 1.2 57.57 n/a
2018 04 05 3:00 271.9 0.0 0.00 35.4 1.9 54.85 n/a
2018 04 05 4:00 271.9 0.0 0.00 35.4 1.9 55.01 n/a
2018 04 05 5:00 271.9 0.0 0.00 35.5 1.9 55.43 n/a
2018 04 05 6:00 271.9 0.0 0.00 36.9 2.7 53.34 n/a
2018 04 05 7:00 271.3 0.0 0.00 38.0 3.3 53 n/a
2018 04 05 8:00 270.5 0.0 0.00 40.5 4.7 52.55 n/a
2018 04 05 9:00 269.3 0.0 0.00 45.9 7.7 46.74 n/a
2018 04 05 10:00 268.5 0.0 0.00 51.3 10.7 40.16 n/a
2018 04 05 11:00 268.3 0.0 0.00 54.2 12.3 38 n/a
2018 04 05 12:00 268.0 0.0 0.00 57.2 14.0 36.64 n/a
2018 04 05 13:00 267.6 0.0 0.00 60.9 16.1 33.91 n/a
2018 04 05 14:00 267.6 0.0 0.00 62.8 17.1 33.22 n/a
2018 04 05 15:00 267.7 0.0 0.00 64.2 17.9 33.85 n/a
2018 04 05 16:00 268.1 0.0 0.00 64.7 18.1 34.37 n/a
2018 04 05 17:00 267.6 0.0 0.00 64.5 18.0 35.54 n/a
2018 04 05 18:00 267.9 0.0 0.00 62.9 17.2 38.19 n/a
2018 04 05 19:00 269.2 0.0 0.00 59.1 15.1 45.31 n/a
2018 04 05 20:00 270.3 0.0 0.00 55.9 13.3 50.91 n/a
2018 04 05 21:00 270.4 0.0 0.00 54.4 12.4 53.29 n/a
2018 04 05 22:00 270.4 0.0 0.00 53.4 11.9 52.7 n/a
2018 04 05 23:00 270.8 0.0 0.00 52.0 11.1 54.81 n/a
2018 04 05 24:00 271.1 0.0 0.00 50.4 10.2 58.73 n/a
2018 04 06 1:00 271.4 0.0 0.00 48.6 9.2 62.91 n/a
2018 04 06 2:00 271.9 0.0 0.00 47.2 8.5 65.11 n/a
2018 04 06 3:00 273.3 0.0 0.00 44.7 7.1 70.93 n/a
2018 04 06 4:00 271.9 0.0 0.00 44.7 7.0 57.88 n/a
2018 04 06 5:00 271.4 0.0 0.00 42.7 5.9 54.82 n/a
2018 04 06 6:00 271.7 0.0 0.00 41.2 5.1 56.76 n/a
2018 04 06 7:00 271.5 0.0 0.00 40.9 4.9 56.57 n/a
2018 04 06 8:00 270.7 0.0 0.00 43.0 6.1 51.63 n/a
2018 04 06 9:00 270.4 0.0 0.00 44.8 7.1 50.72 n/a
2018 04 06 10:00 270.4 0.0 0.00 44.7 7.1 50.79 n/a
2018 04 06 11:00 269.9 0.0 0.00 43.0 6.1 41.46 n/a
2018 04 06 12:00 269.6 0.0 0.00 42.1 5.6 36.45 n/a
2018 04 06 13:00 269.4 0.0 0.00 43.0 6.1 38.01 n/a
2018 04 06 14:00 269.7 0.0 0.00 43.5 6.4 40.97 n/a
2018 04 06 15:00 269.8 0.0 0.00 42.4 5.8 45.04 n/a
2018 04 06 16:00 270.4 0.0 0.00 39.3 4.1 47.81 n/a
2018 04 06 17:00 270.5 0.0 0.00 36.7 2.6 47.89 n/a
2018 04 06 18:00 270.5 0.0 0.00 34.4 1.3 44.6 n/a
2018 04 06 19:00 270.6 0.0 0.00 30.6 -0.8 44.27 n/a
2018 04 06 20:00 270.6 0.0 0.00 28.1 -2.2 43.64 n/a
2018 04 06 21:00 270.6 0.0 0.00 27.1 -2.7 45.7 n/a
2018 04 06 22:00 271.3 0.0 0.00 25.3 -3.7 56.44 n/a
2018 04 06 23:00 271.8 0.0 0.00 23.9 -4.5 63.93 n/a
2018 04 06 24:00 271.4 0.0 0.00 24.2 -4.3 54.31 n/a
2018 04 07 1:00 271.4 0.0 0.00 24.5 -4.2 47.1 n/a
2018 04 07 2:00 271.4 0.0 0.00 24.4 -4.2 46.07 n/a
2018 04 07 3:00 271.6 0.0 0.00 23.6 -4.7 57.36 n/a
2018 04 07 4:00 271.4 0.0 0.00 23.8 -4.6 52.53 n/a
2018 04 07 5:00 271.4 0.0 0.00 23.1 -4.9 49.41 n/a
2018 04 07 6:00 271.4 0.0 0.00 22.0 -5.5 51.87 n/a
2018 04 07 7:00 271.5 0.0 0.00 21.5 -5.8 53.92 n/a
2018 04 07 8:00 270.8 0.0 0.00 22.8 -5.1 48.49 n/a
2018 04 07 9:00 270.7 0.0 0.00 24.3 -4.3 46.3 n/a
2018 04 07 10:00 270.0 0.0 0.00 27.1 -2.7 41.39 n/a
2018 04 07 11:00 269.9 0.0 0.00 29.7 -1.3 37.94 n/a
2018 04 07 12:00 269.8 0.0 0.00 32.6 0.3 37.27 n/a
2018 04 07 13:00 269.8 0.0 0.00 35.7 2.1 35.92 n/a
2018 04 07 14:00 269.7 0.0 0.00 37.6 3.1 34.66 n/a
2018 04 07 15:00 269.3 0.0 0.00 39.5 4.1 32.55 n/a
2018 04 07 16:00 269.1 0.0 0.00 40.8 4.9 30.45 n/a
2018 04 07 17:00 269.0 0.0 0.00 41.0 5.0 28.52 n/a
2018 04 07 18:00 268.9 0.0 0.00 40.4 4.7 28.97 n/a
2018 04 07 19:00 269.6 0.0 0.00 38.6 3.6 32.66 n/a
2018 04 07 20:00 270.5 0.0 0.00 35.6 2.0 38.49 n/a
2018 04 07 21:00 271.1 0.0 0.00 33.3 0.7 43.04 n/a
2018 04 07 22:00 271.3 0.0 0.00 31.9 -0.1 46.44 n/a
2018 04 07 23:00 271.7 0.0 0.00 30.2 -1.0 51.5 n/a
2018 04 07 24:00 271.6 0.0 0.00 30.1 -1.1 51.48 n/a
2018 04 08 1:00 271.9 0.0 0.00 30.0 -1.1 53.4 n/a
2018 04 08 2:00 272.0 0.0 0.00 29.8 -1.2 55.52 n/a
2018 04 08 3:00 272.0 0.0 0.00 29.7 -1.3 56.85 n/a
2018 04 08 4:00 272.0 0.0 0.00 29.8 -1.2 58.73 n/a
2018 04 08 5:00 271.9 0.0 0.00 30.9 -0.6 55.29 n/a
2018 04 08 6:00 271.3 0.0 0.00 32.0 0.0 51.07 n/a
2018 04 08 7:00 271.3 0.0 0.00 32.1 0.1 51.76 n/a
2018 04 08 8:00 271.2 0.0 0.00 33.3 0.7 49.73 n/a
2018 04 08 9:00 270.8 0.0 0.00 34.0 1.1 49.35 n/a
2018 04 08 10:00 275.2 0.0 0.00 30.8 -0.6 84.3 n/a
2018 04 08 11:00 Wet 314.2 0.0 0.00 30.6 -0.8 95.2 n/a
2018 04 08 12:00 Wet 295.5 0.0 1.02 32.3 0.2 93 n/a
2018 04 08 13:00 273.3 0.0 0.00 33.9 1.1 88.7 n/a
2018 04 08 14:00 273.2 0.0 0.00 34.5 1.4 85.7 n/a
2018 04 08 15:00 273.2 0.0 0.00 34.4 1.3 83.1 n/a
2018 04 08 16:00 273.1 0.0 0.00 34.3 1.3 76.69 n/a
2018 04 08 17:00 274.7 0.0 0.00 33.5 0.9 79.86 n/a
2018 04 08 18:00 Wet 378.2 0.0 0.51 32.5 0.3 83.9 n/a
2018 04 08 19:00 Wet 308.0 0.0 0.00 32.2 0.1 86.3 n/a
2018 04 08 20:00 Wet 289.1 0.0 0.00 32.4 0.2 84.5 n/a
2018 04 08 21:00 281.4 0.0 0.00 32.9 0.5 81.2 n/a
2018 04 08 22:00 276.8 0.0 0.00 32.2 0.1 81.7 n/a
2018 04 08 23:00 277.2 0.0 0.00 31.1 -0.5 84.6 n/a
2018 04 08 24:00 277.1 0.0 0.00 30.5 -0.8 85.8 n/a
2018 04 09 1:00 277.2 0.0 0.00 30.6 -0.8 84.5 n/a
2018 04 09 2:00 277.9 0.0 0.00 30.0 -1.1 85.5 n/a
2018 04 09 3:00 278.5 0.0 0.00 29.8 -1.2 86.5 n/a
2018 04 09 4:00 277.1 0.0 0.00 30.3 -0.9 86.9 n/a
2018 04 09 5:00 275.0 0.0 0.00 31.1 -0.5 85.4 n/a
2018 04 09 6:00 274.7 0.0 0.00 32.3 0.2 83.7 n/a
2018 04 09 7:00 274.4 0.0 0.00 32.9 0.5 85 n/a
2018 04 09 8:00 273.8 0.0 0.00 34.5 1.4 85 n/a
2018 04 09 9:00 273.3 0.0 0.00 36.3 2.4 83.8 n/a
2018 04 09 10:00 272.7 0.0 0.00 39.3 4.1 75.97 n/a
2018 04 09 11:00 272.2 0.0 0.00 40.9 4.9 72.48 n/a
2018 04 09 12:00 271.8 0.0 0.00 42.8 6.0 69.59 n/a
2018 04 09 13:00 271.8 0.0 0.00 41.9 5.5 70.83 n/a
2018 04 09 14:00 271.8 0.0 0.00 41.4 5.2 70.22 n/a
2018 04 09 15:00 271.8 0.0 0.00 42.0 5.5 68.08 n/a
2018 04 09 16:00 271.7 0.0 0.00 42.7 5.9 66.42 n/a
2018 04 09 17:00 271.7 0.0 0.00 42.9 6.1 65.51 n/a
2018 04 09 18:00 272.1 0.0 0.00 41.6 5.3 68.72 n/a
2018 04 09 19:00 272.5 0.0 0.00 40.6 4.8 70.76 n/a
2018 04 09 20:00 272.5 0.0 0.00 39.9 4.4 72.16 n/a
2018 04 09 21:00 272.6 0.0 0.00 39.3 4.1 73.53 n/a
2018 04 09 22:00 273.1 0.0 0.00 38.7 3.7 74.41 n/a
2018 04 09 23:00 273.4 0.0 0.00 37.9 3.3 76.37 n/a
2018 04 09 24:00 277.8 0.0 0.00 35.4 1.9 82.4 n/a
2018 04 10 1:00 Wet 287.1 0.0 0.00 33.6 0.9 87.8 n/a
2018 04 10 2:00 275.5 0.0 0.00 34.3 1.3 88.1 n/a
2018 04 10 3:00 275.3 0.0 0.00 35.0 1.7 87.7 n/a
2018 04 10 4:00 274.7 0.0 0.00 35.3 1.8 85.1 n/a
2018 04 10 5:00 275.2 0.0 0.00 35.1 1.7 84.4 n/a
2018 04 10 6:00 Wet 299.8 0.0 0.00 33.2 0.6 88.3 n/a
2018 04 10 7:00 Wet 330.3 0.0 0.00 32.3 0.2 91.4 n/a
2018 04 10 8:00 281.4 0.0 0.00 36.6 2.6 77.03 n/a
2018 04 10 9:00 270.8 0.0 0.00 39.4 4.1 57.25 n/a
2018 04 10 10:00 269.6 0.0 0.00 41.0 5.0 55.5 n/a
2018 04 10 11:00 269.2 0.0 0.00 43.8 6.6 52.68 n/a
2018 04 10 12:00 269.1 0.0 0.00 46.6 8.1 51.55 n/a
2018 04 10 13:00 269.2 0.0 0.00 49.6 9.8 48.9 n/a
2018 04 10 14:00 269.2 0.0 0.00 52.9 11.6 47.17 n/a
2018 04 10 15:00 269.6 0.0 0.00 55.4 13.0 44.98 n/a
2018 04 10 16:00 269.6 0.0 0.00 56.8 13.8 43.34 n/a
2018 04 10 17:00 269.0 0.0 0.00 58.1 14.5 41.23 n/a
2018 04 10 18:00 269.2 0.0 0.00 57.6 14.2 41.32 n/a
2018 04 10 19:00 269.7 0.0 0.00 56.2 13.4 44.69 n/a
2018 04 10 20:00 270.3 0.0 0.00 54.7 12.6 48.8 n/a
2018 04 10 21:00 270.4 0.0 0.00 54.3 12.4 49.34 n/a
2018 04 10 22:00 270.4 0.0 0.00 53.2 11.8 49.93 n/a
2018 04 10 23:00 270.9 0.0 0.00 51.1 10.6 54.12 n/a
2018 04 10 24:00 271.1 0.0 0.00 49.9 9.9 56.2 n/a
2018 04 11 1:00 271.3 0.0 0.00 48.7 9.3 58.71 n/a
2018 04 11 2:00 271.8 0.0 0.00 47.8 8.8 60.99 n/a
2018 04 11 3:00 271.8 0.0 0.00 46.9 8.3 62.82 n/a
2018 04 11 4:00 271.8 0.0 0.00 46.5 8.0 63.39 n/a
2018 04 11 5:00 271.8 0.0 0.00 45.9 7.7 63.86 n/a
2018 04 11 6:00 271.8 0.0 0.00 45.5 7.5 64.22 n/a
2018 04 11 7:00 271.6 0.0 0.00 46.2 7.9 63.27 n/a
2018 04 11 8:00 270.7 0.0 0.00 50.9 10.5 56.74 n/a
2018 04 11 9:00 269.9 0.0 0.00 55.9 13.3 47.46 n/a
2018 04 11 10:00 268.6 0.0 0.00 60.3 15.7 40.18 n/a
2018 04 11 11:00 268.1 0.0 0.00 63.1 17.3 38.54 n/a
2018 04 11 12:00 267.6 0.0 0.00 66.8 19.3 36.14 n/a
2018 04 11 13:00 267.1 0.0 0.00 70.0 21.1 34.12 n/a
2018 04 11 14:00 266.9 0.0 0.00 72.0 22.2 32.67 n/a
2018 04 11 15:00 267.0 0.0 0.00 73.3 22.9 31.93 n/a
2018 04 11 16:00 266.8 0.0 0.00 73.9 23.3 31.12 n/a
2018 04 11 17:00 266.8 0.0 0.00 73.5 23.1 31.01 n/a
2018 04 11 18:00 267.0 0.0 0.00 72.5 22.5 30.37 n/a
2018 04 11 19:00 267.5 0.0 0.00 70.8 21.6 32.37 n/a
2018 04 11 20:00 268.0 0.0 0.00 68.5 20.3 36.81 n/a
2018 04 11 21:00 268.3 0.0 0.00 67.1 19.5 38.45 n/a
2018 04 11 22:00 268.3 0.0 0.00 66.6 19.2 37.43 n/a
2018 04 11 23:00 268.3 0.0 0.00 64.8 18.2 39.05 n/a
2018 04 11 24:00 268.5 0.0 0.00 63.0 17.2 41.36 n/a
2018 04 12 1:00 268.8 0.0 0.00 62.7 17.0 42.11 n/a
2018 04 12 2:00 268.9 0.0 0.00 62.7 17.1 42.68 n/a
2018 04 12 3:00 269.0 0.0 0.00 62.2 16.8 43.69 n/a
2018 04 12 4:00 269.0 0.0 0.00 61.3 16.3 46.44 n/a
2018 04 12 5:00 269.4 0.0 0.00 60.0 15.6 50.83 n/a
2018 04 12 6:00 269.7 0.0 0.00 59.6 15.3 54.16 n/a
2018 04 12 7:00 269.4 0.0 0.00 59.5 15.3 57.27 n/a
2018 04 12 8:00 268.5 0.0 0.00 62.2 16.8 55.46 n/a
2018 04 12 9:00 268.2 0.0 0.00 65.8 18.8 52.94 n/a
2018 04 12 10:00 267.7 0.0 0.00 70.1 21.1 48.9 n/a
2018 04 12 11:00 267.4 0.0 0.00 72.8 22.6 46.13 n/a
2018 04 12 12:00 267.2 0.0 0.00 75.1 23.9 44.01 n/a
2018 04 12 13:00 267.3 0.0 0.00 76.6 24.8 42.43 n/a
2018 04 12 14:00 267.3 0.0 0.00 78.4 25.8 40.28 n/a
2018 04 12 15:00 267.4 0.0 0.00 79.5 26.4 40.32 n/a
2018 04 12 16:00 267.4 0.0 0.00 80.6 27.0 40.05 n/a
2018 04 12 17:00 267.2 0.0 0.00 79.7 26.5 40.95 n/a
2018 04 12 18:00 267.7 0.0 0.00 77.2 25.1 44.42 n/a
2018 04 12 19:00 268.3 0.0 0.00 75.0 23.9 48.21 n/a
2018 04 12 20:00 268.8 0.0 0.00 72.8 22.6 52.35 n/a
2018 04 12 21:00 269.3 0.0 0.00 70.8 21.6 56.22 n/a
2018 04 12 22:00 269.6 0.0 0.00 70.2 21.2 57.7 n/a
2018 04 12 23:00 269.2 0.0 0.00 71.2 21.8 54.19 n/a
2018 04 12 24:00 269.4 0.0 0.00 70.5 21.4 55.27 n/a
2018 04 13 1:00 269.6 0.0 0.00 69.7 21.0 57.38 n/a
2018 04 13 2:00 269.6 0.0 0.00 68.6 20.4 59.58 n/a
2018 04 13 3:00 269.8 0.0 0.00 68.6 20.3 61.46 n/a
2018 04 13 4:00 270.3 0.0 0.00 68.1 20.1 63.95 n/a
2018 04 13 5:00 270.3 0.0 0.00 67.3 19.6 66.78 n/a
2018 04 13 6:00 270.4 0.0 0.00 66.7 19.3 68.67 n/a
2018 04 13 7:00 270.4 0.0 0.00 66.3 19.1 69.72 n/a
2018 04 13 8:00 270.3 0.0 0.00 67.4 19.7 68.18 n/a
2018 04 13 9:00 279.9 0.0 0.00 67.2 19.6 71.64 n/a
2018 04 13 10:00 277.5 0.0 0.00 67.1 19.5 74.17 n/a
2018 04 13 11:00 270.4 0.0 0.00 70.1 21.1 69.9 n/a
2018 04 13 12:00 269.7 0.0 0.00 72.5 22.5 64.56 n/a
2018 04 13 13:00 269.7 0.0 0.00 73.3 22.9 63.01 n/a
2018 04 13 14:00 269.5 0.0 0.00 75.1 23.9 60.18 n/a
2018 04 13 15:00 269.5 0.0 0.00 75.3 24.1 59.28 n/a
2018 04 13 16:00 269.5 0.0 0.00 75.2 24.0 58.55 n/a
2018 04 13 17:00 269.9 0.0 0.00 74.2 23.4 61.1 n/a
2018 04 13 18:00 269.8 0.0 0.00 73.0 22.8 59.16 n/a
2018 04 13 19:00 269.6 0.0 0.00 71.8 22.1 54.16 n/a
2018 04 13 20:00 270.6 0.0 0.00 68.9 20.5 67.2 n/a
2018 04 13 21:00 271.8 0.0 0.00 66.6 19.2 78.16 n/a
2018 04 13 22:00 271.7 0.0 0.00 64.9 18.3 72.76 n/a
2018 04 13 23:00 271.0 0.0 0.00 61.1 16.2 65.64 n/a
2018 04 13 24:00 271.8 0.0 0.00 57.2 14.0 70.18 n/a
2018 04 14 1:00 271.8 0.0 0.00 54.7 12.6 71.19 n/a
2018 04 14 2:00 271.8 0.0 0.00 51.4 10.8 72.95 n/a
2018 04 14 3:00 271.9 0.0 0.00 46.8 8.2 74.29 n/a
2018 04 14 4:00 271.8 0.0 0.00 45.0 7.2 72.56 n/a
2018 04 14 5:00 271.9 0.0 0.00 42.9 6.0 72.29 n/a
2018 04 14 6:00 271.9 0.0 0.00 39.4 4.1 69.38 n/a
2018 04 14 7:00 271.5 0.0 0.00 37.6 3.1 67.27 n/a
2018 04 14 8:00 271.0 0.0 0.00 37.8 3.2 62.3 n/a
2018 04 14 9:00 270.6 0.0 0.00 38.1 3.4 60.25 n/a
2018 04 14 10:00 270.6 0.0 0.00 37.5 3.1 61.77 n/a
2018 04 14 11:00 270.6 0.0 0.00 38.0 3.3 60.97 n/a
2018 04 14 12:00 270.2 0.0 0.00 39.6 4.2 55.95 n/a
2018 04 14 13:00 270.0 0.0 0.00 40.2 4.6 54.12 n/a
2018 04 14 14:00 269.8 0.0 0.00 41.6 5.3 52.4 n/a
2018 04 14 15:00 270.2 0.0 0.00 41.4 5.2 55.42 n/a
2018 04 14 16:00 270.6 0.0 0.00 40.8 4.9 63.22 n/a
2018 04 14 17:00 271.9 0.0 0.00 38.8 3.8 77.8 n/a
2018 04 14 18:00 273.3 0.0 0.00 38.0 3.3 89.7 n/a
2018 04 14 19:00 Wet 303.9 0.0 0.25 37.8 3.2 89.1 n/a
2018 04 14 20:00 280.8 0.0 0.25 35.9 2.1 83 n/a
2018 04 14 21:00 273.7 0.0 0.00 33.8 1.0 82.4 n/a
2018 04 14 22:00 273.5 0.0 0.00 32.6 0.3 79.05 n/a
2018 04 14 23:00 273.0 0.0 0.00 32.0 0.0 77.65 n/a
2018 04 14 24:00 273.4 0.0 0.00 31.1 -0.5 81.2 n/a
2018 04 15 1:00 273.8 0.0 0.00 30.1 -1.0 84.9 n/a
2018 04 15 2:00 273.7 0.0 0.00 29.8 -1.2 82.4 n/a
2018 04 15 3:00 273.3 0.0 0.00 29.7 -1.3 79.71 n/a
2018 04 15 4:00 273.3 0.0 0.00 29.2 -1.6 78.55 n/a
2018 04 15 5:00 273.5 0.0 0.00 28.6 -1.9 81.3 n/a
2018 04 15 6:00 273.9 0.0 0.00 28.2 -2.1 81.5 n/a
2018 04 15 7:00 273.7 0.0 0.00 28.0 -2.2 78.16 n/a
2018 04 15 8:00 273.3 0.0 0.00 27.9 -2.3 74.6 n/a
2018 04 15 9:00 273.2 0.0 0.00 28.4 -2.0 70.77 n/a
2018 04 15 10:00 272.7 0.0 0.00 28.8 -1.8 66.49 n/a
2018 04 15 11:00 272.1 0.0 0.00 30.1 -1.0 61.65 n/a
2018 04 15 12:00 271.9 0.0 0.00 30.6 -0.8 58.74 n/a
2018 04 15 13:00 271.9 0.0 0.00 30.8 -0.6 56.76 n/a
2018 04 15 14:00 271.8 0.0 0.00 31.2 -0.5 56.52 n/a
2018 04 15 15:00 271.8 0.0 0.00 31.4 -0.3 56.59 n/a
2018 04 15 16:00 271.8 0.0 0.00 31.7 -0.2 55.25 n/a
2018 04 15 17:00 271.8 0.0 0.00 31.5 -0.3 55.95 n/a
2018 04 15 18:00 271.7 0.0 0.00 31.2 -0.5 56.86 n/a
2018 04 15 19:00 271.3 0.0 0.00 30.8 -0.7 58.01 n/a
2018 04 15 20:00 271.1 0.0 0.00 30.7 -0.7 59.69 n/a
2018 04 15 21:00 270.9 0.0 0.00 30.8 -0.6 59.47 n/a
2018 04 15 22:00 271.2 0.0 0.00 31.1 -0.5 58.57 n/a
2018 04 15 23:00 271.8 0.0 0.00 31.3 -0.4 54.82 n/a
2018 04 15 24:00 271.7 0.0 0.00 31.1 -0.5 55.37 n/a
2018 04 16 1:00 271.1 0.0 0.00 30.7 -0.7 58.46 n/a
2018 04 16 2:00 271.6 0.0 0.00 30.5 -0.9 58.89 n/a
2018 04 16 3:00 271.6 0.0 0.00 29.0 -1.7 57.42 n/a
2018 04 16 4:00 270.7 0.0 0.00 27.8 -2.3 62.46 n/a
2018 04 16 5:00 271.2 0.0 0.00 29.1 -1.6 61.31 n/a
2018 04 16 6:00 271.7 0.0 0.00 29.0 -1.7 60.14 n/a
2018 04 16 7:00 270.5 0.0 0.00 28.5 -1.9 60.25 n/a
2018 04 16 8:00 270.6 0.0 0.00 30.4 -0.9 58.79 n/a
2018 04 16 9:00 270.6 0.0 0.00 32.3 0.2 57.72 n/a
2018 04 16 10:00 269.9 0.0 0.00 34.7 1.5 53.75 n/a
2018 04 16 11:00 269.0 0.0 0.00 37.5 3.1 49.35 n/a
2018 04 16 12:00 268.7 0.0 0.00 40.7 4.8 45.9 n/a
2018 04 16 13:00 268.7 0.0 0.00 43.1 6.2 43.82 n/a
2018 04 16 14:00 268.5 0.0 0.00 45.3 7.4 41.99 n/a
2018 04 16 15:00 268.9 0.0 0.00 47.9 8.8 39.81 n/a
2018 04 16 16:00 268.7 0.0 0.00 49.9 10.0 36.97 n/a
2018 04 16 17:00 267.9 0.0 0.00 51.1 10.6 35.07 n/a
2018 04 16 18:00 267.6 0.0 0.00 52.1 11.2 32.7 n/a
2018 04 16 19:00 268.3 0.0 0.00 50.5 10.3 33.98 n/a
2018 04 16 20:00 269.7 0.0 0.00 46.7 8.2 40.55 n/a
2018 04 16 21:00 270.0 0.0 0.00 43.8 6.6 46.89 n/a
2018 04 16 22:00 270.5 0.0 0.00 41.8 5.4 50.28 n/a
2018 04 16 23:00 270.7 0.0 0.00 40.4 4.6 53.88 n/a
2018 04 16 24:00 271.1 0.0 0.00 39.3 4.1 55.63 n/a
2018 04 17 1:00 271.2 0.0 0.00 39.3 4.0 55.22 n/a
2018 04 17 2:00 270.7 0.0 0.00 38.8 3.8 56.46 n/a
2018 04 17 3:00 271.2 0.0 0.00 37.9 3.3 58.97 n/a
2018 04 17 4:00 271.2 0.0 0.00 37.2 2.9 62.3 n/a
2018 04 17 5:00 271.2 0.0 0.00 37.2 2.9 62.36 n/a
2018 04 17 6:00 271.3 0.0 0.00 37.0 2.8 63.59 n/a
2018 04 17 7:00 271.0 0.0 0.00 37.5 3.1 64.52 n/a
2018 04 17 8:00 269.8 0.0 0.00 41.6 5.3 56.91 n/a
2018 04 17 9:00 269.1 0.0 0.00 46.4 8.0 48.84 n/a
2018 04 17 10:00 268.8 0.0 0.00 50.9 10.5 42.73 n/a
2018 04 17 11:00 268.3 0.0 0.00 54.5 12.5 40.92 n/a
2018 04 17 12:00 268.1 0.0 0.00 58.9 14.9 38.67 n/a
2018 04 17 13:00 267.7 0.0 0.00 63.1 17.3 37.42 n/a
2018 04 17 14:00 267.6 0.0 0.00 67.4 19.7 38.37 n/a
2018 04 17 15:00 267.6 0.0 0.00 69.5 20.8 39.93 n/a
2018 04 17 16:00 267.8 0.0 0.00 70.9 21.6 39.18 n/a
2018 04 17 17:00 268.2 0.0 0.00 71.8 22.1 40.36 n/a
2018 04 17 18:00 267.7 0.0 0.00 71.2 21.8 38.57 n/a
2018 04 17 19:00 268.5 0.0 0.00 68.1 20.1 40.55 n/a
2018 04 17 20:00 268.9 0.0 0.00 64.6 18.1 43.09 n/a
2018 04 17 21:00 269.4 0.0 0.00 62.1 16.7 44.28 n/a
2018 04 17 22:00 269.7 0.0 0.00 59.5 15.3 48.2 n/a
2018 04 17 23:00 269.7 0.0 0.00 57.5 14.2 52.47 n/a
2018 04 17 24:00 270.4 0.0 0.00 56.8 13.8 58.25 n/a
2018 04 18 1:00 271.2 0.0 0.00 57.5 14.2 65.02 n/a
2018 04 18 2:00 271.5 0.0 0.00 58.9 14.9 67.18 n/a
2018 04 18 3:00 270.6 0.0 0.00 65.0 18.3 61.64 n/a
2018 04 18 4:00 269.9 0.0 0.00 64.6 18.1 52.75 n/a
2018 04 18 5:00 270.1 0.0 0.00 57.7 14.3 55.02 n/a
2018 04 18 6:00 270.3 0.0 0.00 51.4 10.8 55.1 n/a
2018 04 18 7:00 269.5 0.0 0.00 47.3 8.5 56.47 n/a
2018 04 18 8:00 268.9 0.0 0.00 47.4 8.6 56.23 n/a
2018 04 18 9:00 269.2 0.0 0.00 47.7 8.7 55.41 n/a
2018 04 18 10:00 269.1 0.0 0.00 48.1 8.9 55.39 n/a
2018 04 18 11:00 270.0 0.0 0.00 46.6 8.1 57.11 n/a
2018 04 18 12:00 269.7 0.0 0.00 45.6 7.6 57.06 n/a
2018 04 18 13:00 270.0 0.0 0.00 46.9 8.3 53.91 n/a
2018 04 18 14:00 269.4 0.0 0.00 47.6 8.6 50.79 n/a
2018 04 18 15:00 269.2 0.0 0.00 49.5 9.7 44.83 n/a
2018 04 18 16:00 269.6 0.0 0.00 48.8 9.3 43.67 n/a
2018 04 18 17:00 269.8 0.0 0.00 46.2 7.9 44.43 n/a
2018 04 18 18:00 269.0 0.0 0.00 45.2 7.3 44.74 n/a
2018 04 18 19:00 267.6 0.0 0.00 44.7 7.1 45.83 n/a
2018 04 18 20:00 267.9 0.0 0.00 44.7 7.0 47.22 n/a
2018 04 18 21:00 268.8 0.0 0.00 43.9 6.6 49.27 n/a
2018 04 18 22:00 268.0 0.0 0.00 40.9 5.0 48.42 n/a
2018 04 18 23:00 267.7 0.0 0.00 37.3 2.9 54.77 n/a
2018 04 18 24:00 268.2 0.0 0.00 34.8 1.6 60.14 n/a
2018 04 19 1:00 268.5 0.0 0.00 33.8 1.0 62.72 n/a
2018 04 19 2:00 268.7 0.0 0.00 32.9 0.5 68.79 n/a
2018 04 19 3:00 268.5 0.0 0.00 34.5 1.4 71.27 n/a
2018 04 19 4:00 268.5 0.0 0.00 35.3 1.8 70.56 n/a
2018 04 19 5:00 269.0 0.0 0.00 35.4 1.9 70.52 n/a
2018 04 19 6:00 269.2 0.0 0.00 34.2 1.2 73.13 n/a
2018 04 19 7:00 268.4 0.0 0.00 35.0 1.7 69.87 n/a
2018 04 19 8:00 267.8 0.0 0.00 36.4 2.4 66.97 n/a
2018 04 19 9:00 267.2 0.0 0.00 39.3 4.1 59.03 n/a
2018 04 19 10:00 267.2 0.0 0.00 42.0 5.6 52.81 n/a
2018 04 19 11:00 267.2 0.0 0.00 45.1 7.3 47.1 n/a
2018 04 19 12:00 268.3 0.0 0.00 48.1 8.9 44.13 n/a
2018 04 19 13:00 268.4 0.0 0.00 49.7 9.8 42.84 n/a
2018 04 19 14:00 268.4 0.0 0.00 52.3 11.3 40.68 n/a
2018 04 19 15:00 268.8 0.0 0.00 53.6 12.0 38.58 n/a
2018 04 19 16:00 268.9 0.0 0.00 54.8 12.7 36.92 n/a
2018 04 19 17:00 268.4 0.0 0.00 55.4 13.0 35.53 n/a
2018 04 19 18:00 268.3 0.0 0.00 54.7 12.6 36.23 n/a
2018 04 19 19:00 268.9 0.0 0.00 52.7 11.5 39.15 n/a
2018 04 19 20:00 270.2 0.0 0.00 48.6 9.2 46.03 n/a
2018 04 19 21:00 270.9 0.0 0.00 45.9 7.7 50.52 n/a
2018 04 19 22:00 270.7 0.0 0.00 45.4 7.5 50.24 n/a
2018 04 19 23:00 271.2 0.0 0.00 43.3 6.3 54.49 n/a
2018 04 19 24:00 271.9 0.0 0.00 41.2 5.1 59.28 n/a
2018 04 20 1:00 272.0 0.0 0.00 39.9 4.4 62.69 n/a
2018 04 20 2:00 272.6 0.0 0.00 38.5 3.6 65.94 n/a
2018 04 20 3:00 272.6 0.0 0.00 38.5 3.6 65.84 n/a
2018 04 20 4:00 272.6 0.0 0.00 37.6 3.1 68.36 n/a
2018 04 20 5:00 273.0 0.0 0.00 36.8 2.7 69.47 n/a
2018 04 20 6:00 273.1 0.0 0.00 36.4 2.5 69.36 n/a
2018 04 20 7:00 271.4 0.0 0.00 38.2 3.4 66.81 n/a
2018 04 20 8:00 269.4 0.0 0.00 43.7 6.5 59.12 n/a
2018 04 20 9:00 268.4 0.0 0.00 49.2 9.5 46.13 n/a
2018 04 20 10:00 267.8 0.0 0.00 52.2 11.2 38.39 n/a
2018 04 20 11:00 267.7 0.0 0.00 53.9 12.2 35.18 n/a
2018 04 20 12:00 267.3 0.0 0.00 56.4 13.6 30.8 n/a
2018 04 20 13:00 267.0 0.0 0.00 58.5 14.7 28.92 n/a
2018 04 20 14:00 267.0 0.0 0.00 60.7 15.9 26.76 n/a
2018 04 20 15:00 267.2 0.0 0.00 62.4 16.9 23.73 n/a
2018 04 20 16:00 266.9 0.0 0.00 62.7 17.0 22.52 n/a
2018 04 20 17:00 266.8 0.0 0.00 62.8 17.1 22.24 n/a
2018 04 20 18:00 267.0 0.0 0.00 62.2 16.8 22.86 n/a
2018 04 20 19:00 267.6 0.0 0.00 60.0 15.6 25.26 n/a
2018 04 20 20:00 267.7 0.0 0.00 58.5 14.7 26.86 n/a
2018 04 20 21:00 267.6 0.0 0.00 57.3 14.1 27.28 n/a
2018 04 20 22:00 268.3 0.0 0.00 54.8 12.7 31.08 n/a
2018 04 20 23:00 268.3 0.0 0.00 53.9 12.2 29.51 n/a
2018 04 20 24:00 268.3 0.0 0.00 53.5 11.9 28.24 n/a
2018 04 21 1:00 268.4 0.0 0.00 51.8 11.0 31.22 n/a
2018 04 21 2:00 268.9 0.0 0.00 50.6 10.3 33.8 n/a
2018 04 21 3:00 269.1 0.0 0.00 49.5 9.7 36.06 n/a
2018 04 21 4:00 269.0 0.0 0.00 49.9 9.9 34.27 n/a
2018 04 21 5:00 269.0 0.0 0.00 49.8 9.9 33.67 n/a
2018 04 21 6:00 269.0 0.0 0.00 49.4 9.7 34.43 n/a
2018 04 21 7:00 269.1 0.0 0.00 49.2 9.6 36.43 n/a
2018 04 21 8:00 269.0 0.0 0.00 49.8 9.9 38.25 n/a
2018 04 21 9:00 268.7 0.0 0.00 50.8 10.4 39.94 n/a
2018 04 21 10:00 267.7 0.0 0.00 54.0 12.3 37.12 n/a
2018 04 21 11:00 267.8 0.0 0.00 56.4 13.6 37.27 n/a
2018 04 21 12:00 267.6 0.0 0.00 59.3 15.2 35.58 n/a
2018 04 21 13:00 267.0 0.0 0.00 61.8 16.6 33.42 n/a
2018 04 21 14:00 267.2 0.0 0.00 62.8 17.1 32.96 n/a
2018 04 21 15:00 267.0 0.0 0.00 63.8 17.7 32.63 n/a
2018 04 21 16:00 267.5 0.0 0.00 63.7 17.6 32.78 n/a
2018 04 21 17:00 267.6 0.0 0.00 63.6 17.6 31.58 n/a
2018 04 21 18:00 268.0 0.0 0.00 63.0 17.2 31.37 n/a
2018 04 21 19:00 270.7 0.0 0.00 61.6 16.5 34.27 n/a
2018 04 21 20:00 271.8 0.0 0.00 59.3 15.1 41.79 n/a
2018 04 21 21:00 269.6 0.0 0.00 58.0 14.4 40.35 n/a
2018 04 21 22:00 270.0 0.0 0.00 56.5 13.6 43.25 n/a
2018 04 21 23:00 270.1 0.0 0.00 56.2 13.5 36.28 n/a
2018 04 21 24:00 269.5 0.0 0.00 55.0 12.8 37.81 n/a
2018 04 22 1:00 277.4 0.0 0.00 54.2 12.3 42.66 n/a
2018 04 22 2:00 Wet 300.7 0.0 0.00 52.3 11.3 54.45 n/a
2018 04 22 3:00 Wet 448.5 0.1 1.27 49.7 9.8 71.1 n/a
2018 04 22 4:00 Wet 451.6 0.0 0.76 48.3 9.0 80.3 n/a
2018 04 22 5:00 Wet 479.0 0.1 2.03 47.3 8.5 84.5 n/a
2018 04 22 6:00 Wet 519.9 0.2 4.83 46.2 7.9 89.2 n/a
2018 04 22 7:00 Wet 483.4 0.1 2.03 45.6 7.6 91.9 n/a
2018 04 22 8:00 Wet 447.0 0.1 1.52 46.3 7.9 92.5 n/a
2018 04 22 9:00 Wet 436.7 0.0 0.51 47.4 8.5 93.5 n/a
2018 04 22 10:00 Wet 467.3 0.1 2.03 48.2 9.0 94.5 n/a
2018 04 22 11:00 Wet 473.7 0.1 2.29 48.7 9.3 94.8 n/a
2018 04 22 12:00 Wet 419.9 0.0 0.25 48.7 9.3 92.2 n/a
2018 04 22 13:00 Wet 453.6 0.0 0.76 49.2 9.5 91.2 n/a
2018 04 22 14:00 Wet 462.3 0.0 0.76 50.5 10.3 91.3 n/a
2018 04 22 15:00 Wet 323.0 0.0 0.00 52.1 11.2 89 n/a
2018 04 22 16:00 275.1 0.0 0.00 55.6 13.1 77.91 n/a
2018 04 22 17:00 271.9 0.0 0.00 57.3 14.0 69.74 n/a
2018 04 22 18:00 271.8 0.0 0.00 57.4 14.1 67.31 n/a
2018 04 22 19:00 271.7 0.0 0.00 57.0 13.9 63.21 n/a
2018 04 22 20:00 271.7 0.0 0.00 56.0 13.4 60.51 n/a
2018 04 22 21:00 271.7 0.0 0.00 55.5 13.1 62.67 n/a
2018 04 22 22:00 271.7 0.0 0.00 55.0 12.8 61.42 n/a
2018 04 22 23:00 271.7 0.0 0.00 54.0 12.2 61.64 n/a
2018 04 22 24:00 271.4 0.0 0.00 55.0 12.8 57.14 n/a
2018 04 23 1:00 271.7 0.0 0.00 53.4 11.9 60.06 n/a
2018 04 23 2:00 271.1 0.0 0.00 52.7 11.5 55.06 n/a
2018 04 23 3:00 271.0 0.0 0.00 53.0 11.7 49.36 n/a
2018 04 23 4:00 270.8 0.0 0.00 53.3 11.8 49.09 n/a
2018 04 23 5:00 271.1 0.0 0.00 52.3 11.3 51.29 n/a
2018 04 23 6:00 271.0 0.0 0.00 51.5 10.8 50.34 n/a
2018 04 23 7:00 270.7 0.0 0.00 51.9 11.1 50.62 n/a
2018 04 23 8:00 270.3 0.0 0.00 53.0 11.7 49.7 n/a
2018 04 23 9:00 270.3 0.0 0.00 55.0 12.8 49.24 n/a
2018 04 23 10:00 269.3 0.0 0.00 58.4 14.7 47.67 n/a
2018 04 23 11:00 269.0 0.0 0.00 61.7 16.5 45.85 n/a
2018 04 23 12:00 268.7 0.0 0.00 65.0 18.3 38.22 n/a
2018 04 23 13:00 267.8 0.0 0.00 68.7 20.4 29.88 n/a
2018 04 23 14:00 267.3 0.0 0.00 70.5 21.4 25.32 n/a
2018 04 23 15:00 266.9 0.0 0.00 71.5 22.0 22.77 n/a
2018 04 23 16:00 266.8 0.0 0.00 71.6 22.0 21.9 n/a
2018 04 23 17:00 266.6 0.0 0.00 71.5 22.0 21.99 n/a
2018 04 23 18:00 266.7 0.0 0.00 70.7 21.5 23.02 n/a
2018 04 23 19:00 267.1 0.0 0.00 67.4 19.7 27.67 n/a
2018 04 23 20:00 268.3 0.0 0.00 62.5 17.0 35.16 n/a
2018 04 23 21:00 269.0 0.0 0.00 59.5 15.3 39.08 n/a
2018 04 23 22:00 269.7 0.0 0.00 56.7 13.7 44.93 n/a
2018 04 23 23:00 270.3 0.0 0.00 53.8 12.1 51.08 n/a
2018 04 23 24:00 270.4 0.0 0.00 53.5 11.9 48.73 n/a
2018 04 24 1:00 271.1 0.0 0.00 50.6 10.3 56.33 n/a
2018 04 24 2:00 271.6 0.0 0.00 48.7 9.3 60.13 n/a
2018 04 24 3:00 271.8 0.0 0.00 47.5 8.6 60.72 n/a
2018 04 24 4:00 272.9 0.0 0.00 44.8 7.1 68.65 n/a
2018 04 24 5:00 272.7 0.0 0.00 45.3 7.4 64.42 n/a
2018 04 24 6:00 273.7 0.0 0.00 43.3 6.3 70.23 n/a
2018 04 24 7:00 270.8 0.0 0.00 45.4 7.5 69.25 n/a
2018 04 24 8:00 269.2 0.0 0.00 54.5 12.5 50.78 n/a
2018 04 24 9:00 268.4 0.0 0.00 59.8 15.5 42.21 n/a
2018 04 24 10:00 267.8 0.0 0.00 64.3 18.0 38.55 n/a
2018 04 24 11:00 267.0 0.0 0.00 68.7 20.4 28.34 n/a
2018 04 24 12:00 266.8 0.0 0.00 70.4 21.3 25.02 n/a
2018 04 24 13:00 266.5 0.0 0.00 71.9 22.2 22.66 n/a
2018 04 24 14:00 266.2 0.0 0.00 72.9 22.7 21.19 n/a
2018 04 24 15:00 266.3 0.0 0.00 73.1 22.9 22.56 n/a
2018 04 24 16:00 266.2 0.0 0.00 73.7 23.1 22.64 n/a
2018 04 24 17:00 266.1 0.0 0.00 74.0 23.3 22.27 n/a
2018 04 24 18:00 266.4 0.0 0.00 72.1 22.3 23.44 n/a
2018 04 24 19:00 267.1 0.0 0.00 69.9 21.0 26.49 n/a
2018 04 24 20:00 267.6 0.0 0.00 67.5 19.7 31.25 n/a
2018 04 24 21:00 267.9 0.0 0.00 65.1 18.4 37.51 n/a
2018 04 24 22:00 268.7 0.0 0.00 62.0 16.7 50 n/a
2018 04 24 23:00 269.3 0.0 0.00 60.0 15.6 55.76 n/a
2018 04 24 24:00 269.7 0.0 0.00 58.9 14.9 57.63 n/a
2018 04 25 1:00 269.9 0.0 0.00 58.2 14.5 59.49 n/a
2018 04 25 2:00 270.4 0.0 0.00 56.6 13.7 64.49 n/a
2018 04 25 3:00 270.9 0.0 0.00 55.2 12.9 68.85 n/a
2018 04 25 4:00 271.1 0.0 0.00 54.3 12.4 71.89 n/a
2018 04 25 5:00 272.3 0.0 0.00 54.3 12.4 72.85 n/a
2018 04 25 6:00 Wet 286.0 0.0 0.00 53.2 11.8 77.21 n/a
2018 04 25 7:00 Wet 355.6 0.0 0.00 52.4 11.4 80.1 n/a
2018 04 25 8:00 Wet 362.1 0.0 0.25 51.8 11.0 82.5 n/a
2018 04 25 9:00 Wet 390.7 0.0 0.25 51.4 10.8 83.3 n/a
2018 04 25 10:00 Wet 334.6 0.0 0.25 51.8 11.0 84.2 n/a
2018 04 25 11:00 Wet 364.4 0.0 0.25 51.7 11.0 84.2 n/a
2018 04 25 12:00 Wet 292.5 0.0 0.00 51.2 10.7 86.5 n/a
2018 04 25 13:00 Wet 420.3 0.0 0.51 50.5 10.3 85.9 n/a
2018 04 25 14:00 Wet 481.4 0.1 1.27 49.9 10.0 91.3 n/a
2018 04 25 15:00 Wet 457.5 0.1 1.27 49.4 9.7 92 n/a
2018 04 25 16:00 Wet 471.2 0.0 1.02 48.9 9.4 92.5 n/a
2018 04 25 17:00 Wet 473.3 0.1 2.29 48.8 9.3 94.3 n/a
2018 04 25 18:00 Wet 448.3 0.1 1.27 49.0 9.4 94.6 n/a
2018 04 25 19:00 Wet 379.7 0.0 0.00 48.6 9.2 93.6 n/a
2018 04 25 20:00 Wet 288.8 0.0 0.00 48.3 9.1 93.6 n/a
2018 04 25 21:00 Wet 329.2 0.0 0.00 48.2 9.0 93.4 n/a
2018 04 25 22:00 Wet 291.2 0.0 0.00 48.2 9.0 93.1 n/a
2018 04 25 23:00 278.3 0.0 0.00 48.0 8.9 93.3 n/a
2018 04 25 24:00 280.0 0.0 0.00 47.5 8.6 93.9 n/a
2018 04 26 1:00 Wet 321.9 0.0 0.00 45.9 7.7 94.5 n/a
2018 04 26 2:00 Wet 429.7 0.0 0.00 44.0 6.6 96.3 n/a
2018 04 26 3:00 Wet 409.6 0.0 0.00 43.8 6.5 97.4 n/a
2018 04 26 4:00 Wet 378.8 0.0 0.00 43.5 6.4 97.6 n/a
2018 04 26 5:00 Wet 374.7 0.0 0.00 43.1 6.1 97.8 n/a
2018 04 26 6:00 Wet 370.0 0.0 0.00 42.3 5.7 97.9 n/a
2018 04 26 7:00 Wet 327.8 0.0 0.00 41.8 5.5 98.1 n/a
2018 04 26 8:00 282.7 0.0 0.00 45.8 7.7 92.7 n/a
2018 04 26 9:00 271.3 0.0 0.00 51.4 10.8 70.03 n/a
2018 04 26 10:00 270.4 0.0 0.00 54.1 12.3 62.73 n/a
2018 04 26 11:00 269.9 0.0 0.00 55.8 13.2 61.85 n/a
2018 04 26 12:00 269.5 0.0 0.00 58.2 14.6 59.01 n/a
2018 04 26 13:00 269.7 0.0 0.00 59.9 15.5 56.88 n/a
2018 04 26 14:00 269.6 0.0 0.00 60.8 16.0 56.68 n/a
2018 04 26 15:00 269.6 0.0 0.00 62.5 17.0 53.22 n/a
2018 04 26 16:00 269.6 0.0 0.00 63.4 17.4 51.25 n/a
2018 04 26 17:00 269.3 0.0 0.00 64.2 17.9 48.99 n/a
2018 04 26 18:00 269.2 0.0 0.00 64.5 18.0 47.85 n/a
2018 04 26 19:00 270.1 0.0 0.00 62.0 16.7 51.85 n/a
2018 04 26 20:00 271.6 0.0 0.00 58.8 14.9 58.44 n/a
2018 04 26 21:00 272.8 0.0 0.00 56.2 13.4 63.97 n/a
2018 04 26 22:00 274.3 0.0 0.00 54.1 12.3 70.3 n/a
2018 04 26 23:00 280.0 0.0 0.00 52.5 11.4 74.9 n/a
2018 04 26 24:00 274.1 0.0 0.00 52.6 11.5 73.85 n/a
2018 04 27 1:00 273.0 0.0 0.00 52.6 11.4 68.88 n/a
2018 04 27 2:00 272.2 0.0 0.00 51.9 11.0 60.49 n/a
2018 04 27 3:00 271.8 0.0 0.00 50.4 10.2 54.67 n/a
2018 04 27 4:00 272.1 0.0 0.00 47.8 8.8 58.85 n/a
2018 04 27 5:00 272.9 0.0 0.00 44.8 7.1 65.74 n/a
2018 04 27 6:00 273.1 0.0 0.00 43.4 6.4 67.47 n/a
2018 04 27 7:00 271.5 0.0 0.00 44.7 7.1 68.87 n/a
2018 04 27 8:00 270.6 0.0 0.00 49.8 9.9 61.9 n/a
2018 04 27 9:00 269.4 0.0 0.00 54.7 12.6 50.61 n/a
2018 04 27 10:00 268.5 0.0 0.00 58.6 14.8 42.15 n/a
2018 04 27 11:00 267.8 0.0 0.00 61.7 16.5 35.91 n/a
2018 04 27 12:00 266.9 0.0 0.00 64.3 17.9 32.32 n/a
2018 04 27 13:00 270.0 0.0 0.00 66.2 19.0 29.53 n/a
2018 04 27 14:00 267.6 0.0 0.00 67.8 19.9 26.81 n/a
2018 04 27 15:00 267.1 0.0 0.00 69.2 20.7 24.62 n/a
2018 04 27 16:00 267.0 0.0 0.00 70.1 21.2 24.24 n/a
2018 04 27 17:00 266.9 0.0 0.00 70.7 21.5 25.5 n/a
2018 04 27 18:00 266.8 0.0 0.00 70.4 21.3 25.62 n/a
2018 04 27 19:00 267.4 0.0 0.00 67.8 19.9 30.59 n/a
2018 04 27 20:00 268.7 0.0 0.00 63.1 17.3 36.26 n/a
2018 04 27 21:00 269.2 0.0 0.00 60.7 16.0 40.62 n/a
2018 04 27 22:00 269.7 0.0 0.00 58.7 14.9 43.96 n/a
2018 04 27 23:00 270.1 0.0 0.00 56.8 13.8 49.25 n/a
2018 04 27 24:00 270.8 0.0 0.00 55.6 13.1 51.93 n/a
2018 04 28 1:00 270.4 0.0 0.00 56.0 13.3 47.51 n/a
2018 04 28 2:00 269.7 0.0 0.00 55.6 13.1 40.09 n/a
2018 04 28 3:00 270.2 0.0 0.00 53.0 11.7 43.98 n/a
2018 04 28 4:00 270.4 0.0 0.00 50.8 10.4 47.64 n/a
2018 04 28 5:00 271.1 0.0 0.00 48.9 9.4 52.29 n/a
2018 04 28 6:00 271.7 0.0 0.00 46.9 8.3 57.59 n/a
2018 04 28 7:00 270.5 0.0 0.00 48.2 9.0 57.54 n/a
2018 04 28 8:00 269.5 0.0 0.00 51.5 10.9 52.58 n/a
2018 04 28 9:00 268.9 0.0 0.00 55.3 12.9 47 n/a
2018 04 28 10:00 268.4 0.0 0.00 58.3 14.6 40.89 n/a
2018 04 28 11:00 268.1 0.0 0.00 60.4 15.8 36.8 n/a
2018 04 28 12:00 268.0 0.0 0.00 61.6 16.5 34.28 n/a
2018 04 28 13:00 267.9 0.0 0.00 62.8 17.1 32.81 n/a
2018 04 28 14:00 267.9 0.0 0.00 64.3 17.9 31.94 n/a
2018 04 28 15:00 268.2 0.0 0.00 65.1 18.4 29.68 n/a
2018 04 28 16:00 268.2 0.0 0.00 65.2 18.5 28.36 n/a
2018 04 28 17:00 267.7 0.0 0.00 65.3 18.5 27.53 n/a
2018 04 28 18:00 267.6 0.0 0.00 64.6 18.1 28.91 n/a
2018 04 28 19:00 267.9 0.0 0.00 62.7 17.1 31.33 n/a
2018 04 28 20:00 268.9 0.0 0.00 59.5 15.3 34.87 n/a
2018 04 28 21:00 269.7 0.0 0.00 55.8 13.2 40.49 n/a
2018 04 28 22:00 269.7 0.0 0.00 54.6 12.5 41.6 n/a
2018 04 28 23:00 270.3 0.0 0.00 53.0 11.7 44.41 n/a
2018 04 28 24:00 270.7 0.0 0.00 51.1 10.6 48.92 n/a
2018 04 29 1:00 271.1 0.0 0.00 49.4 9.7 52.77 n/a
2018 04 29 2:00 271.1 0.0 0.00 48.5 9.1 53.85 n/a
2018 04 29 3:00 271.3 0.0 0.00 47.5 8.6 55.01 n/a
2018 04 29 4:00 271.3 0.0 0.00 47.0 8.3 54.84 n/a
2018 04 29 5:00 271.3 0.0 0.00 46.6 8.1 54.79 n/a
2018 04 29 6:00 271.4 0.0 0.00 46.6 8.1 55.34 n/a
2018 04 29 7:00 269.9 0.0 0.00 49.0 9.4 52.73 n/a
2018 04 29 8:00 268.8 0.0 0.00 52.7 11.5 48.13 n/a
2018 04 29 9:00 268.3 0.0 0.00 56.5 13.6 40.62 n/a
2018 04 29 10:00 267.9 0.0 0.00 59.2 15.1 38.85 n/a
2018 04 29 11:00 267.6 0.0 0.00 62.2 16.8 38.62 n/a
2018 04 29 12:00 267.8 0.0 0.00 63.8 17.7 38.27 n/a
2018 04 29 13:00 268.1 0.0 0.00 64.5 18.1 38.63 n/a
2018 04 29 14:00 267.9 0.0 0.00 66.0 18.9 38.45 n/a
2018 04 29 15:00 268.1 0.0 0.00 66.9 19.4 38.89 n/a
2018 04 29 16:00 268.2 0.0 0.00 67.3 19.6 39.12 n/a
2018 04 29 17:00 268.4 0.0 0.00 67.5 19.7 39.19 n/a
2018 04 29 18:00 268.2 0.0 0.00 68.2 20.1 39.02 n/a
2018 04 29 19:00 268.5 0.0 0.00 66.7 19.3 39.73 n/a
2018 04 29 20:00 269.5 0.0 0.00 63.8 17.7 43.24 n/a
2018 04 29 21:00 269.6 0.0 0.00 62.2 16.8 45.35 n/a
2018 04 29 22:00 270.1 0.0 0.00 60.8 16.0 47.26 n/a
2018 04 29 23:00 270.3 0.0 0.00 60.1 15.6 47.6 n/a
2018 04 29 24:00 270.3 0.0 0.00 58.6 14.8 49.92 n/a
2018 04 30 1:00 270.7 0.0 0.00 57.1 14.0 52.63 n/a
2018 04 30 2:00 271.1 0.0 0.00 55.9 13.3 55.44 n/a
2018 04 30 3:00 271.1 0.0 0.00 55.1 12.8 57.28 n/a
2018 04 30 4:00 271.2 0.0 0.00 54.3 12.4 58.55 n/a
2018 04 30 5:00 271.2 0.0 0.00 54.0 12.2 58.77 n/a
2018 04 30 6:00 271.5 0.0 0.00 53.5 11.9 60.07 n/a
2018 04 30 7:00 270.2 0.0 0.00 55.1 12.8 58.07 n/a
2018 04 30 8:00 269.3 0.0 0.00 58.7 14.8 53.86 n/a
2018 04 30 9:00 268.5 0.0 0.00 63.4 17.4 50.21 n/a
2018 04 30 10:00 268.2 0.0 0.00 67.2 19.5 48.67 n/a
2018 04 30 11:00 268.0 0.0 0.00 70.6 21.4 47.3 n/a
2018 04 30 12:00 267.6 0.0 0.00 73.3 22.9 44.5 n/a
2018 04 30 13:00 267.5 0.0 0.00 76.5 24.7 39.23 n/a
2018 04 30 14:00 267.2 0.0 0.00 77.6 25.4 34.32 n/a
2018 04 30 15:00 267.2 0.0 0.00 78.3 25.7 31.97 n/a
2018 04 30 16:00 267.1 0.0 0.00 78.8 26.0 30.83 n/a
2018 04 30 17:00 266.8 0.0 0.00 78.8 26.0 29.32 n/a
2018 04 30 18:00 266.8 0.0 0.00 77.6 25.4 29.87 n/a
2018 04 30 19:00 267.2 0.0 0.00 75.2 24.0 34.57 n/a
2018 04 30 20:00 268.1 0.0 0.00 72.6 22.5 39.96 n/a
2018 04 30 21:00 268.6 0.0 0.00 70.5 21.4 44.02 n/a
2018 04 30 22:00 268.9 0.0 0.00 69.1 20.6 46.06 n/a
2018 04 30 23:00 268.9 0.0 0.00 67.7 19.9 47.5 n/a
2018 04 30 24:00 269.5 0.0 0.00 66.2 19.0 50.33 n/a
2018 05 01 1:00 269.6 0.0 0.00 65.4 18.6 51.98 n/a
2018 05 01 2:00 269.6 0.0 0.00 64.7 18.1 54.16 n/a
2018 05 01 3:00 270.1 0.0 0.00 63.4 17.5 57.42 n/a
2018 05 01 4:00 270.3 0.0 0.00 62.1 16.7 61.27 n/a
2018 05 01 5:00 270.6 0.0 0.00 61.9 16.6 62.48 n/a
2018 05 01 6:00 270.7 0.0 0.00 62.5 16.9 62.74 n/a
2018 05 01 7:00 270.3 0.0 0.00 64.0 17.8 61.63 n/a
2018 05 01 8:00 269.3 0.0 0.00 66.0 18.9 60.16 n/a
2018 05 01 9:00 269.2 0.0 0.00 68.7 20.4 59.39 n/a
2018 05 01 10:00 268.9 0.0 0.00 71.7 22.1 59.06 n/a
2018 05 01 11:00 268.5 0.0 0.00 74.0 23.3 58.46 n/a
2018 05 01 12:00 268.8 0.0 0.00 74.1 23.4 58.8 n/a
2018 05 01 13:00 269.4 0.0 0.00 73.4 23.0 61.07 n/a
2018 05 01 14:00 269.1 0.0 0.00 74.4 23.5 60.01 n/a
2018 05 01 15:00 269.2 0.0 0.00 74.0 23.3 60.59 n/a
2018 05 01 16:00 269.6 0.0 0.00 73.2 22.9 61.93 n/a
2018 05 01 17:00 269.9 0.0 0.00 73.0 22.8 62.98 n/a
2018 05 01 18:00 270.2 0.0 0.00 72.8 22.7 63.16 n/a
2018 05 01 19:00 270.2 0.0 0.00 72.8 22.6 62.36 n/a
2018 05 01 20:00 270.3 0.0 0.00 72.4 22.5 62.74 n/a
2018 05 01 21:00 270.3 0.0 0.00 72.0 22.2 62.82 n/a
2018 05 01 22:00 270.3 0.0 0.00 71.9 22.2 61.11 n/a
2018 05 01 23:00 270.3 0.0 0.00 71.0 21.7 61.58 n/a
2018 05 01 24:00 270.5 0.0 0.00 70.3 21.3 63.25 n/a
2018 05 02 1:00 271.0 0.0 0.00 69.3 20.8 66.5 n/a
2018 05 02 2:00 271.0 0.0 0.00 69.5 20.8 67.73 n/a
2018 05 02 3:00 271.0 0.0 0.00 70.7 21.5 66.9 n/a
2018 05 02 4:00 271.2 0.0 0.00 70.6 21.5 69.05 n/a
2018 05 02 5:00 271.6 0.0 0.00 70.5 21.4 71.44 n/a
2018 05 02 6:00 271.6 0.0 0.00 70.7 21.5 72.47 n/a
2018 05 02 7:00 271.7 0.0 0.00 70.9 21.6 73.59 n/a
2018 05 02 8:00 271.6 0.0 0.00 71.0 21.6 74.92 n/a
2018 05 02 9:00 271.3 0.0 0.00 72.4 22.4 73.74 n/a
2018 05 02 10:00 270.7 0.0 0.00 74.2 23.4 70.59 n/a
2018 05 02 11:00 270.5 0.0 0.00 75.2 24.0 67.77 n/a
2018 05 02 12:00 269.5 0.0 0.00 77.5 25.3 62.44 n/a
2018 05 02 13:00 269.1 0.0 0.00 79.3 26.3 58.18 n/a
2018 05 02 14:00 268.8 0.0 0.00 80.0 26.7 56.34 n/a
2018 05 02 15:00 269.0 0.0 0.00 79.7 26.5 56.59 n/a
2018 05 02 16:00 269.2 0.0 0.00 79.2 26.2 57.14 n/a
2018 05 02 17:00 269.4 0.0 0.00 78.1 25.6 58.92 n/a
2018 05 02 18:00 270.0 0.0 0.00 77.1 25.1 61.78 n/a
2018 05 02 19:00 270.2 0.0 0.00 76.4 24.7 63.5 n/a
2018 05 02 20:00 271.3 0.0 0.00 75.7 24.3 66.03 n/a
2018 05 02 21:00 Wet 284.0 0.2 4.57 73.6 23.1 69.19 n/a
2018 05 02 22:00 Wet 483.3 0.3 7.11 61.6 16.5 93.5 n/a
2018 05 02 23:00 Wet 356.3 0.0 0.51 61.3 16.3 94.7 n/a
2018 05 02 24:00 Wet 298.5 0.0 0.00 61.4 16.3 95.5 n/a
2018 05 03 1:00 Wet 315.5 0.0 0.51 62.9 17.1 89 n/a
2018 05 03 2:00 278.3 0.0 0.00 62.6 17.0 84.8 n/a
2018 05 03 3:00 Wet 291.4 0.0 0.00 60.9 16.1 88.9 n/a
2018 05 03 4:00 Wet 314.4 0.0 0.00 61.2 16.2 90.6 n/a
2018 05 03 5:00 Wet 315.4 0.0 0.00 62.0 16.6 92 n/a
2018 05 03 6:00 277.3 0.0 0.00 63.5 17.5 87.9 n/a
2018 05 03 7:00 275.0 0.0 0.00 64.6 18.1 86.6 n/a
2018 05 03 8:00 Wet 337.9 0.0 0.76 64.8 18.3 89.7 n/a
2018 05 03 9:00 274.0 0.0 0.00 66.0 18.9 87.4 n/a
2018 05 03 10:00 272.1 0.0 0.00 67.6 19.8 79.95 n/a
2018 05 03 11:00 271.6 0.0 0.00 68.8 20.5 77.06 n/a
2018 05 03 12:00 271.7 0.0 0.00 68.3 20.2 79.1 n/a
2018 05 03 13:00 271.8 0.0 0.00 69.1 20.6 80.8 n/a
2018 05 03 14:00 271.6 0.0 0.00 69.8 21.0 76.37 n/a
2018 05 03 15:00 271.3 0.0 0.00 69.6 20.9 71.07 n/a
2018 05 03 16:00 271.0 0.0 0.00 70.5 21.4 70.89 n/a
2018 05 03 17:00 270.8 0.0 0.00 71.4 21.9 67.85 n/a
2018 05 03 18:00 270.9 0.0 0.00 70.5 21.4 70.26 n/a
2018 05 03 19:00 271.6 0.0 0.00 69.8 21.0 73.46 n/a
2018 05 03 20:00 271.8 0.0 0.00 68.2 20.1 75.87 n/a
2018 05 03 21:00 272.3 0.0 0.00 67.1 19.5 78.07 n/a
2018 05 03 22:00 272.3 0.0 0.00 66.5 19.1 80.4 n/a
2018 05 03 23:00 273.0 0.0 0.00 65.2 18.4 84.3 n/a
2018 05 03 24:00 273.0 0.0 0.00 65.1 18.4 85.1 n/a
2018 05 04 1:00 273.3 0.0 0.00 65.0 18.3 86 n/a
2018 05 04 2:00 273.6 0.0 0.00 65.0 18.3 86.8 n/a
2018 05 04 3:00 273.7 0.0 0.00 64.9 18.3 88.2 n/a
2018 05 04 4:00 274.7 0.0 0.00 63.9 17.7 89.1 n/a
2018 05 04 5:00 274.0 0.0 0.00 59.2 15.1 87.5 n/a
2018 05 04 6:00 275.5 0.0 0.00 57.9 14.4 90.9 n/a
2018 05 04 7:00 273.6 0.0 0.00 59.0 15.0 84.9 n/a
2018 05 04 8:00 271.9 0.0 0.00 60.2 15.7 76.36 n/a
2018 05 04 9:00 271.0 0.0 0.00 62.2 16.8 71.12 n/a
2018 05 04 10:00 270.6 0.0 0.00 64.1 17.8 64.71 n/a
2018 05 04 11:00 270.5 0.0 0.00 65.3 18.5 57.59 n/a
2018 05 04 12:00 269.5 0.0 0.00 67.4 19.6 50.04 n/a
2018 05 04 13:00 268.7 0.0 0.00 69.3 20.7 44.2 n/a
2018 05 04 14:00 268.2 0.0 0.00 71.5 21.9 38.42 n/a
2018 05 04 15:00 268.4 0.0 0.00 72.5 22.5 35.94 n/a
2018 05 04 16:00 268.2 0.0 0.00 73.4 23.0 34.07 n/a
2018 05 04 17:00 267.7 0.0 0.00 74.1 23.4 32.06 n/a
2018 05 04 18:00 267.3 0.0 0.00 74.1 23.4 30.8 n/a
2018 05 04 19:00 267.6 0.0 0.00 72.8 22.7 32.78 n/a
2018 05 04 20:00 269.5 0.0 0.00 67.7 19.8 43.25 n/a
2018 05 04 21:00 270.7 0.0 0.00 64.4 18.0 55.73 n/a
2018 05 04 22:00 271.7 0.0 0.00 62.0 16.6 63.3 n/a
2018 05 04 23:00 272.6 0.0 0.00 60.8 16.0 66.28 n/a
2018 05 04 24:00 273.8 0.0 0.00 59.5 15.3 68.42 n/a
2018 05 05 1:00 274.0 0.0 0.00 58.3 14.6 71.83 n/a
2018 05 05 2:00 280.4 0.0 0.00 56.4 13.6 77.59 n/a
2018 05 05 3:00 275.0 0.0 0.00 55.9 13.3 78.72 n/a
2018 05 05 4:00 Wet 292.3 0.0 0.00 53.8 12.1 84.2 n/a
2018 05 05 5:00 Wet 329.8 0.0 0.00 52.6 11.4 88.3 n/a
2018 05 05 6:00 Wet 368.0 0.0 0.00 51.1 10.6 92 n/a
2018 05 05 7:00 Wet 344.4 0.0 0.00 53.7 12.0 89 n/a
2018 05 05 8:00 271.1 0.0 0.00 59.5 15.3 72.08 n/a
2018 05 05 9:00 269.1 0.0 0.00 65.9 18.9 56.27 n/a
2018 05 05 10:00 267.6 0.0 0.00 70.9 21.6 45.73 n/a
2018 05 05 11:00 266.3 0.0 0.00 73.9 23.3 39.64 n/a
2018 05 05 12:00 266.0 0.0 0.00 76.0 24.4 35.92 n/a
2018 05 05 13:00 265.5 0.0 0.00 78.1 25.6 30.07 n/a
2018 05 05 14:00 265.0 0.0 0.00 78.9 26.0 26.64 n/a
2018 05 05 15:00 265.5 0.0 0.00 79.7 26.5 26.49 n/a
2018 05 05 16:00 265.9 0.0 0.00 80.1 26.7 25.63 n/a
2018 05 05 17:00 265.3 0.0 0.00 80.1 26.7 24.28 n/a
2018 05 05 18:00 264.5 0.0 0.00 79.8 26.5 25.21 n/a
2018 05 05 19:00 264.9 0.0 0.00 78.3 25.7 26.14 n/a
2018 05 05 20:00 266.2 0.0 0.00 72.1 22.3 36.06 n/a
2018 05 05 21:00 266.9 0.0 0.00 70.1 21.1 36.92 n/a
2018 05 05 22:00 267.5 0.0 0.00 66.7 19.3 43.65 n/a
2018 05 05 23:00 268.2 0.0 0.00 64.8 18.2 49.37 n/a
2018 05 05 24:00 268.8 0.0 0.00 62.7 17.1 54.28 n/a
2018 05 06 1:00 269.0 0.0 0.00 61.9 16.6 56.33 n/a
2018 05 06 2:00 269.1 0.0 0.00 60.5 15.8 59.39 n/a
2018 05 06 3:00 269.7 0.0 0.00 59.4 15.2 62.91 n/a
2018 05 06 4:00 271.5 0.0 0.00 55.6 13.1 73.37 n/a
2018 05 06 5:00 272.9 0.0 0.00 54.4 12.5 77.04 n/a
2018 05 06 6:00 272.8 0.0 0.00 54.2 12.4 78.83 n/a
2018 05 06 7:00 269.2 0.0 0.00 57.1 13.9 76.6 n/a
2018 05 06 8:00 268.0 0.0 0.00 62.5 17.0 67.32 n/a
2018 05 06 9:00 267.7 0.0 0.00 67.9 19.9 51.91 n/a
2018 05 06 10:00 270.0 0.0 0.00 68.5 20.3 50.99 n/a
2018 05 06 11:00 267.3 0.0 0.00 71.9 22.2 48.28 n/a
2018 05 06 12:00 265.8 0.0 0.00 76.2 24.6 40.9 n/a
2018 05 06 13:00 265.7 0.0 0.00 77.8 25.4 36.22 n/a
2018 05 06 14:00 265.8 0.0 0.00 79.2 26.2 36.41 n/a
2018 05 06 15:00 266.5 0.0 0.00 80.3 26.8 33.95 n/a
2018 05 06 16:00 266.2 0.0 0.00 81.7 27.6 31.59 n/a
2018 05 06 17:00 265.8 0.0 0.00 82.5 28.0 31.75 n/a
2018 05 06 18:00 265.8 0.0 0.00 82.3 27.9 30.45 n/a
2018 05 06 19:00 266.1 0.0 0.00 80.7 27.1 30.42 n/a
2018 05 06 20:00 267.2 0.0 0.00 75.7 24.3 37.08 n/a
2018 05 06 21:00 268.0 0.0 0.00 71.4 21.9 44.6 n/a
2018 05 06 22:00 268.9 0.0 0.00 67.0 19.5 52.77 n/a
2018 05 06 23:00 269.7 0.0 0.00 64.8 18.3 58.51 n/a
2018 05 06 24:00 270.6 0.0 0.00 63.0 17.2 62.2 n/a
2018 05 07 1:00 270.7 0.0 0.00 61.8 16.6 62.08 n/a
2018 05 07 2:00 271.2 0.0 0.00 60.8 16.0 64.73 n/a
2018 05 07 3:00 269.8 0.0 0.00 63.0 17.2 55.8 n/a
2018 05 07 4:00 270.4 0.0 0.00 60.2 15.6 63.18 n/a
2018 05 07 5:00 270.9 0.0 0.00 58.7 14.8 65.99 n/a
2018 05 07 6:00 271.0 0.0 0.00 57.8 14.3 68.09 n/a
2018 05 07 7:00 269.6 0.0 0.00 60.0 15.6 65.13 n/a
2018 05 07 8:00 268.5 0.0 0.00 64.1 17.9 59.81 n/a
2018 05 07 9:00 267.6 0.0 0.00 68.6 20.3 53.27 n/a
2018 05 07 10:00 266.8 0.0 0.00 72.4 22.5 47.24 n/a
2018 05 07 11:00 266.5 0.0 0.00 75.8 24.4 44.03 n/a
2018 05 07 12:00 266.1 0.0 0.00 77.7 25.4 39.41 n/a
2018 05 07 13:00 266.1 0.0 0.00 79.6 26.4 35.84 n/a
2018 05 07 14:00 266.1 0.0 0.00 81.0 27.2 33.43 n/a
2018 05 07 15:00 266.6 0.0 0.00 81.8 27.7 32.09 n/a
2018 05 07 16:00 266.6 0.0 0.00 82.7 28.1 30.94 n/a
2018 05 07 17:00 266.1 0.0 0.00 82.1 27.8 31.1 n/a
2018 05 07 18:00 266.1 0.0 0.00 81.7 27.6 30.74 n/a
2018 05 07 19:00 266.4 0.0 0.00 79.8 26.6 34.2 n/a
2018 05 07 20:00 268.2 0.0 0.00 74.6 23.7 41.48 n/a
2018 05 07 21:00 268.9 0.0 0.00 71.3 21.8 46.57 n/a
2018 05 07 22:00 268.9 0.0 0.00 69.6 20.9 46.95 n/a
2018 05 07 23:00 268.9 0.0 0.00 69.1 20.6 46.88 n/a
2018 05 07 24:00 268.9 0.0 0.00 68.2 20.1 48.22 n/a
2018 05 08 1:00 269.3 0.0 0.00 66.3 19.1 51.68 n/a
2018 05 08 2:00 269.6 0.0 0.00 64.6 18.1 54.96 n/a
2018 05 08 3:00 269.7 0.0 0.00 63.6 17.6 57.84 n/a
2018 05 08 4:00 270.3 0.0 0.00 63.2 17.4 62.63 n/a
2018 05 08 5:00 270.4 0.0 0.00 63.0 17.3 65.59 n/a
2018 05 08 6:00 270.9 0.0 0.00 62.8 17.1 67.31 n/a
2018 05 08 7:00 270.3 0.0 0.00 63.1 17.3 67.53 n/a
2018 05 08 8:00 268.8 0.0 0.00 66.0 18.9 62.42 n/a
2018 05 08 9:00 268.1 0.0 0.00 69.7 20.9 58.15 n/a
2018 05 08 10:00 267.7 0.0 0.00 73.5 23.0 54.4 n/a
2018 05 08 11:00 267.5 0.0 0.00 76.7 24.8 50.89 n/a
2018 05 08 12:00 267.5 0.0 0.00 78.7 25.9 48.44 n/a
2018 05 08 13:00 267.4 0.0 0.00 80.7 27.1 46.35 n/a
2018 05 08 14:00 267.2 0.0 0.00 82.3 27.9 46.16 n/a
2018 05 08 15:00 267.1 0.0 0.00 83.3 28.5 42.65 n/a
2018 05 08 16:00 266.8 0.0 0.00 83.3 28.5 37.71 n/a
2018 05 08 17:00 267.2 0.0 0.00 82.0 27.8 41.18 n/a
2018 05 08 18:00 267.5 0.0 0.00 81.4 27.4 39.99 n/a
2018 05 08 19:00 267.5 0.0 0.00 80.1 26.7 40.82 n/a
2018 05 08 20:00 268.0 0.0 0.00 78.5 25.9 43.65 n/a
2018 05 08 21:00 268.4 0.0 0.00 76.7 24.8 48.31 n/a
2018 05 08 22:00 268.8 0.0 0.00 75.3 24.1 51.17 n/a
2018 05 08 23:00 268.9 0.0 0.00 74.5 23.6 52.06 n/a
2018 05 08 24:00 268.9 0.0 0.00 73.7 23.2 53.12 n/a
2018 05 09 1:00 269.5 0.0 0.00 71.3 21.9 57.78 n/a
2018 05 09 2:00 269.6 0.0 0.00 71.5 22.0 57.59 n/a
2018 05 09 3:00 269.4 0.0 0.00 71.7 22.1 58.68 n/a
2018 05 09 4:00 269.6 0.0 0.00 71.2 21.8 60.75 n/a
2018 05 09 5:00 269.7 0.0 0.00 70.0 21.1 64.01 n/a
2018 05 09 6:00 270.3 0.0 0.00 68.2 20.1 68.91 n/a
2018 05 09 7:00 269.5 0.0 0.00 68.1 20.1 71.03 n/a
2018 05 09 8:00 268.4 0.0 0.00 71.0 21.7 66.56 n/a
2018 05 09 9:00 267.6 0.0 0.00 73.3 22.9 62.32 n/a
2018 05 09 10:00 267.0 0.0 0.00 76.0 24.5 56.61 n/a
2018 05 09 11:00 266.4 0.0 0.00 79.2 26.2 48.02 n/a
2018 05 09 12:00 265.7 0.0 0.00 81.6 27.5 41.29 n/a
2018 05 09 13:00 264.9 0.0 0.00 83.2 28.5 34.94 n/a
2018 05 09 14:00 264.3 0.0 0.00 84.5 29.2 29.51 n/a
2018 05 09 15:00 264.3 0.0 0.00 85.3 29.6 25.87 n/a
2018 05 09 16:00 264.2 0.0 0.00 85.1 29.5 26.33 n/a
2018 05 09 17:00 263.8 0.0 0.00 84.7 29.3 26.91 n/a
2018 05 09 18:00 264.3 0.0 0.00 83.7 28.7 29.76 n/a
2018 05 09 19:00 265.1 0.0 0.00 81.0 27.2 32.09 n/a
2018 05 09 20:00 265.6 0.0 0.00 77.2 25.1 33.67 n/a
2018 05 09 21:00 266.5 0.0 0.00 72.6 22.6 42.74 n/a
2018 05 09 22:00 267.2 0.0 0.00 69.2 20.7 51.46 n/a
2018 05 09 23:00 267.9 0.0 0.00 67.6 19.8 56.07 n/a
2018 05 09 24:00 268.6 0.0 0.00 64.7 18.2 62.55 n/a
2018 05 10 1:00 268.3 0.0 0.00 66.1 18.9 59.53 n/a
2018 05 10 2:00 268.8 0.0 0.00 65.6 18.7 62.61 n/a
2018 05 10 3:00 268.9 0.0 0.00 66.7 19.3 63.61 n/a
2018 05 10 4:00 269.3 0.0 0.00 67.0 19.4 71.98 n/a
2018 05 10 5:00 269.6 0.0 0.00 67.9 20.0 72.38 n/a
2018 05 10